Time,TemperatureF,DewpointF,PressureIn,WindDirection,WindDirectionDegrees,WindSpeedMPH,WindSpeedGustMPH,Humidity,HourlyPrecipIn,Conditions,Clouds,dailyrainin,SoftwareType,DateUTC
2013-07-07 00:00:00,75.3,60.5,29.98,SSW,202,0.0,0.0,60,0.00,,CLR,0.00,VWS V14.01,2013-07-07 05:00:00,
2013-07-07 00:01:00,75.3,60.5,29.98,South,180,0.0,0.0,60,0.00,,CLR,0.00,VWS V14.01,2013-07-07 05:01:00,
2013-07-07 00:02:00,75.3,60.9,29.98,North,0,0.0,0.0,61,0.00,,CLR,0.00,VWS V14.01,2013-07-07 05:02:00,
2013-07-07 00:04:00,75.3,60.9,29.98,SSE,158,0.0,0.0,61,0.00,,CLR,0.00,VWS V14.01,2013-07-07 05:04:00,
2013-07-07 00:05:00,75.3,60.9,29.98,SSE,158,0.0,0.0,61,0.00,,CLR,0.00,VWS V14.01,2013-07-07 05:05:00,
2013-07-07 00:06:00,75.3,60.9,29.98,South,180,0.0,0.0,61,0.00,,CLR,0.00,VWS V14.01,2013-07-07 05:06:00,
2013-07-07 00:07:00,75.3,60.9,29.98,South,180,0.0,0.0,61,0.00,,CLR,0.00,VWS V14.01,2013-07-07 05:07:00,
2013-07-07 00:08:00,75.3,60.9,29.98,South,180,0.0,0.0,61,0.00,,CLR,0.00,VWS V14.01,2013-07-07 05:08:00,
2013-07-07 00:09:00,75.2,60.8,29.98,South,180,0.0,0.0,61,0.00,,CLR,0.00,VWS V14.01,2013-07-07 05:09:00,
2013-07-07 00:10:00,75.0,60.7,29.98,SSE,158,0.0,0.0,61,0.00,,CLR,0.00,VWS V14.01,2013-07-07 05:10:00,
2013-07-07 00:12:00,75.0,60.7,29.98,SSE,158,0.0,0.0,61,0.00,,CLR,0.00,VWS V14.01,2013-07-07 05:12:00,
2013-07-07 00:14:00,74.8,60.5,29.98,South,180,0.0,0.0,61,0.00,,CLR,0.00,VWS V14.01,2013-07-07 05:14:00,
2013-07-07 00:15:00,74.8,60.5,29.98,South,180,0.0,0.0,61,0.00,,CLR,0.00,VWS V14.01,2013-07-07 05:15:00,
2013-07-07 00:16:00,74.8,60.9,29.98,South,180,0.0,0.0,62,0.00,,CLR,0.00,VWS V14.01,2013-07-07 05:16:00,
2013-07-07 00:17:00,74.8,60.9,29.98,South,180,0.0,0.0,62,0.00,,CLR,0.00,VWS V14.01,2013-07-07 05:17:00,
2013-07-07 00:18:00,74.8,60.9,29.98,SSE,158,0.0,2.6,62,0.00,,CLR,0.00,VWS V14.01,2013-07-07 05:18:00,
2013-07-07 00:19:00,74.8,60.9,29.98,SSE,158,0.0,2.6,62,0.00,,CLR,0.00,VWS V14.01,2013-07-07 05:19:00,
2013-07-07 00:20:00,74.8,60.9,29.98,SSE,158,0.0,0.0,62,0.00,,CLR,0.00,VWS V14.01,2013-07-07 05:20:00,
2013-07-07 00:21:00,74.8,60.9,29.98,SSE,158,0.0,0.0,62,0.00,,CLR,0.00,VWS V14.01,2013-07-07 05:21:00,
2013-07-07 00:22:00,74.8,60.9,29.98,SSE,158,0.0,0.0,62,0.00,,CLR,0.00,VWS V14.01,2013-07-07 05:22:00,
2013-07-07 00:23:00,74.8,60.9,29.98,SSE,158,0.0,0.0,62,0.00,,CLR,0.00,VWS V14.01,2013-07-07 05:23:00,
2013-07-07 00:24:00,74.8,60.9,29.98,SSE,158,0.0,0.0,62,0.00,,CLR,0.00,VWS V14.01,2013-07-07 05:24:00,
2013-07-07 00:25:00,74.8,60.9,29.98,SSE,158,0.0,0.0,62,0.00,,CLR,0.00,VWS V14.01,2013-07-07 05:25:00,
2013-07-07 00:26:00,74.8,60.9,29.98,SSE,158,0.0,0.0,62,0.00,,CLR,0.00,VWS V14.01,2013-07-07 05:26:00,
2013-07-07 00:28:00,74.8,60.9,29.98,South,180,0.0,0.0,62,0.00,,CLR,0.00,VWS V14.01,2013-07-07 05:28:00,
2013-07-07 00:30:00,74.8,60.9,29.97,SSE,158,0.0,0.0,62,0.00,,CLR,0.00,VWS V14.01,2013-07-07 05:30:00,
2013-07-07 00:31:00,74.6,60.7,29.97,SE,135,0.0,0.0,62,0.00,,CLR,0.00,VWS V14.01,2013-07-07 05:31:00,
2013-07-07 00:32:00,74.8,60.9,29.97,South,180,0.0,0.0,62,0.00,,CLR,0.00,VWS V14.01,2013-07-07 05:32:00,
2013-07-07 00:33:00,74.8,60.9,29.97,South,180,0.0,0.0,62,0.00,,CLR,0.00,VWS V14.01,2013-07-07 05:33:00,
2013-07-07 00:34:00,74.8,60.9,29.97,South,180,0.0,0.0,62,0.00,,CLR,0.00,VWS V14.01,2013-07-07 05:34:00,
2013-07-07 00:35:00,74.8,60.9,29.97,South,180,0.0,0.0,62,0.00,,CLR,0.00,VWS V14.01,2013-07-07 05:35:00,
2013-07-07 00:36:00,74.6,60.7,29.97,South,180,0.0,0.0,62,0.00,,CLR,0.00,VWS V14.01,2013-07-07 05:36:00,
2013-07-07 00:38:00,74.6,60.7,29.97,South,180,0.0,0.0,62,0.00,,CLR,0.00,VWS V14.01,2013-07-07 05:38:00,
2013-07-07 00:40:00,74.6,61.2,29.97,SSW,202,0.0,0.0,63,0.00,,CLR,0.00,VWS V14.01,2013-07-07 05:40:00,
2013-07-07 00:41:00,74.6,61.2,29.97,South,180,0.0,0.0,63,0.00,,CLR,0.00,VWS V14.01,2013-07-07 05:41:00,
2013-07-07 00:42:00,74.6,61.2,29.97,South,180,1.6,1.6,63,0.00,,CLR,0.00,VWS V14.01,2013-07-07 05:42:00,
2013-07-07 00:44:00,74.6,61.2,29.97,SSE,158,1.2,1.2,63,0.00,,CLR,0.00,VWS V14.01,2013-07-07 05:44:00,
2013-07-07 00:46:00,74.6,61.2,29.97,South,180,0.0,0.0,63,0.00,,CLR,0.00,VWS V14.01,2013-07-07 05:46:00,
2013-07-07 00:48:00,74.6,61.2,29.97,South,180,6.6,9.2,63,0.00,,CLR,0.00,VWS V14.01,2013-07-07 05:48:00,
2013-07-07 00:49:00,74.6,61.2,29.97,South,180,6.6,6.6,63,0.00,,CLR,0.00,VWS V14.01,2013-07-07 05:49:00,
2013-07-07 00:50:00,74.6,61.2,29.97,South,180,0.0,6.6,63,0.00,,CLR,0.00,VWS V14.01,2013-07-07 05:50:00,
2013-07-07 00:51:00,74.6,61.2,29.98,SSE,158,0.0,0.0,63,0.00,,CLR,0.00,VWS V14.01,2013-07-07 05:51:00,
2013-07-07 00:52:00,74.6,61.2,29.97,SSW,202,0.0,0.0,63,0.00,,CLR,0.00,VWS V14.01,2013-07-07 05:52:00,
2013-07-07 00:53:00,74.6,61.2,29.98,SSW,202,0.0,0.0,63,0.00,,CLR,0.00,VWS V14.01,2013-07-07 05:53:00,
2013-07-07 00:54:00,74.4,60.5,29.98,SSE,158,0.0,0.0,62,0.00,,CLR,0.00,VWS V14.01,2013-07-07 05:54:00,
2013-07-07 00:56:00,74.4,60.5,29.97,SSE,158,0.0,0.0,62,0.00,,CLR,0.00,VWS V14.01,2013-07-07 05:56:00,
2013-07-07 00:57:00,74.4,60.5,29.98,SSW,202,4.0,4.0,62,0.00,,CLR,0.00,VWS V14.01,2013-07-07 05:57:00,
2013-07-07 00:58:00,74.4,60.5,29.98,South,180,0.0,4.0,62,0.00,,CLR,0.00,VWS V14.01,2013-07-07 05:58:00,
2013-07-07 00:59:00,74.4,60.5,29.98,South,180,0.0,4.0,62,0.00,,CLR,0.00,VWS V14.01,2013-07-07 05:59:00,
2013-07-07 01:00:00,74.4,60.5,29.97,SSE,158,0.0,0.0,62,0.00,,CLR,0.00,VWS V14.01,2013-07-07 06:00:00,
2013-07-07 01:01:00,74.4,60.5,29.97,SSE,158,0.0,0.0,62,0.00,,CLR,0.00,VWS V14.01,2013-07-07 06:01:00,
2013-07-07 01:02:00,74.4,60.5,29.97,South,180,2.6,2.6,62,0.00,,CLR,0.00,VWS V14.01,2013-07-07 06:02:00,
2013-07-07 01:04:00,74.4,60.5,29.97,South,180,7.6,7.6,62,0.00,,CLR,0.00,VWS V14.01,2013-07-07 06:04:00,
2013-07-07 01:05:00,74.4,60.5,29.98,South,180,0.0,7.6,62,0.00,,CLR,0.00,VWS V14.01,2013-07-07 06:05:00,
2013-07-07 01:06:00,74.4,60.5,29.98,South,180,0.0,0.0,62,0.00,,CLR,0.00,VWS V14.01,2013-07-07 06:06:00,
2013-07-07 01:08:00,74.4,60.5,29.98,South,180,0.0,0.0,62,0.00,,CLR,0.00,VWS V14.01,2013-07-07 06:08:00,
2013-07-07 01:09:00,74.4,60.5,29.98,South,180,0.0,0.0,62,0.00,,CLR,0.00,VWS V14.01,2013-07-07 06:09:00,
2013-07-07 01:10:00,74.4,60.5,29.98,SSE,158,0.0,0.0,62,0.00,,CLR,0.00,VWS V14.01,2013-07-07 06:10:00,
2013-07-07 01:12:00,74.4,60.5,29.98,SSW,202,0.0,0.0,62,0.00,,CLR,0.00,VWS V14.01,2013-07-07 06:12:00,
2013-07-07 01:14:00,74.4,60.5,29.98,South,180,0.0,0.0,62,0.00,,CLR,0.00,VWS V14.01,2013-07-07 06:14:00,
2013-07-07 01:15:00,74.4,60.5,29.98,SSE,158,4.0,4.0,62,0.00,,CLR,0.00,VWS V14.01,2013-07-07 06:15:00,
2013-07-07 01:16:00,74.3,60.5,29.98,South,180,0.0,4.0,62,0.00,,CLR,0.00,VWS V14.01,2013-07-07 06:16:00,
2013-07-07 01:17:00,74.3,60.5,29.98,South,180,0.0,4.0,62,0.00,,CLR,0.00,VWS V14.01,2013-07-07 06:17:00,
2013-07-07 01:18:00,74.4,60.5,29.98,South,180,0.0,0.0,62,0.00,,CLR,0.00,VWS V14.01,2013-07-07 06:18:00,
2013-07-07 01:19:00,74.4,60.5,29.98,South,180,0.0,0.0,62,0.00,,CLR,0.00,VWS V14.01,2013-07-07 06:19:00,
2013-07-07 01:20:00,74.4,60.5,29.98,South,180,0.0,0.0,62,0.00,,CLR,0.00,VWS V14.01,2013-07-07 06:20:00,
2013-07-07 01:22:00,74.3,60.5,29.98,SSW,202,1.6,1.6,62,0.00,,CLR,0.00,VWS V14.01,2013-07-07 06:22:00,
2013-07-07 01:23:00,74.3,60.5,29.98,South,180,0.0,1.6,62,0.00,,CLR,0.00,VWS V14.01,2013-07-07 06:23:00,
2013-07-07 01:24:00,74.3,60.5,29.98,South,180,0.0,0.0,62,0.00,,CLR,0.00,VWS V14.01,2013-07-07 06:24:00,
2013-07-07 01:26:00,74.3,60.5,29.98,SSE,158,0.0,0.0,62,0.00,,CLR,0.00,VWS V14.01,2013-07-07 06:26:00,
2013-07-07 01:28:00,74.3,60.5,29.98,South,180,3.4,3.4,62,0.00,,CLR,0.00,VWS V14.01,2013-07-07 06:28:00,
2013-07-07 01:29:00,74.3,60.5,29.98,South,180,0.0,0.0,62,0.00,,CLR,0.00,VWS V14.01,2013-07-07 06:29:00,
2013-07-07 01:30:00,74.3,60.5,29.98,South,180,0.0,0.0,62,0.00,,CLR,0.00,VWS V14.01,2013-07-07 06:30:00,
2013-07-07 01:32:00,74.3,60.5,29.98,South,180,0.0,2.2,62,0.00,,CLR,0.00,VWS V14.01,2013-07-07 06:32:00,
2013-07-07 01:33:00,74.3,60.5,29.98,South,180,0.0,0.0,62,0.00,,CLR,0.00,VWS V14.01,2013-07-07 06:33:00,
2013-07-07 01:34:00,74.3,60.5,29.98,SSW,202,0.0,0.0,62,0.00,,CLR,0.00,VWS V14.01,2013-07-07 06:34:00,
2013-07-07 01:35:00,74.3,60.5,29.98,South,180,0.0,0.0,62,0.00,,CLR,0.00,VWS V14.01,2013-07-07 06:35:00,
2013-07-07 01:36:00,74.3,60.5,29.98,SSE,158,1.6,1.6,62,0.00,,CLR,0.00,VWS V14.01,2013-07-07 06:36:00,
2013-07-07 01:37:00,74.3,60.5,29.98,SSE,158,1.6,1.6,62,0.00,,CLR,0.00,VWS V14.01,2013-07-07 06:37:00,
2013-07-07 01:38:00,74.3,60.5,29.97,SSE,158,0.0,1.6,62,0.00,,CLR,0.00,VWS V14.01,2013-07-07 06:38:00,
2013-07-07 01:39:00,74.3,60.5,29.97,SSE,158,0.0,0.0,62,0.00,,CLR,0.00,VWS V14.01,2013-07-07 06:39:00,
2013-07-07 01:40:00,74.3,60.9,29.97,SSE,158,0.0,0.0,63,0.00,,CLR,0.00,VWS V14.01,2013-07-07 06:40:00,
2013-07-07 01:41:00,74.3,60.5,29.98,South,180,1.2,1.2,62,0.00,,CLR,0.00,VWS V14.01,2013-07-07 06:41:00,
2013-07-07 01:42:00,74.1,61.2,29.97,SSE,158,0.0,1.2,64,0.00,,CLR,0.00,VWS V14.01,2013-07-07 06:42:00,
2013-07-07 01:43:00,74.1,61.2,29.97,SSE,158,0.0,1.2,64,0.00,,CLR,0.00,VWS V14.01,2013-07-07 06:43:00,
2013-07-07 01:44:00,74.1,61.2,29.97,SSE,158,0.0,0.0,64,0.00,,CLR,0.00,VWS V14.01,2013-07-07 06:44:00,
2013-07-07 01:45:00,74.1,61.2,29.97,SSE,158,0.0,0.0,64,0.00,,CLR,0.00,VWS V14.01,2013-07-07 06:45:00,
2013-07-07 01:46:00,74.1,0.0,29.97,SSE,158,0.0,0.0,0,0.00,,CLR,0.00,VWS V14.01,2013-07-07 06:46:00,
2013-07-07 01:47:00,74.1,0.0,29.97,SSE,158,0.0,0.0,0,0.00,,CLR,0.00,VWS V14.01,2013-07-07 06:47:00,
2013-07-07 01:48:00,74.1,61.2,29.97,South,180,0.0,0.0,64,0.00,,CLR,0.00,VWS V14.01,2013-07-07 06:48:00,
2013-07-07 01:50:00,74.1,61.2,29.97,South,180,0.0,0.0,64,0.00,,CLR,0.00,VWS V14.01,2013-07-07 06:50:00,
2013-07-07 01:51:00,74.1,61.2,29.97,SSW,202,4.4,4.4,64,0.00,,CLR,0.00,VWS V14.01,2013-07-07 06:51:00,
2013-07-07 01:52:00,74.1,61.2,29.97,South,180,0.0,4.4,64,0.00,,CLR,0.00,VWS V14.01,2013-07-07 06:52:00,
2013-07-07 01:54:00,74.1,61.2,29.97,SSE,158,0.0,0.0,64,0.00,,CLR,0.00,VWS V14.01,2013-07-07 06:54:00,
2013-07-07 01:56:00,73.9,61.0,29.97,South,180,0.0,0.0,64,0.00,,CLR,0.00,VWS V14.01,2013-07-07 06:56:00,
2013-07-07 01:57:00,73.9,61.0,29.97,South,180,0.0,0.0,64,0.00,,CLR,0.00,VWS V14.01,2013-07-07 06:57:00,
2013-07-07 01:58:00,73.9,61.0,29.97,South,180,0.0,0.0,64,0.00,,CLR,0.00,VWS V14.01,2013-07-07 06:58:00,
2013-07-07 01:59:00,73.9,61.4,29.97,South,180,0.0,0.0,65,0.00,,CLR,0.00,VWS V14.01,2013-07-07 06:59:00,
2013-07-07 02:00:00,73.7,61.2,29.98,SSE,158,0.0,0.0,65,0.00,,CLR,0.00,VWS V14.01,2013-07-07 07:00:00,
2013-07-07 02:01:00,73.7,61.2,29.98,SSE,158,0.0,0.0,65,0.00,,CLR,0.00,VWS V14.01,2013-07-07 07:01:00,
2013-07-07 02:02:00,73.7,61.2,29.97,South,180,0.0,0.0,65,0.00,,CLR,0.00,VWS V14.01,2013-07-07 07:02:00,
2013-07-07 02:04:00,73.9,61.4,29.98,SSE,158,2.6,2.6,65,0.00,,CLR,0.00,VWS V14.01,2013-07-07 07:04:00,
2013-07-07 02:05:00,73.9,61.4,29.98,SSE,158,2.6,2.6,65,0.00,,CLR,0.00,VWS V14.01,2013-07-07 07:05:00,
2013-07-07 02:06:00,73.7,61.2,29.98,South,180,6.6,6.6,65,0.00,,CLR,0.00,VWS V14.01,2013-07-07 07:06:00,
2013-07-07 02:07:00,73.7,61.2,29.98,South,180,6.6,6.6,65,0.00,,CLR,0.00,VWS V14.01,2013-07-07 07:07:00,
2013-07-07 02:08:00,73.7,61.2,29.98,South,180,8.4,8.4,65,0.00,,CLR,0.00,VWS V14.01,2013-07-07 07:08:00,
2013-07-07 02:10:00,73.7,61.2,29.97,SSW,202,0.0,2.6,65,0.00,,CLR,0.00,VWS V14.01,2013-07-07 07:10:00,
2013-07-07 02:12:00,73.7,61.2,29.97,SSE,158,0.0,0.0,65,0.00,,CLR,0.00,VWS V14.01,2013-07-07 07:12:00,
2013-07-07 02:13:00,73.7,61.7,29.97,SSE,158,0.0,0.0,66,0.00,,CLR,0.00,VWS V14.01,2013-07-07 07:13:00,
2013-07-07 02:14:00,73.7,61.7,29.97,South,180,0.0,0.0,66,0.00,,CLR,0.00,VWS V14.01,2013-07-07 07:14:00,
2013-07-07 02:16:00,73.5,61.5,29.97,South,180,0.0,0.0,66,0.00,,CLR,0.00,VWS V14.01,2013-07-07 07:16:00,
2013-07-07 02:17:00,73.7,61.7,29.97,SSE,158,2.6,2.6,66,0.00,,CLR,0.00,VWS V14.01,2013-07-07 07:17:00,
2013-07-07 02:18:00,73.5,61.5,29.97,South,180,0.0,2.6,66,0.00,,CLR,0.00,VWS V14.01,2013-07-07 07:18:00,
2013-07-07 02:20:00,73.7,61.7,29.97,South,180,0.0,2.2,66,0.00,,CLR,0.00,VWS V14.01,2013-07-07 07:20:00,
2013-07-07 02:21:00,73.7,61.7,29.97,South,180,0.0,2.2,66,0.00,,CLR,0.00,VWS V14.01,2013-07-07 07:21:00,
2013-07-07 02:22:00,73.5,61.5,29.97,South,180,0.0,0.0,66,0.00,,CLR,0.00,VWS V14.01,2013-07-07 07:22:00,
2013-07-07 02:24:00,73.5,61.5,29.97,South,180,0.0,0.0,66,0.00,,CLR,0.00,VWS V14.01,2013-07-07 07:24:00,
2013-07-07 02:25:00,73.5,61.5,29.97,South,180,4.0,4.0,66,0.00,,CLR,0.00,VWS V14.01,2013-07-07 07:25:00,
2013-07-07 02:26:00,73.5,61.5,29.97,SSW,202,0.0,4.0,66,0.00,,CLR,0.00,VWS V14.01,2013-07-07 07:26:00,
2013-07-07 02:27:00,73.5,61.5,29.97,SSW,202,0.0,4.0,66,0.00,,CLR,0.00,VWS V14.01,2013-07-07 07:27:00,
2013-07-07 02:28:00,73.5,61.5,29.97,South,180,0.0,0.0,66,0.00,,CLR,0.00,VWS V14.01,2013-07-07 07:28:00,
2013-07-07 02:29:00,73.5,61.5,29.97,South,180,0.0,0.0,66,0.00,,CLR,0.00,VWS V14.01,2013-07-07 07:29:00,
2013-07-07 02:30:00,73.5,61.5,29.97,South,180,0.0,0.0,66,0.00,,CLR,0.00,VWS V14.01,2013-07-07 07:30:00,
2013-07-07 02:32:00,73.5,61.5,29.97,South,180,0.0,0.0,66,0.00,,CLR,0.00,VWS V14.01,2013-07-07 07:32:00,
2013-07-07 02:33:00,73.5,61.5,29.97,South,180,0.0,0.0,66,0.00,,CLR,0.00,VWS V14.01,2013-07-07 07:33:00,
2013-07-07 02:34:00,73.5,61.5,29.97,SSW,202,4.4,4.4,66,0.00,,CLR,0.00,VWS V14.01,2013-07-07 07:34:00,
2013-07-07 02:35:00,73.5,61.5,29.97,South,180,0.0,4.4,66,0.00,,CLR,0.00,VWS V14.01,2013-07-07 07:35:00,
2013-07-07 02:36:00,73.5,61.5,29.97,South,180,0.0,0.0,66,0.00,,CLR,0.00,VWS V14.01,2013-07-07 07:36:00,
2013-07-07 02:37:00,73.5,61.5,29.97,South,180,0.0,0.0,66,0.00,,CLR,0.00,VWS V14.01,2013-07-07 07:37:00,
2013-07-07 02:38:00,73.5,61.5,29.97,South,180,0.0,0.0,66,0.00,,CLR,0.00,VWS V14.01,2013-07-07 07:38:00,
2013-07-07 02:39:00,73.5,61.5,29.97,South,180,0.0,0.0,66,0.00,,CLR,0.00,VWS V14.01,2013-07-07 07:39:00,
2013-07-07 02:40:00,73.5,61.5,29.97,South,180,0.0,0.0,66,0.00,,CLR,0.00,VWS V14.01,2013-07-07 07:40:00,
2013-07-07 02:41:00,73.5,61.5,29.97,South,180,0.0,0.0,66,0.00,,CLR,0.00,VWS V14.01,2013-07-07 07:41:00,
2013-07-07 02:42:00,73.5,61.5,29.97,SSE,158,2.6,2.6,66,0.00,,CLR,0.00,VWS V14.01,2013-07-07 07:42:00,
2013-07-07 02:44:00,73.5,61.5,29.96,SSW,202,0.0,3.4,66,0.00,,CLR,0.00,VWS V14.01,2013-07-07 07:44:00,
2013-07-07 02:45:00,73.5,61.5,29.96,SSW,202,0.0,3.4,66,0.00,,CLR,0.00,VWS V14.01,2013-07-07 07:45:00,
2013-07-07 02:46:00,73.7,61.7,29.96,SSW,202,0.0,0.0,66,0.00,,CLR,0.00,VWS V14.01,2013-07-07 07:46:00,
2013-07-07 02:47:00,73.5,61.5,29.96,SSW,202,0.0,0.0,66,0.00,,CLR,0.00,VWS V14.01,2013-07-07 07:47:00,
2013-07-07 02:48:00,73.5,61.5,29.96,SE,135,0.0,3.4,66,0.00,,CLR,0.00,VWS V14.01,2013-07-07 07:48:00,
2013-07-07 02:49:00,73.5,61.5,29.96,SE,135,0.0,0.0,66,0.00,,CLR,0.00,VWS V14.01,2013-07-07 07:49:00,
2013-07-07 02:50:00,73.5,61.5,29.96,South,180,0.0,0.0,66,0.00,,CLR,0.00,VWS V14.01,2013-07-07 07:50:00,
2013-07-07 02:52:00,73.5,61.5,29.97,South,180,0.0,0.0,66,0.00,,CLR,0.00,VWS V14.01,2013-07-07 07:52:00,
2013-07-07 02:53:00,73.5,61.5,29.97,South,180,0.0,0.0,66,0.00,,CLR,0.00,VWS V14.01,2013-07-07 07:53:00,
2013-07-07 02:54:00,73.5,61.5,29.97,South,180,0.0,0.0,66,0.00,,CLR,0.00,VWS V14.01,2013-07-07 07:54:00,
2013-07-07 02:55:00,73.5,61.5,29.97,South,180,0.0,0.0,66,0.00,,CLR,0.00,VWS V14.01,2013-07-07 07:55:00,
2013-07-07 02:56:00,73.5,61.5,29.97,South,180,0.0,2.2,66,0.00,,CLR,0.00,VWS V14.01,2013-07-07 07:56:00,
2013-07-07 02:58:00,73.5,61.5,29.97,South,180,0.0,0.0,66,0.00,,CLR,0.00,VWS V14.01,2013-07-07 07:58:00,
2013-07-07 02:59:00,73.5,61.5,29.97,SSE,158,0.0,0.0,66,0.00,,CLR,0.00,VWS V14.01,2013-07-07 07:59:00,
2013-07-07 03:00:00,73.5,61.5,29.96,SE,135,6.2,6.2,66,0.00,,CLR,0.00,VWS V14.01,2013-07-07 08:00:00,
2013-07-07 03:02:00,73.5,61.5,29.97,South,180,0.0,0.0,66,0.00,,CLR,0.00,VWS V14.01,2013-07-07 08:02:00,
2013-07-07 03:03:00,73.5,61.5,29.97,South,180,0.0,0.0,66,0.00,,CLR,0.00,VWS V14.01,2013-07-07 08:03:00,
2013-07-07 03:04:00,73.5,61.5,29.96,South,180,0.0,0.0,66,0.00,,CLR,0.00,VWS V14.01,2013-07-07 08:04:00,
2013-07-07 03:05:00,73.5,61.5,29.96,South,180,0.0,0.0,66,0.00,,CLR,0.00,VWS V14.01,2013-07-07 08:05:00,
2013-07-07 03:06:00,73.5,61.5,29.97,SSE,158,0.0,0.0,66,0.00,,CLR,0.00,VWS V14.01,2013-07-07 08:06:00,
2013-07-07 03:07:00,73.5,61.5,29.97,SSE,158,0.0,0.0,66,0.00,,CLR,0.00,VWS V14.01,2013-07-07 08:07:00,
2013-07-07 03:08:00,73.5,61.5,29.96,SSE,158,0.0,0.0,66,0.00,,CLR,0.00,VWS V14.01,2013-07-07 08:08:00,
2013-07-07 03:09:00,73.5,61.5,29.97,South,180,0.0,0.0,66,0.00,,CLR,0.00,VWS V14.01,2013-07-07 08:09:00,
2013-07-07 03:10:00,73.5,61.5,29.97,SSW,202,0.0,0.0,66,0.00,,CLR,0.00,VWS V14.01,2013-07-07 08:10:00,
2013-07-07 03:12:00,73.5,61.5,29.96,South,180,5.8,5.8,66,0.00,,CLR,0.00,VWS V14.01,2013-07-07 08:12:00,
2013-07-07 03:13:00,73.4,61.4,29.97,SE,135,0.0,5.8,66,0.00,,CLR,0.00,VWS V14.01,2013-07-07 08:13:00,
2013-07-07 03:14:00,73.4,61.4,29.97,South,180,5.2,5.2,66,0.00,,CLR,0.00,VWS V14.01,2013-07-07 08:14:00,
2013-07-07 03:16:00,73.4,61.4,29.97,South,180,0.0,5.2,66,0.00,,CLR,0.00,VWS V14.01,2013-07-07 08:16:00,
2013-07-07 03:17:00,73.4,61.4,29.97,South,180,0.0,5.2,66,0.00,,CLR,0.00,VWS V14.01,2013-07-07 08:17:00,
2013-07-07 03:18:00,73.4,61.4,29.96,South,180,0.0,0.0,66,0.00,,CLR,0.00,VWS V14.01,2013-07-07 08:18:00,
2013-07-07 03:19:00,73.4,61.4,29.96,South,180,0.0,0.0,66,0.00,,CLR,0.00,VWS V14.01,2013-07-07 08:19:00,
2013-07-07 03:20:00,73.4,61.4,29.96,SSE,158,0.0,3.4,66,0.00,,CLR,0.00,VWS V14.01,2013-07-07 08:20:00,
2013-07-07 03:21:00,73.4,61.4,29.96,SSE,158,0.0,3.4,66,0.00,,CLR,0.00,VWS V14.01,2013-07-07 08:21:00,
2013-07-07 03:22:00,73.2,61.2,29.96,SSE,158,0.0,0.0,66,0.00,,CLR,0.00,VWS V14.01,2013-07-07 08:22:00,
2013-07-07 03:23:00,73.2,61.2,29.96,SSE,158,0.0,0.0,66,0.00,,CLR,0.00,VWS V14.01,2013-07-07 08:23:00,
2013-07-07 03:24:00,73.2,61.2,29.96,South,180,4.4,4.4,66,0.00,,CLR,0.00,VWS V14.01,2013-07-07 08:24:00,
2013-07-07 03:26:00,73.4,61.8,29.96,SSW,202,0.0,0.0,67,0.00,,CLR,0.00,VWS V14.01,2013-07-07 08:26:00,
2013-07-07 03:28:00,73.2,61.2,29.96,SSE,158,0.0,0.0,66,0.00,,CLR,0.00,VWS V14.01,2013-07-07 08:28:00,
2013-07-07 03:29:00,73.2,61.6,29.96,SSE,158,4.4,4.4,67,0.00,,CLR,0.00,VWS V14.01,2013-07-07 08:29:00,
2013-07-07 03:30:00,73.4,61.8,29.96,SSW,202,0.0,4.4,67,0.00,,CLR,0.00,VWS V14.01,2013-07-07 08:30:00,
2013-07-07 03:32:00,73.2,61.6,29.96,SSW,202,0.0,0.0,67,0.00,,CLR,0.00,VWS V14.01,2013-07-07 08:32:00,
2013-07-07 03:34:00,73.2,61.6,29.96,SSE,158,0.0,0.0,67,0.00,,CLR,0.00,VWS V14.01,2013-07-07 08:34:00,
2013-07-07 03:35:00,73.2,61.6,29.96,SSE,158,0.0,0.0,67,0.00,,CLR,0.00,VWS V14.01,2013-07-07 08:35:00,
2013-07-07 03:36:00,73.2,61.6,29.96,SSW,202,1.2,1.2,67,0.00,,CLR,0.00,VWS V14.01,2013-07-07 08:36:00,
2013-07-07 03:38:00,73.2,61.6,29.96,South,180,0.0,1.2,67,0.00,,CLR,0.00,VWS V14.01,2013-07-07 08:38:00,
2013-07-07 03:39:00,73.2,61.6,29.96,South,180,0.0,1.2,67,0.00,,CLR,0.00,VWS V14.01,2013-07-07 08:39:00,
2013-07-07 03:40:00,73.0,61.4,29.96,SSW,202,0.0,0.0,67,0.00,,CLR,0.00,VWS V14.01,2013-07-07 08:40:00,
2013-07-07 03:41:00,73.0,61.4,29.96,South,180,0.0,0.0,67,0.00,,CLR,0.00,VWS V14.01,2013-07-07 08:41:00,
2013-07-07 03:42:00,73.0,61.4,29.96,SSE,158,0.0,0.0,67,0.00,,CLR,0.00,VWS V14.01,2013-07-07 08:42:00,
2013-07-07 03:44:00,73.0,61.4,29.96,South,180,0.0,0.0,67,0.00,,CLR,0.00,VWS V14.01,2013-07-07 08:44:00,
2013-07-07 03:45:00,73.0,61.4,29.96,South,180,0.0,0.0,67,0.00,,CLR,0.00,VWS V14.01,2013-07-07 08:45:00,
2013-07-07 03:46:00,73.0,61.4,29.96,SSE,158,1.6,1.6,67,0.00,,CLR,0.00,VWS V14.01,2013-07-07 08:46:00,
2013-07-07 03:48:00,73.0,61.4,29.97,SSE,158,0.0,1.6,67,0.00,,CLR,0.00,VWS V14.01,2013-07-07 08:48:00,
2013-07-07 03:49:00,72.8,61.2,29.97,South,180,0.0,0.0,67,0.00,,CLR,0.00,VWS V14.01,2013-07-07 08:49:00,
2013-07-07 03:50:00,72.8,61.2,29.97,South,180,4.0,4.0,67,0.00,,CLR,0.00,VWS V14.01,2013-07-07 08:50:00,
2013-07-07 03:52:00,72.8,61.6,29.96,SSE,158,0.0,0.0,68,0.00,,CLR,0.00,VWS V14.01,2013-07-07 08:52:00,
2013-07-07 03:54:00,72.8,61.6,29.97,SSE,158,0.0,0.0,68,0.00,,CLR,0.00,VWS V14.01,2013-07-07 08:54:00,
2013-07-07 03:55:00,72.8,61.6,29.97,South,180,0.0,0.0,68,0.00,,CLR,0.00,VWS V14.01,2013-07-07 08:55:00,
2013-07-07 03:56:00,72.8,61.6,29.97,South,180,0.0,0.0,68,0.00,,CLR,0.00,VWS V14.01,2013-07-07 08:56:00,
2013-07-07 03:58:00,72.6,61.4,29.97,South,180,0.0,0.0,68,0.00,,CLR,0.00,VWS V14.01,2013-07-07 08:58:00,
2013-07-07 04:00:00,72.6,61.4,29.97,South,180,0.0,0.0,68,0.00,,CLR,0.00,VWS V14.01,2013-07-07 09:00:00,
2013-07-07 04:01:00,72.6,61.4,29.96,SSE,158,0.0,0.0,68,0.00,,CLR,0.00,VWS V14.01,2013-07-07 09:01:00,
2013-07-07 04:02:00,72.8,61.6,29.96,SW,225,0.0,0.0,68,0.00,,CLR,0.00,VWS V14.01,2013-07-07 09:02:00,
2013-07-07 04:03:00,72.6,61.4,29.96,South,180,0.0,0.0,68,0.00,,CLR,0.00,VWS V14.01,2013-07-07 09:03:00,
2013-07-07 04:04:00,72.6,61.4,29.97,SE,135,0.0,0.0,68,0.00,,CLR,0.00,VWS V14.01,2013-07-07 09:04:00,
2013-07-07 04:05:00,72.6,61.4,29.97,South,180,0.0,0.0,68,0.00,,CLR,0.00,VWS V14.01,2013-07-07 09:05:00,
2013-07-07 04:06:00,72.6,61.4,29.97,South,180,0.0,0.0,68,0.00,,CLR,0.00,VWS V14.01,2013-07-07 09:06:00,
2013-07-07 04:08:00,72.6,61.4,29.97,SSW,202,0.0,0.0,68,0.00,,CLR,0.00,VWS V14.01,2013-07-07 09:08:00,
2013-07-07 04:10:00,72.6,61.4,29.97,South,180,0.0,0.0,68,0.00,,CLR,0.00,VWS V14.01,2013-07-07 09:10:00,
2013-07-07 04:11:00,72.6,61.4,29.97,SSW,202,0.0,0.0,68,0.00,,CLR,0.00,VWS V14.01,2013-07-07 09:11:00,
2013-07-07 04:12:00,72.8,61.6,29.96,South,180,0.0,0.0,68,0.00,,CLR,0.00,VWS V14.01,2013-07-07 09:12:00,
2013-07-07 04:14:00,72.6,61.4,29.97,SSW,202,0.0,0.0,68,0.00,,CLR,0.00,VWS V14.01,2013-07-07 09:14:00,
2013-07-07 04:16:00,72.6,61.4,29.97,SSE,158,0.0,0.0,68,0.00,,CLR,0.00,VWS V14.01,2013-07-07 09:16:00,
2013-07-07 04:17:00,72.5,61.3,29.96,SSW,202,0.0,0.0,68,0.00,,CLR,0.00,VWS V14.01,2013-07-07 09:17:00,
2013-07-07 04:18:00,72.5,61.3,29.97,SSE,158,10.6,10.6,68,0.00,,CLR,0.00,VWS V14.01,2013-07-07 09:18:00,
2013-07-07 04:19:00,72.5,61.3,29.97,SSE,158,10.6,10.6,68,0.00,,CLR,0.00,VWS V14.01,2013-07-07 09:19:00,
2013-07-07 04:20:00,72.5,61.3,29.96,SSE,158,0.0,10.6,68,0.00,,CLR,0.00,VWS V14.01,2013-07-07 09:20:00,
2013-07-07 04:21:00,72.5,61.3,29.96,SSE,158,0.0,10.6,68,0.00,,CLR,0.00,VWS V14.01,2013-07-07 09:21:00,
2013-07-07 04:22:00,72.6,61.4,29.96,SSE,158,0.0,0.0,68,0.00,,CLR,0.00,VWS V14.01,2013-07-07 09:22:00,
2013-07-07 04:23:00,72.6,61.4,29.96,SSE,158,0.0,0.0,68,0.00,,CLR,0.00,VWS V14.01,2013-07-07 09:23:00,
2013-07-07 04:24:00,72.6,61.4,29.96,SSE,158,0.0,0.0,68,0.00,,CLR,0.00,VWS V14.01,2013-07-07 09:24:00,
2013-07-07 04:25:00,72.6,61.4,29.96,South,180,0.0,0.0,68,0.00,,CLR,0.00,VWS V14.01,2013-07-07 09:25:00,
2013-07-07 04:26:00,72.5,61.3,29.97,South,180,0.0,0.0,68,0.00,,CLR,0.00,VWS V14.01,2013-07-07 09:26:00,
2013-07-07 04:28:00,72.5,61.3,29.97,South,180,0.0,0.0,68,0.00,,CLR,0.00,VWS V14.01,2013-07-07 09:28:00,
2013-07-07 04:29:00,72.5,61.3,29.97,SSW,202,0.0,0.0,68,0.00,,CLR,0.00,VWS V14.01,2013-07-07 09:29:00,
2013-07-07 04:30:00,72.5,61.3,29.97,SSW,202,0.0,0.0,68,0.00,,CLR,0.00,VWS V14.01,2013-07-07 09:30:00,
2013-07-07 04:32:00,72.3,61.2,29.96,South,180,0.0,0.0,68,0.00,,CLR,0.00,VWS V14.01,2013-07-07 09:32:00,
2013-07-07 04:33:00,72.3,61.6,29.96,SSE,158,0.0,0.0,69,0.00,,CLR,0.00,VWS V14.01,2013-07-07 09:33:00,
2013-07-07 04:34:00,72.5,61.8,29.97,South,180,0.0,0.0,69,0.00,,CLR,0.00,VWS V14.01,2013-07-07 09:34:00,
2013-07-07 04:35:00,72.5,61.8,29.97,South,180,0.0,0.0,69,0.00,,CLR,0.00,VWS V14.01,2013-07-07 09:35:00,
2013-07-07 04:36:00,72.3,61.6,29.97,South,180,0.0,0.0,69,0.00,,CLR,0.00,VWS V14.01,2013-07-07 09:36:00,
2013-07-07 04:38:00,72.3,61.6,29.97,South,180,0.0,0.0,69,0.00,,CLR,0.00,VWS V14.01,2013-07-07 09:38:00,
2013-07-07 04:40:00,72.1,61.8,29.97,SSW,202,0.0,0.0,70,0.00,,CLR,0.00,VWS V14.01,2013-07-07 09:40:00,
2013-07-07 04:41:00,72.1,61.8,29.97,SSW,202,0.0,0.0,70,0.00,,FEW070,0.00,VWS V14.01,2013-07-07 09:41:00,
2013-07-07 04:42:00,72.1,61.8,29.97,South,180,0.0,0.0,70,0.00,,CLR,0.00,VWS V14.01,2013-07-07 09:42:00,
2013-07-07 04:43:00,72.1,61.8,29.97,South,180,0.0,0.0,70,0.00,,FEW070,0.00,VWS V14.01,2013-07-07 09:43:00,
2013-07-07 04:44:00,72.1,61.8,29.97,South,180,0.0,0.0,70,0.00,,CLR,0.00,VWS V14.01,2013-07-07 09:44:00,
2013-07-07 04:46:00,72.3,62.0,29.97,South,180,0.0,0.0,70,0.00,,FEW070,0.00,VWS V14.01,2013-07-07 09:46:00,
2013-07-07 04:48:00,72.3,62.0,29.98,South,180,0.0,0.0,70,0.00,,FEW070,0.00,VWS V14.01,2013-07-07 09:48:00,
2013-07-07 04:49:00,72.1,61.8,29.98,SSE,158,0.0,0.0,70,0.00,,FEW070,0.00,VWS V14.01,2013-07-07 09:49:00,
2013-07-07 04:50:00,72.3,62.0,29.99,SW,225,0.0,0.0,70,0.00,,CLR,0.00,VWS V14.01,2013-07-07 09:50:00,
2013-07-07 04:51:00,72.3,62.0,29.99,SW,225,0.0,0.0,70,0.00,,FEW070,0.00,VWS V14.01,2013-07-07 09:51:00,
2013-07-07 04:52:00,72.1,61.8,29.99,South,180,0.0,0.0,70,0.00,,CLR,0.00,VWS V14.01,2013-07-07 09:52:00,
2013-07-07 04:53:00,72.1,61.8,29.99,South,180,0.0,0.0,70,0.00,,FEW070,0.00,VWS V14.01,2013-07-07 09:53:00,
2013-07-07 04:54:00,71.9,61.6,29.98,South,180,0.0,0.0,70,0.00,,FEW070,0.00,VWS V14.01,2013-07-07 09:54:00,
2013-07-07 04:56:00,72.1,61.8,29.98,South,180,0.0,0.0,70,0.00,,CLR,0.00,VWS V14.01,2013-07-07 09:56:00,
2013-07-07 04:57:00,72.1,61.8,29.98,South,180,0.0,0.0,70,0.00,,FEW070,0.00,VWS V14.01,2013-07-07 09:57:00,
2013-07-07 04:58:00,71.9,61.6,29.98,South,180,0.0,0.0,70,0.00,,FEW070,0.00,VWS V14.01,2013-07-07 09:58:00,
2013-07-07 04:59:00,71.9,61.6,29.98,South,180,0.0,0.0,70,0.00,,FEW070,0.00,VWS V14.01,2013-07-07 09:59:00,
2013-07-07 05:00:00,71.9,61.6,29.98,South,180,0.0,0.0,70,0.00,,CLR,0.00,VWS V14.01,2013-07-07 10:00:00,
2013-07-07 05:02:00,71.9,61.6,29.98,SSE,158,0.0,0.0,70,0.00,,CLR,0.00,VWS V14.01,2013-07-07 10:02:00,
2013-07-07 05:03:00,71.9,61.6,29.98,SSE,158,0.0,0.0,70,0.00,,FEW070,0.00,VWS V14.01,2013-07-07 10:03:00,
2013-07-07 05:04:00,71.9,61.6,29.98,SSE,158,0.0,0.0,70,0.00,,FEW070,0.00,VWS V14.01,2013-07-07 10:04:00,
2013-07-07 05:05:00,71.9,61.6,29.98,South,180,0.0,0.0,70,0.00,,FEW070,0.00,VWS V14.01,2013-07-07 10:05:00,
2013-07-07 05:06:00,71.9,61.6,29.98,South,180,0.0,0.0,70,0.00,,CLR,0.00,VWS V14.01,2013-07-07 10:06:00,
2013-07-07 05:08:00,71.9,61.6,29.98,South,180,0.0,0.0,70,0.00,,FEW070,0.00,VWS V14.01,2013-07-07 10:08:00,
2013-07-07 05:09:00,71.9,61.6,29.98,South,180,0.0,0.0,70,0.00,,FEW070,0.00,VWS V14.01,2013-07-07 10:09:00,
2013-07-07 05:10:00,71.9,61.6,29.98,SSE,158,0.0,0.0,70,0.00,,CLR,0.00,VWS V14.01,2013-07-07 10:10:00,
2013-07-07 05:11:00,71.9,61.6,29.98,SSE,158,0.0,0.0,70,0.00,,FEW070,0.00,VWS V14.01,2013-07-07 10:11:00,
2013-07-07 05:12:00,71.9,61.6,29.97,SSW,202,6.2,6.2,70,0.00,,FEW070,0.00,VWS V14.01,2013-07-07 10:12:00,
2013-07-07 05:13:00,71.9,61.6,29.98,South,180,0.0,6.2,70,0.00,,FEW070,0.00,VWS V14.01,2013-07-07 10:13:00,
2013-07-07 05:14:00,71.9,61.6,29.98,SSW,202,0.0,0.0,70,0.00,,CLR,0.00,VWS V14.01,2013-07-07 10:14:00,
2013-07-07 05:16:00,71.7,61.4,29.98,SSW,202,1.6,1.6,70,0.00,,CLR,0.00,VWS V14.01,2013-07-07 10:16:00,
2013-07-07 05:17:00,71.7,61.4,29.98,SSW,202,1.6,1.6,70,0.00,,FEW070,0.00,VWS V14.01,2013-07-07 10:17:00,
2013-07-07 05:18:00,71.7,61.4,29.98,SE,135,0.0,1.6,70,0.00,,FEW070,0.00,VWS V14.01,2013-07-07 10:18:00,
2013-07-07 05:19:00,71.7,61.4,29.98,SSE,158,0.0,1.6,70,0.00,,FEW070,0.00,VWS V14.01,2013-07-07 10:19:00,
2013-07-07 05:20:00,71.7,61.4,29.97,South,180,0.0,0.0,70,0.00,,CLR,0.00,VWS V14.01,2013-07-07 10:20:00,
2013-07-07 05:21:00,71.7,61.4,29.97,South,180,0.0,0.0,70,0.00,,FEW070,0.00,VWS V14.01,2013-07-07 10:21:00,
2013-07-07 05:22:00,71.7,61.4,29.97,SSE,158,0.0,0.0,70,0.00,,CLR,0.00,VWS V14.01,2013-07-07 10:22:00,
2013-07-07 05:23:00,71.7,61.4,29.97,South,180,0.0,0.0,70,0.00,,FEW070,0.00,VWS V14.01,2013-07-07 10:23:00,
2013-07-07 05:24:00,71.7,61.4,29.98,South,180,0.0,0.0,70,0.00,,CLR,0.00,VWS V14.01,2013-07-07 10:24:00,
2013-07-07 05:25:00,71.7,61.4,29.98,South,180,0.0,0.0,70,0.00,,FEW070,0.00,VWS V14.01,2013-07-07 10:25:00,
2013-07-07 05:26:00,71.7,61.4,29.98,South,180,0.0,0.0,70,0.00,,CLR,0.00,VWS V14.01,2013-07-07 10:26:00,
2013-07-07 05:27:00,71.7,61.4,29.98,South,180,0.0,0.0,70,0.00,,FEW070,0.00,VWS V14.01,2013-07-07 10:27:00,
2013-07-07 05:28:00,71.6,61.3,29.98,SSW,202,0.0,0.0,70,0.00,,CLR,0.00,VWS V14.01,2013-07-07 10:28:00,
2013-07-07 05:29:00,71.6,61.3,29.98,SSW,202,0.0,0.0,70,0.00,,FEW070,0.00,VWS V14.01,2013-07-07 10:29:00,
2013-07-07 05:30:00,71.7,61.4,29.98,South,180,0.0,0.0,70,0.00,,CLR,0.00,VWS V14.01,2013-07-07 10:30:00,
2013-07-07 05:31:00,71.7,61.4,29.98,South,180,0.0,0.0,70,0.00,,FEW070,0.00,VWS V14.01,2013-07-07 10:31:00,
2013-07-07 05:32:00,71.6,61.3,29.98,South,180,0.0,0.0,70,0.00,,FEW070,0.00,VWS V14.01,2013-07-07 10:32:00,
2013-07-07 05:33:00,71.6,61.3,29.98,SSE,158,0.0,0.0,70,0.00,,FEW070,0.00,VWS V14.01,2013-07-07 10:33:00,
2013-07-07 05:34:00,71.6,60.9,29.98,SSW,202,9.8,9.8,69,0.00,,FEW070,0.00,VWS V14.01,2013-07-07 10:34:00,
2013-07-07 05:36:00,71.6,60.9,29.98,South,180,5.2,5.2,69,0.00,,CLR,0.00,VWS V14.01,2013-07-07 10:36:00,
2013-07-07 05:37:00,71.6,60.9,29.98,South,180,5.2,5.2,69,0.00,,FEW070,0.00,VWS V14.01,2013-07-07 10:37:00,
2013-07-07 05:38:00,71.6,60.9,29.98,SSW,202,0.0,5.2,69,0.00,,FEW070,0.00,VWS V14.01,2013-07-07 10:38:00,
2013-07-07 05:40:00,71.6,60.9,29.98,South,180,0.0,0.0,69,0.00,,CLR,0.00,VWS V14.01,2013-07-07 10:40:00,
2013-07-07 05:42:00,71.6,60.9,29.98,South,180,0.0,0.0,69,0.00,,CLR,0.00,VWS V14.01,2013-07-07 10:42:00,
2013-07-07 05:43:00,71.6,60.9,29.98,SSW,202,0.0,0.0,69,0.00,,CLR,0.00,VWS V14.01,2013-07-07 10:43:00,
2013-07-07 05:44:00,71.6,60.9,29.98,South,180,0.0,0.0,69,0.00,,CLR,0.00,VWS V14.01,2013-07-07 10:44:00,
2013-07-07 05:45:00,71.6,60.9,29.98,South,180,0.0,0.0,69,0.00,,CLR,0.00,VWS V14.01,2013-07-07 10:45:00,
2013-07-07 05:46:00,71.6,60.9,29.98,SSW,202,0.0,0.0,69,0.00,,CLR,0.00,VWS V14.01,2013-07-07 10:46:00,
2013-07-07 05:48:00,71.6,60.9,29.98,South,180,0.0,0.0,69,0.00,,CLR,0.00,VWS V14.01,2013-07-07 10:48:00,
2013-07-07 05:49:00,71.6,60.9,29.98,South,180,0.0,0.0,69,0.00,,CLR,0.00,VWS V14.01,2013-07-07 10:49:00,
2013-07-07 05:50:00,71.4,60.7,29.98,SSE,158,2.2,2.2,69,0.00,,CLR,0.00,VWS V14.01,2013-07-07 10:50:00,
2013-07-07 05:51:00,71.4,60.7,29.98,South,180,0.0,2.2,69,0.00,,CLR,0.00,VWS V14.01,2013-07-07 10:51:00,
2013-07-07 05:52:00,71.4,60.7,29.98,South,180,0.0,0.0,69,0.00,,CLR,0.00,VWS V14.01,2013-07-07 10:52:00,
2013-07-07 05:54:00,71.4,60.7,29.98,South,180,0.0,0.0,69,0.00,,CLR,0.00,VWS V14.01,2013-07-07 10:54:00,
2013-07-07 05:56:00,71.4,60.7,29.98,SSE,158,0.0,0.0,69,0.00,,CLR,0.00,VWS V14.01,2013-07-07 10:56:00,
2013-07-07 05:57:00,71.4,60.7,29.98,SSE,158,0.0,0.0,69,0.00,,CLR,0.00,VWS V14.01,2013-07-07 10:57:00,
2013-07-07 05:58:00,71.4,60.7,29.98,SSW,202,0.0,0.0,69,0.00,,CLR,0.00,VWS V14.01,2013-07-07 10:58:00,
2013-07-07 06:00:00,71.4,60.7,29.98,South,180,0.0,0.0,69,0.00,,CLR,0.00,VWS V14.01,2013-07-07 11:00:00,
2013-07-07 06:01:00,71.2,60.5,29.98,South,180,0.8,0.8,69,0.00,,CLR,0.00,VWS V14.01,2013-07-07 11:01:00,
2013-07-07 06:02:00,71.2,60.5,29.98,SSE,158,0.0,0.8,69,0.00,,CLR,0.00,VWS V14.01,2013-07-07 11:02:00,
2013-07-07 06:04:00,71.2,60.5,29.98,SSE,158,0.0,0.0,69,0.00,,CLR,0.00,VWS V14.01,2013-07-07 11:04:00,
2013-07-07 06:05:00,71.2,60.5,29.98,SSE,158,0.0,0.0,69,0.00,,CLR,0.00,VWS V14.01,2013-07-07 11:05:00,
2013-07-07 06:06:00,71.2,60.5,29.98,SSE,158,0.0,0.0,69,0.00,,CLR,0.00,VWS V14.01,2013-07-07 11:06:00,
2013-07-07 06:07:00,71.2,60.5,29.98,WSW,248,0.0,0.0,69,0.00,,CLR,0.00,VWS V14.01,2013-07-07 11:07:00,
2013-07-07 06:08:00,71.2,60.5,29.98,SSW,202,0.0,0.0,69,0.00,,CLR,0.00,VWS V14.01,2013-07-07 11:08:00,
2013-07-07 06:09:00,71.2,60.5,29.98,SSW,202,0.0,0.0,69,0.00,,CLR,0.00,VWS V14.01,2013-07-07 11:09:00,
2013-07-07 06:10:00,71.2,60.5,29.98,South,180,0.0,0.0,69,0.00,,CLR,0.00,VWS V14.01,2013-07-07 11:10:00,
2013-07-07 06:12:00,71.2,60.5,29.98,South,180,0.0,0.0,69,0.00,,CLR,0.00,VWS V14.01,2013-07-07 11:12:00,
2013-07-07 06:14:00,71.2,60.5,29.98,South,180,4.0,4.0,69,0.00,,CLR,0.00,VWS V14.01,2013-07-07 11:14:00,
2013-07-07 06:16:00,71.2,60.5,29.98,SSE,158,4.4,4.4,69,0.00,,CLR,0.00,VWS V14.01,2013-07-07 11:16:00,
2013-07-07 06:17:00,71.2,60.5,29.98,SW,225,0.0,4.4,69,0.00,,CLR,0.00,VWS V14.01,2013-07-07 11:17:00,
2013-07-07 06:18:00,71.2,60.5,29.98,WSW,248,0.0,0.0,69,0.00,,CLR,0.00,VWS V14.01,2013-07-07 11:18:00,
2013-07-07 06:19:00,71.2,60.5,29.98,WSW,248,0.0,0.0,69,0.00,,CLR,0.00,VWS V14.01,2013-07-07 11:19:00,
2013-07-07 06:20:00,71.0,60.3,29.98,SSW,202,0.0,0.0,69,0.00,,CLR,0.00,VWS V14.01,2013-07-07 11:20:00,
2013-07-07 06:22:00,71.2,60.5,29.98,South,180,0.0,0.0,69,0.00,,CLR,0.00,VWS V14.01,2013-07-07 11:22:00,
2013-07-07 06:23:00,71.2,60.5,29.98,SSE,158,0.0,0.0,69,0.00,,CLR,0.00,VWS V14.01,2013-07-07 11:23:00,
2013-07-07 06:24:00,71.2,60.5,29.98,South,180,0.0,0.0,69,0.00,,CLR,0.00,VWS V14.01,2013-07-07 11:24:00,
2013-07-07 06:25:00,71.2,60.5,29.98,SSW,202,0.0,0.0,69,0.00,,CLR,0.00,VWS V14.01,2013-07-07 11:25:00,
2013-07-07 06:26:00,71.2,60.5,29.98,SSE,158,0.0,0.0,69,0.00,,CLR,0.00,VWS V14.01,2013-07-07 11:26:00,
2013-07-07 06:28:00,71.0,60.3,29.98,South,180,0.0,0.0,69,0.00,,CLR,0.00,VWS V14.01,2013-07-07 11:28:00,
2013-07-07 06:30:00,71.0,60.3,29.98,South,180,0.0,0.0,69,0.00,,CLR,0.00,VWS V14.01,2013-07-07 11:30:00,
2013-07-07 06:31:00,71.0,60.3,29.98,South,180,0.0,0.0,69,0.00,,CLR,0.00,VWS V14.01,2013-07-07 11:31:00,
2013-07-07 06:32:00,71.2,60.5,29.98,South,180,3.0,3.0,69,0.00,,CLR,0.00,VWS V14.01,2013-07-07 11:32:00,
2013-07-07 06:33:00,71.2,60.5,29.98,South,180,3.0,3.0,69,0.00,,CLR,0.00,VWS V14.01,2013-07-07 11:33:00,
2013-07-07 06:34:00,71.2,60.5,29.98,South,180,0.0,3.0,69,0.00,,CLR,0.00,VWS V14.01,2013-07-07 11:34:00,
2013-07-07 06:35:00,71.2,60.5,29.98,South,180,0.0,0.0,69,0.00,,CLR,0.00,VWS V14.01,2013-07-07 11:35:00,
2013-07-07 06:36:00,71.2,60.5,29.98,South,180,0.0,0.0,69,0.00,,CLR,0.00,VWS V14.01,2013-07-07 11:36:00,
2013-07-07 06:37:00,71.2,60.5,29.98,SSW,202,0.0,0.0,69,0.00,,CLR,0.00,VWS V14.01,2013-07-07 11:37:00,
2013-07-07 06:38:00,71.2,60.5,29.98,SSW,202,0.0,2.6,69,0.00,,CLR,0.00,VWS V14.01,2013-07-07 11:38:00,
2013-07-07 06:39:00,71.2,60.5,29.98,SSW,202,0.0,2.6,69,0.00,,CLR,0.00,VWS V14.01,2013-07-07 11:39:00,
2013-07-07 06:40:00,71.2,60.5,29.98,SSE,158,0.0,0.0,69,0.00,,CLR,0.00,VWS V14.01,2013-07-07 11:40:00,
2013-07-07 06:41:00,71.2,60.5,29.98,SSE,158,0.0,0.0,69,0.00,,FEW095,0.00,VWS V14.01,2013-07-07 11:41:00,
2013-07-07 06:42:00,71.4,60.7,29.98,South,180,0.0,0.0,69,0.00,,CLR,0.00,VWS V14.01,2013-07-07 11:42:00,
2013-07-07 06:43:00,71.4,60.7,29.98,South,180,0.0,0.0,69,0.00,,FEW095,0.00,VWS V14.01,2013-07-07 11:43:00,
2013-07-07 06:44:00,71.2,60.5,29.98,South,180,0.0,0.0,69,0.00,,CLR,0.00,VWS V14.01,2013-07-07 11:44:00,
2013-07-07 06:45:00,71.2,60.5,29.98,South,180,0.0,0.0,69,0.00,,FEW095,0.00,VWS V14.01,2013-07-07 11:45:00,
2013-07-07 06:46:00,71.2,60.5,29.98,West,270,0.0,0.0,69,0.00,,FEW095,0.00,VWS V14.01,2013-07-07 11:46:00,
2013-07-07 06:48:00,71.4,60.7,29.98,South,180,0.0,0.0,69,0.00,,FEW095,0.00,VWS V14.01,2013-07-07 11:48:00,
2013-07-07 06:49:00,71.4,60.7,29.99,WSW,248,0.0,0.0,69,0.00,,FEW095,0.00,VWS V14.01,2013-07-07 11:49:00,
2013-07-07 06:50:00,71.4,60.7,29.99,SW,225,0.0,0.0,69,0.00,,CLR,0.00,VWS V14.01,2013-07-07 11:50:00,
2013-07-07 06:51:00,71.4,60.7,29.99,SW,225,0.0,0.0,69,0.00,,FEW095,0.00,VWS V14.01,2013-07-07 11:51:00,
2013-07-07 06:52:00,71.4,60.7,29.99,South,180,0.0,0.0,69,0.00,,CLR,0.00,VWS V14.01,2013-07-07 11:52:00,
2013-07-07 06:54:00,71.6,60.9,29.98,South,180,0.0,0.0,69,0.00,,CLR,0.00,VWS V14.01,2013-07-07 11:54:00,
2013-07-07 06:56:00,71.6,60.9,29.98,South,180,0.0,0.0,69,0.00,,FEW095,0.00,VWS V14.01,2013-07-07 11:56:00,
2013-07-07 06:57:00,71.6,60.9,29.98,South,180,0.0,0.0,69,0.00,,FEW095,0.00,VWS V14.01,2013-07-07 11:57:00,
2013-07-07 06:58:00,71.6,60.9,29.98,South,180,0.0,0.0,69,0.00,,CLR,0.00,VWS V14.01,2013-07-07 11:58:00,
2013-07-07 06:59:00,71.6,60.9,29.98,South,180,0.0,0.0,69,0.00,,FEW095,0.00,VWS V14.01,2013-07-07 11:59:00,
2013-07-07 07:00:00,71.7,61.0,29.98,South,180,0.0,0.0,69,0.00,,CLR,0.00,VWS V14.01,2013-07-07 12:00:00,
2013-07-07 07:02:00,71.7,60.6,29.98,South,180,0.0,1.2,68,0.00,,CLR,0.00,VWS V14.01,2013-07-07 12:02:00,
2013-07-07 07:03:00,71.7,60.6,29.98,South,180,0.0,0.0,68,0.00,,FEW095,0.00,VWS V14.01,2013-07-07 12:03:00,
2013-07-07 07:04:00,71.7,60.6,29.98,South,180,6.2,6.2,68,0.00,,FEW095,0.00,VWS V14.01,2013-07-07 12:04:00,
2013-07-07 07:05:00,71.7,60.6,29.98,South,180,0.0,6.2,68,0.00,,FEW095,0.00,VWS V14.01,2013-07-07 12:05:00,
2013-07-07 07:06:00,71.7,60.6,29.98,South,180,0.0,0.0,68,0.00,,CLR,0.00,VWS V14.01,2013-07-07 12:06:00,
2013-07-07 07:07:00,71.7,60.6,29.98,South,180,0.0,0.0,68,0.00,,FEW095,0.00,VWS V14.01,2013-07-07 12:07:00,
2013-07-07 07:08:00,71.9,60.8,29.98,South,180,0.0,0.0,68,0.00,,FEW095,0.00,VWS V14.01,2013-07-07 12:08:00,
2013-07-07 07:09:00,71.9,60.8,29.98,South,180,0.0,0.0,68,0.00,,FEW095,0.00,VWS V14.01,2013-07-07 12:09:00,
2013-07-07 07:10:00,71.9,60.8,29.98,South,180,0.0,0.0,68,0.00,,CLR,0.00,VWS V14.01,2013-07-07 12:10:00,
2013-07-07 07:11:00,71.9,60.8,29.98,South,180,0.0,0.0,68,0.00,,FEW095,0.00,VWS V14.01,2013-07-07 12:11:00,
2013-07-07 07:12:00,71.9,60.8,29.99,South,180,2.2,2.2,68,0.00,,FEW095,0.00,VWS V14.01,2013-07-07 12:12:00,
2013-07-07 07:13:00,71.9,60.8,29.98,SW,225,0.0,2.2,68,0.00,,FEW095,0.00,VWS V14.01,2013-07-07 12:13:00,
2013-07-07 07:14:00,72.1,61.0,29.99,South,180,7.6,7.6,68,0.00,,CLR,0.00,VWS V14.01,2013-07-07 12:14:00,
2013-07-07 07:16:00,72.1,61.0,29.99,South,180,0.0,7.6,68,0.00,,CLR,0.00,VWS V14.01,2013-07-07 12:16:00,
2013-07-07 07:17:00,72.1,61.0,29.99,South,180,0.0,7.6,68,0.00,,FEW095,0.00,VWS V14.01,2013-07-07 12:17:00,
2013-07-07 07:18:00,72.1,61.0,29.99,South,180,0.0,0.0,68,0.00,,FEW095,0.00,VWS V14.01,2013-07-07 12:18:00,
2013-07-07 07:20:00,72.1,61.0,29.99,South,180,0.0,0.0,68,0.00,,FEW095,0.00,VWS V14.01,2013-07-07 12:20:00,
2013-07-07 07:21:00,72.3,61.2,29.99,South,180,0.0,0.0,68,0.00,,FEW095,0.00,VWS V14.01,2013-07-07 12:21:00,
2013-07-07 07:22:00,72.3,61.2,29.99,SW,225,0.0,0.0,68,0.00,,FEW095,0.00,VWS V14.01,2013-07-07 12:22:00,
2013-07-07 07:23:00,72.3,61.2,29.98,South,180,0.0,0.0,68,0.00,,FEW095,0.00,VWS V14.01,2013-07-07 12:23:00,
2013-07-07 07:24:00,72.3,60.7,29.98,South,180,5.2,5.2,67,0.00,,CLR,0.00,VWS V14.01,2013-07-07 12:24:00,
2013-07-07 07:25:00,72.3,60.7,29.98,South,180,5.2,5.2,67,0.00,,FEW095,0.00,VWS V14.01,2013-07-07 12:25:00,
2013-07-07 07:26:00,72.3,60.7,29.99,SSE,158,0.0,5.2,67,0.00,,CLR,0.00,VWS V14.01,2013-07-07 12:26:00,
2013-07-07 07:27:00,72.3,60.7,29.99,SSE,158,0.0,5.2,67,0.00,,FEW095,0.00,VWS V14.01,2013-07-07 12:27:00,
2013-07-07 07:28:00,72.5,60.5,29.99,WSW,248,0.0,0.0,66,0.00,,CLR,0.00,VWS V14.01,2013-07-07 12:28:00,
2013-07-07 07:29:00,72.5,60.5,29.99,WSW,248,0.0,0.0,66,0.00,,FEW095,0.00,VWS V14.01,2013-07-07 12:29:00,
2013-07-07 07:30:00,72.5,60.5,29.99,South,180,4.4,4.4,66,0.00,,CLR,0.00,VWS V14.01,2013-07-07 12:30:00,
2013-07-07 07:31:00,72.5,60.5,29.99,South,180,4.4,4.4,66,0.00,,FEW095,0.00,VWS V14.01,2013-07-07 12:31:00,
2013-07-07 07:32:00,72.5,60.5,29.99,South,180,5.2,5.2,66,0.00,,FEW095,0.00,VWS V14.01,2013-07-07 12:32:00,
2013-07-07 07:34:00,72.5,60.1,29.99,South,180,0.0,0.0,65,0.00,,CLR,0.00,VWS V14.01,2013-07-07 12:34:00,
2013-07-07 07:35:00,72.5,60.1,29.99,South,180,0.0,0.0,65,0.00,,FEW095,0.00,VWS V14.01,2013-07-07 12:35:00,
2013-07-07 07:36:00,72.6,60.2,29.99,WSW,248,0.0,0.0,65,0.00,,FEW095,0.00,VWS V14.01,2013-07-07 12:36:00,
2013-07-07 07:37:00,72.5,60.1,29.99,SSW,202,0.0,0.0,65,0.00,,FEW095,0.00,VWS V14.01,2013-07-07 12:37:00,
2013-07-07 07:38:00,72.6,60.2,29.99,SSW,202,2.6,2.6,65,0.00,,CLR,0.00,VWS V14.01,2013-07-07 12:38:00,
2013-07-07 07:40:00,72.8,60.4,29.99,SW,225,0.0,2.6,65,0.00,,CLR,0.00,VWS V14.01,2013-07-07 12:40:00,
2013-07-07 07:41:00,72.8,60.4,29.99,SW,225,0.0,2.6,65,0.00,,FEW095,0.00,VWS V14.01,2013-07-07 12:41:00,
2013-07-07 07:42:00,72.8,60.4,29.99,WSW,248,0.0,0.0,65,0.00,,FEW095,0.00,VWS V14.01,2013-07-07 12:42:00,
2013-07-07 07:43:00,72.8,60.4,29.99,South,180,0.0,0.0,65,0.00,,FEW095,0.00,VWS V14.01,2013-07-07 12:43:00,
2013-07-07 07:44:00,73.0,60.5,29.99,SSW,202,0.0,0.0,65,0.00,,CLR,0.00,VWS V14.01,2013-07-07 12:44:00,
2013-07-07 07:46:00,73.0,60.5,29.99,South,180,4.0,4.0,65,0.00,,CLR,0.00,VWS V14.01,2013-07-07 12:46:00,
2013-07-07 07:47:00,73.0,60.5,29.99,South,180,4.0,4.0,65,0.00,,FEW095,0.00,VWS V14.01,2013-07-07 12:47:00,
2013-07-07 07:48:00,73.0,60.5,29.99,SSE,158,0.0,4.0,65,0.00,,CLR,0.00,VWS V14.01,2013-07-07 12:48:00,
2013-07-07 07:49:00,73.0,60.5,29.99,SSE,158,0.0,0.0,65,0.00,,FEW095,0.00,VWS V14.01,2013-07-07 12:49:00,
2013-07-07 07:50:00,73.2,60.7,29.99,South,180,0.0,0.0,65,0.00,,CLR,0.00,VWS V14.01,2013-07-07 12:50:00,
2013-07-07 07:51:00,73.2,60.7,29.99,South,180,0.0,0.0,65,0.00,,CLR,0.00,VWS V14.01,2013-07-07 12:51:00,
2013-07-07 07:52:00,73.2,60.7,29.99,SSW,202,0.0,0.0,65,0.00,,CLR,0.00,VWS V14.01,2013-07-07 12:52:00,
2013-07-07 07:53:00,73.4,60.9,29.99,SSW,202,0.0,0.0,65,0.00,,CLR,0.00,VWS V14.01,2013-07-07 12:53:00,
2013-07-07 07:54:00,73.4,60.9,29.99,SSE,158,0.0,0.0,65,0.00,,CLR,0.00,VWS V14.01,2013-07-07 12:54:00,
2013-07-07 07:55:00,73.4,60.9,29.99,SSE,158,0.0,0.0,65,0.00,,CLR,0.00,VWS V14.01,2013-07-07 12:55:00,
2013-07-07 07:56:00,73.5,61.0,29.99,SSW,202,2.6,2.6,65,0.00,,CLR,0.00,VWS V14.01,2013-07-07 12:56:00,
2013-07-07 07:57:00,73.5,61.0,29.99,SSW,202,2.6,2.6,65,0.00,,CLR,0.00,VWS V14.01,2013-07-07 12:57:00,
2013-07-07 07:58:00,73.5,60.6,29.99,South,180,0.0,2.6,64,0.00,,CLR,0.00,VWS V14.01,2013-07-07 12:58:00,
2013-07-07 07:59:00,73.5,60.6,29.99,SSW,202,0.0,2.6,64,0.00,,CLR,0.00,VWS V14.01,2013-07-07 12:59:00,
2013-07-07 08:00:00,73.5,60.6,29.99,SSE,158,0.0,0.0,64,0.00,,CLR,0.00,VWS V14.01,2013-07-07 13:00:00,
2013-07-07 08:01:00,73.5,60.6,29.99,SSE,158,0.0,0.0,64,0.00,,CLR,0.00,VWS V14.01,2013-07-07 13:01:00,
2013-07-07 08:02:00,73.5,60.6,29.99,SSW,202,0.0,0.0,64,0.00,,CLR,0.00,VWS V14.01,2013-07-07 13:02:00,
2013-07-07 08:03:00,73.5,60.6,29.99,SSW,202,0.0,0.0,64,0.00,,CLR,0.00,VWS V14.01,2013-07-07 13:03:00,
2013-07-07 08:04:00,73.5,60.6,29.99,South,180,0.0,0.0,64,0.00,,CLR,0.00,VWS V14.01,2013-07-07 13:04:00,
2013-07-07 08:05:00,73.7,60.8,29.99,South,180,0.0,0.0,64,0.00,,CLR,0.00,VWS V14.01,2013-07-07 13:05:00,
2013-07-07 08:06:00,73.7,60.8,29.99,South,180,0.0,0.0,64,0.00,,CLR,0.00,VWS V14.01,2013-07-07 13:06:00,
2013-07-07 08:07:00,73.7,60.8,29.99,South,180,0.0,0.0,64,0.00,,CLR,0.00,VWS V14.01,2013-07-07 13:07:00,
2013-07-07 08:08:00,73.7,60.8,29.99,SSE,158,2.2,2.2,64,0.00,,CLR,0.00,VWS V14.01,2013-07-07 13:08:00,
2013-07-07 08:09:00,73.7,60.8,29.99,South,180,9.8,9.8,64,0.00,,CLR,0.00,VWS V14.01,2013-07-07 13:09:00,
2013-07-07 08:10:00,73.9,61.0,29.98,South,180,0.0,9.8,64,0.00,,CLR,0.00,VWS V14.01,2013-07-07 13:10:00,
2013-07-07 08:11:00,73.9,61.0,29.98,South,180,0.0,9.8,64,0.00,,CLR,0.00,VWS V14.01,2013-07-07 13:11:00,
2013-07-07 08:12:00,73.9,61.0,29.99,South,180,0.0,0.0,64,0.00,,CLR,0.00,VWS V14.01,2013-07-07 13:12:00,
2013-07-07 08:13:00,73.9,61.0,29.99,South,180,0.0,0.0,64,0.00,,CLR,0.00,VWS V14.01,2013-07-07 13:13:00,
2013-07-07 08:14:00,73.9,61.0,29.99,South,180,0.0,0.0,64,0.00,,CLR,0.00,VWS V14.01,2013-07-07 13:14:00,
2013-07-07 08:15:00,73.9,61.0,29.99,South,180,0.0,0.0,64,0.00,,CLR,0.00,VWS V14.01,2013-07-07 13:15:00,
2013-07-07 08:16:00,73.9,61.0,29.99,South,180,3.4,3.4,64,0.00,,CLR,0.00,VWS V14.01,2013-07-07 13:16:00,
2013-07-07 08:17:00,73.9,61.0,29.99,South,180,3.4,3.4,64,0.00,,CLR,0.00,VWS V14.01,2013-07-07 13:17:00,
2013-07-07 08:18:00,74.1,60.7,29.99,South,180,0.0,7.6,63,0.00,,CLR,0.00,VWS V14.01,2013-07-07 13:18:00,
2013-07-07 08:19:00,74.1,60.7,29.99,South,180,0.0,7.6,63,0.00,,CLR,0.00,VWS V14.01,2013-07-07 13:19:00,
2013-07-07 08:20:00,74.1,60.7,29.99,South,180,0.0,0.0,63,0.00,,CLR,0.00,VWS V14.01,2013-07-07 13:20:00,
2013-07-07 08:21:00,74.1,60.7,29.99,South,180,0.0,0.0,63,0.00,,CLR,0.00,VWS V14.01,2013-07-07 13:21:00,
2013-07-07 08:22:00,74.3,60.5,29.99,South,180,0.0,0.0,62,0.00,,CLR,0.00,VWS V14.01,2013-07-07 13:22:00,
2013-07-07 08:24:00,74.3,60.5,29.99,South,180,4.4,4.4,62,0.00,,CLR,0.00,VWS V14.01,2013-07-07 13:24:00,
2013-07-07 08:25:00,74.3,60.5,29.99,SSW,202,4.0,4.4,62,0.00,,CLR,0.00,VWS V14.01,2013-07-07 13:25:00,
2013-07-07 08:26:00,74.3,60.5,29.99,SE,135,1.2,4.0,62,0.00,,CLR,0.00,VWS V14.01,2013-07-07 13:26:00,
2013-07-07 08:27:00,74.3,60.5,29.98,South,180,3.4,4.0,62,0.00,,CLR,0.00,VWS V14.01,2013-07-07 13:27:00,
2013-07-07 08:28:00,74.4,60.5,29.98,SSE,158,0.0,3.4,62,0.00,,CLR,0.00,VWS V14.01,2013-07-07 13:28:00,
2013-07-07 08:29:00,74.4,60.5,29.98,SSE,158,0.0,0.0,62,0.00,,CLR,0.00,VWS V14.01,2013-07-07 13:29:00,
2013-07-07 08:30:00,74.4,60.5,29.98,South,180,0.0,0.0,62,0.00,,CLR,0.00,VWS V14.01,2013-07-07 13:30:00,
2013-07-07 08:31:00,74.4,60.5,29.98,SSE,158,0.0,0.0,62,0.00,,CLR,0.00,VWS V14.01,2013-07-07 13:31:00,
2013-07-07 08:32:00,74.4,60.5,29.98,South,180,0.0,0.0,62,0.00,,CLR,0.00,VWS V14.01,2013-07-07 13:32:00,
2013-07-07 08:33:00,74.4,60.5,29.98,South,180,0.0,0.0,62,0.00,,CLR,0.00,VWS V14.01,2013-07-07 13:33:00,
2013-07-07 08:34:00,74.6,60.7,29.98,South,180,6.6,6.6,62,0.00,,CLR,0.00,VWS V14.01,2013-07-07 13:34:00,
2013-07-07 08:35:00,74.6,60.7,29.98,South,180,3.0,3.0,62,0.00,,CLR,0.00,VWS V14.01,2013-07-07 13:35:00,
2013-07-07 08:36:00,74.6,60.7,29.98,SSW,202,0.0,3.0,62,0.00,,CLR,0.00,VWS V14.01,2013-07-07 13:36:00,
2013-07-07 08:37:00,74.8,60.9,29.98,South,180,0.0,3.0,62,0.00,,CLR,0.00,VWS V14.01,2013-07-07 13:37:00,
2013-07-07 08:38:00,74.8,60.9,29.98,South,180,0.0,0.0,62,0.00,,CLR,0.00,VWS V14.01,2013-07-07 13:38:00,
2013-07-07 08:40:00,74.8,60.9,29.98,South,180,0.0,0.0,62,0.00,,CLR,0.00,VWS V14.01,2013-07-07 13:40:00,
2013-07-07 08:41:00,74.8,60.9,29.98,South,180,0.0,0.0,62,0.00,,CLR,0.00,VWS V14.01,2013-07-07 13:41:00,
2013-07-07 08:42:00,74.8,60.9,29.98,SSW,202,0.0,0.0,62,0.00,,CLR,0.00,VWS V14.01,2013-07-07 13:42:00,
2013-07-07 08:43:00,75.0,60.7,29.98,South,180,0.0,0.0,61,0.00,,CLR,0.00,VWS V14.01,2013-07-07 13:43:00,
2013-07-07 08:44:00,75.0,61.1,29.98,SSW,202,0.0,0.0,62,0.00,,CLR,0.00,VWS V14.01,2013-07-07 13:44:00,
2013-07-07 08:45:00,75.0,61.1,29.98,SSW,202,0.0,0.0,62,0.00,,CLR,0.00,VWS V14.01,2013-07-07 13:45:00,
2013-07-07 08:46:00,75.2,61.3,29.98,SSE,158,0.0,0.0,62,0.00,,CLR,0.00,VWS V14.01,2013-07-07 13:46:00,
2013-07-07 08:47:00,75.2,61.3,29.98,SSE,158,0.0,0.0,62,0.00,,CLR,0.00,VWS V14.01,2013-07-07 13:47:00,
2013-07-07 08:48:00,75.2,61.3,29.98,South,180,0.0,0.0,62,0.00,,CLR,0.00,VWS V14.01,2013-07-07 13:48:00,
2013-07-07 08:50:00,75.3,61.4,29.98,SSW,202,0.0,0.0,62,0.00,,CLR,0.00,VWS V14.01,2013-07-07 13:50:00,
2013-07-07 08:51:00,75.3,61.4,29.98,SSW,202,0.0,0.0,62,0.00,,CLR,0.00,VWS V14.01,2013-07-07 13:51:00,
2013-07-07 08:52:00,75.5,61.1,29.98,South,180,0.0,1.2,61,0.00,,CLR,0.00,VWS V14.01,2013-07-07 13:52:00,
2013-07-07 08:53:00,75.5,61.1,29.98,South,180,0.0,0.0,61,0.00,,CLR,0.00,VWS V14.01,2013-07-07 13:53:00,
2013-07-07 08:54:00,75.3,60.9,29.98,SE,135,0.0,0.0,61,0.00,,CLR,0.00,VWS V14.01,2013-07-07 13:54:00,
2013-07-07 08:56:00,75.5,61.1,29.98,SSW,202,0.0,0.0,61,0.00,,CLR,0.00,VWS V14.01,2013-07-07 13:56:00,
2013-07-07 08:57:00,75.5,61.1,29.98,SSW,202,0.0,0.0,61,0.00,,CLR,0.00,VWS V14.01,2013-07-07 13:57:00,
2013-07-07 08:58:00,75.5,61.1,29.98,SSW,202,5.8,5.8,61,0.00,,CLR,0.00,VWS V14.01,2013-07-07 13:58:00,
2013-07-07 08:59:00,75.7,61.8,29.98,SSW,202,0.0,5.8,62,0.00,,CLR,0.00,VWS V14.01,2013-07-07 13:59:00,
2013-07-07 09:00:00,75.7,61.3,29.98,SSW,202,0.0,0.0,61,0.00,,CLR,0.00,VWS V14.01,2013-07-07 14:00:00,
2013-07-07 09:02:00,75.9,61.5,29.98,South,180,0.0,0.0,61,0.00,,CLR,0.00,VWS V14.01,2013-07-07 14:02:00,
2013-07-07 09:03:00,75.9,61.5,29.98,South,180,0.0,0.0,61,0.00,,CLR,0.00,VWS V14.01,2013-07-07 14:03:00,
2013-07-07 09:04:00,75.9,61.5,29.98,SSE,158,0.0,0.0,61,0.00,,CLR,0.00,VWS V14.01,2013-07-07 14:04:00,
2013-07-07 09:05:00,75.9,61.5,29.98,SSE,158,0.0,0.0,61,0.00,,CLR,0.00,VWS V14.01,2013-07-07 14:05:00,
2013-07-07 09:06:00,76.1,61.7,29.98,SSE,158,0.0,0.0,61,0.00,,CLR,0.00,VWS V14.01,2013-07-07 14:06:00,
2013-07-07 09:07:00,76.1,61.2,29.98,South,180,5.2,5.2,60,0.00,,CLR,0.00,VWS V14.01,2013-07-07 14:07:00,
2013-07-07 09:08:00,76.1,61.2,29.98,SSE,158,4.8,5.2,60,0.00,,CLR,0.00,VWS V14.01,2013-07-07 14:08:00,
2013-07-07 09:10:00,76.2,61.3,29.98,South,180,0.0,4.8,60,0.00,,CLR,0.00,VWS V14.01,2013-07-07 14:10:00,
2013-07-07 09:11:00,76.1,61.2,29.98,South,180,0.4,4.8,60,0.00,,CLR,0.00,VWS V14.01,2013-07-07 14:11:00,
2013-07-07 09:12:00,76.4,61.5,29.98,South,180,0.0,0.4,60,0.00,,CLR,0.00,VWS V14.01,2013-07-07 14:12:00,
2013-07-07 09:13:00,76.2,60.8,29.98,SSW,202,0.0,0.0,59,0.00,,CLR,0.00,VWS V14.01,2013-07-07 14:13:00,
2013-07-07 09:14:00,76.4,61.0,29.98,SSE,158,0.8,0.8,59,0.00,,CLR,0.00,VWS V14.01,2013-07-07 14:14:00,
2013-07-07 09:15:00,76.4,61.0,29.98,SSE,158,0.8,0.8,59,0.00,,CLR,0.00,VWS V14.01,2013-07-07 14:15:00,
2013-07-07 09:16:00,76.4,61.0,29.98,South,180,0.0,0.8,59,0.00,,CLR,0.00,VWS V14.01,2013-07-07 14:16:00,
2013-07-07 09:17:00,76.4,61.0,29.98,South,180,6.6,6.6,59,0.00,,CLR,0.00,VWS V14.01,2013-07-07 14:17:00,
2013-07-07 09:18:00,76.4,61.0,29.98,South,180,0.0,6.6,59,0.00,,CLR,0.00,VWS V14.01,2013-07-07 14:18:00,
2013-07-07 09:20:00,76.4,61.0,29.98,SE,135,0.0,0.0,59,0.00,,CLR,0.00,VWS V14.01,2013-07-07 14:20:00,
2013-07-07 09:21:00,76.6,61.2,29.98,SSE,158,0.0,0.0,59,0.00,,CLR,0.00,VWS V14.01,2013-07-07 14:21:00,
2013-07-07 09:22:00,76.6,61.2,29.98,SSE,158,4.0,4.0,59,0.00,,CLR,0.00,VWS V14.01,2013-07-07 14:22:00,
2013-07-07 09:23:00,76.6,61.2,29.98,SSE,158,4.0,4.0,59,0.00,,CLR,0.00,VWS V14.01,2013-07-07 14:23:00,
2013-07-07 09:24:00,76.6,61.2,29.98,SE,135,0.0,4.0,59,0.00,,CLR,0.00,VWS V14.01,2013-07-07 14:24:00,
2013-07-07 09:25:00,76.6,61.2,29.98,South,180,0.0,4.0,59,0.00,,CLR,0.00,VWS V14.01,2013-07-07 14:25:00,
2013-07-07 09:26:00,76.8,61.4,29.98,South,180,0.0,7.0,59,0.00,,CLR,0.00,VWS V14.01,2013-07-07 14:26:00,
2013-07-07 09:28:00,76.8,61.4,29.98,South,180,0.0,7.6,59,0.00,,CLR,0.00,VWS V14.01,2013-07-07 14:28:00,
2013-07-07 09:29:00,76.8,61.4,29.98,South,180,0.0,7.6,59,0.00,,CLR,0.00,VWS V14.01,2013-07-07 14:29:00,
2013-07-07 09:30:00,77.0,61.6,29.98,South,180,0.0,0.0,59,0.00,,CLR,0.00,VWS V14.01,2013-07-07 14:30:00,
2013-07-07 09:31:00,77.1,61.7,29.98,SW,225,0.0,0.0,59,0.00,,CLR,0.00,VWS V14.01,2013-07-07 14:31:00,
2013-07-07 09:32:00,77.1,61.7,29.98,South,180,0.0,0.0,59,0.00,,CLR,0.00,VWS V14.01,2013-07-07 14:32:00,
2013-07-07 09:34:00,77.3,61.9,29.98,South,180,0.0,4.4,59,0.00,,CLR,0.00,VWS V14.01,2013-07-07 14:34:00,
2013-07-07 09:35:00,77.3,61.4,29.98,SSE,158,0.0,4.4,58,0.00,,CLR,0.00,VWS V14.01,2013-07-07 14:35:00,
2013-07-07 09:36:00,77.3,61.4,29.98,South,180,0.0,0.0,58,0.00,,CLR,0.00,VWS V14.01,2013-07-07 14:36:00,
2013-07-07 09:37:00,77.3,61.4,29.98,South,180,0.0,0.0,58,0.00,,CLR,0.00,VWS V14.01,2013-07-07 14:37:00,
2013-07-07 09:38:00,77.5,61.6,29.98,SSW,202,0.0,0.0,58,0.00,,CLR,0.00,VWS V14.01,2013-07-07 14:38:00,
2013-07-07 09:39:00,77.5,61.6,29.98,SSW,202,0.0,0.0,58,0.00,,CLR,0.00,VWS V14.01,2013-07-07 14:39:00,
2013-07-07 09:40:00,77.5,61.6,29.98,South,180,0.8,0.8,58,0.00,,CLR,0.00,VWS V14.01,2013-07-07 14:40:00,
2013-07-07 09:42:00,77.7,61.8,29.98,South,180,0.0,0.0,58,0.00,,CLR,0.00,VWS V14.01,2013-07-07 14:42:00,
2013-07-07 09:43:00,77.7,61.3,29.98,West,270,0.0,0.0,57,0.00,,CLR,0.00,VWS V14.01,2013-07-07 14:43:00,
2013-07-07 09:44:00,77.9,62.0,29.98,West,270,0.0,0.0,58,0.00,,CLR,0.00,VWS V14.01,2013-07-07 14:44:00,
2013-07-07 09:45:00,77.9,62.0,29.98,West,270,0.0,0.0,58,0.00,,CLR,0.00,VWS V14.01,2013-07-07 14:45:00,
2013-07-07 09:46:00,77.9,61.5,29.98,SSE,158,0.0,0.0,57,0.00,,CLR,0.00,VWS V14.01,2013-07-07 14:46:00,
2013-07-07 09:48:00,78.0,62.0,29.98,South,180,0.0,0.0,58,0.00,,CLR,0.00,VWS V14.01,2013-07-07 14:48:00,
2013-07-07 09:49:00,78.0,62.0,29.98,South,180,0.0,0.0,58,0.00,,CLR,0.00,VWS V14.01,2013-07-07 14:49:00,
2013-07-07 09:50:00,78.2,62.2,29.98,West,270,0.0,0.0,58,0.00,,CLR,0.00,VWS V14.01,2013-07-07 14:50:00,
2013-07-07 09:51:00,78.0,61.5,29.98,West,270,0.0,0.0,57,0.00,,CLR,0.00,VWS V14.01,2013-07-07 14:51:00,
2013-07-07 09:52:00,78.0,61.5,29.98,West,270,0.0,0.0,57,0.00,,CLR,0.00,VWS V14.01,2013-07-07 14:52:00,
2013-07-07 09:54:00,78.2,61.7,29.98,West,270,0.0,0.0,57,0.00,,CLR,0.00,VWS V14.01,2013-07-07 14:54:00,
2013-07-07 09:56:00,78.2,61.7,29.98,SW,225,0.0,0.0,57,0.00,,CLR,0.00,VWS V14.01,2013-07-07 14:56:00,
2013-07-07 09:58:00,78.2,61.7,29.98,WSW,248,0.0,0.0,57,0.00,,CLR,0.00,VWS V14.01,2013-07-07 14:58:00,
2013-07-07 09:59:00,78.4,61.9,29.98,South,180,0.0,0.0,57,0.00,,CLR,0.00,VWS V14.01,2013-07-07 14:59:00,
2013-07-07 10:00:00,78.4,61.9,29.98,South,180,0.0,0.0,57,0.00,,CLR,0.00,VWS V14.01,2013-07-07 15:00:00,
2013-07-07 10:02:00,78.8,61.8,29.98,SSE,158,0.0,0.8,56,0.00,,CLR,0.00,VWS V14.01,2013-07-07 15:02:00,
2013-07-07 10:03:00,78.8,61.8,29.98,SSE,158,0.0,0.8,56,0.00,,CLR,0.00,VWS V14.01,2013-07-07 15:03:00,
2013-07-07 10:04:00,78.9,61.9,29.98,SSE,158,0.0,0.0,56,0.00,,CLR,0.00,VWS V14.01,2013-07-07 15:04:00,
2013-07-07 10:06:00,78.9,61.9,29.98,SSE,158,0.0,0.0,56,0.00,,CLR,0.00,VWS V14.01,2013-07-07 15:06:00,
2013-07-07 10:07:00,78.9,61.9,29.98,SSE,158,0.0,0.0,56,0.00,,CLR,0.00,VWS V14.01,2013-07-07 15:07:00,
2013-07-07 10:08:00,78.9,61.9,29.98,SSE,158,0.0,0.0,56,0.00,,CLR,0.00,VWS V14.01,2013-07-07 15:08:00,
2013-07-07 10:10:00,79.1,62.1,29.98,South,180,0.0,0.0,56,0.00,,CLR,0.00,VWS V14.01,2013-07-07 15:10:00,
2013-07-07 10:11:00,79.1,62.1,29.98,South,180,0.0,0.0,56,0.00,,CLR,0.00,VWS V14.01,2013-07-07 15:11:00,
2013-07-07 10:12:00,79.5,61.9,29.98,South,180,0.0,0.0,55,0.00,,CLR,0.00,VWS V14.01,2013-07-07 15:12:00,
2013-07-07 10:13:00,79.5,61.9,29.98,South,180,0.0,0.0,55,0.00,,CLR,0.00,VWS V14.01,2013-07-07 15:13:00,
2013-07-07 10:14:00,79.5,61.9,29.98,WSW,248,0.0,0.0,55,0.00,,CLR,0.00,VWS V14.01,2013-07-07 15:14:00,
2013-07-07 10:15:00,79.5,62.5,29.98,WSW,248,0.0,0.0,56,0.00,,CLR,0.00,VWS V14.01,2013-07-07 15:15:00,
2013-07-07 10:16:00,79.7,62.1,29.98,WSW,248,0.0,0.0,55,0.00,,CLR,0.00,VWS V14.01,2013-07-07 15:16:00,
2013-07-07 10:18:00,79.8,61.7,29.98,SSE,158,0.0,3.0,54,0.00,,CLR,0.00,VWS V14.01,2013-07-07 15:18:00,
2013-07-07 10:19:00,79.8,61.7,29.98,SSE,158,0.0,3.0,54,0.00,,CLR,0.00,VWS V14.01,2013-07-07 15:19:00,
2013-07-07 10:20:00,79.8,61.7,29.98,SSE,158,0.0,0.0,54,0.00,,CLR,0.00,VWS V14.01,2013-07-07 15:20:00,
2013-07-07 10:22:00,80.0,61.9,29.98,WSW,248,0.0,0.0,54,0.00,,CLR,0.00,VWS V14.01,2013-07-07 15:22:00,
2013-07-07 10:24:00,80.0,61.9,29.98,South,180,0.0,0.0,54,0.00,,CLR,0.00,VWS V14.01,2013-07-07 15:24:00,
2013-07-07 10:25:00,80.0,61.9,29.98,South,180,0.0,0.0,54,0.00,,CLR,0.00,VWS V14.01,2013-07-07 15:25:00,
2013-07-07 10:26:00,80.0,61.3,29.98,South,180,0.0,0.0,53,0.00,,CLR,0.00,VWS V14.01,2013-07-07 15:26:00,
2013-07-07 10:27:00,80.0,61.3,29.98,SE,135,0.0,0.0,53,0.00,,CLR,0.00,VWS V14.01,2013-07-07 15:27:00,
2013-07-07 10:28:00,80.2,61.5,29.98,SE,135,0.0,0.0,53,0.00,,CLR,0.00,VWS V14.01,2013-07-07 15:28:00,
2013-07-07 10:30:00,80.2,61.5,29.98,SSE,158,0.0,0.0,53,0.00,,CLR,0.00,VWS V14.01,2013-07-07 15:30:00,
2013-07-07 10:32:00,80.6,61.9,29.98,South,180,0.0,2.2,53,0.00,,CLR,0.00,VWS V14.01,2013-07-07 15:32:00,
2013-07-07 10:33:00,80.7,62.0,29.98,SSW,202,0.0,0.0,53,0.00,,CLR,0.00,VWS V14.01,2013-07-07 15:33:00,
2013-07-07 10:34:00,80.9,62.7,29.98,South,180,0.0,0.0,54,0.00,,CLR,0.00,VWS V14.01,2013-07-07 15:34:00,
2013-07-07 10:35:00,80.9,62.7,29.98,South,180,0.0,0.0,54,0.00,,CLR,0.00,VWS V14.01,2013-07-07 15:35:00,
2013-07-07 10:36:00,81.1,62.4,29.98,NW,315,0.0,0.0,53,0.00,,CLR,0.00,VWS V14.01,2013-07-07 15:36:00,
2013-07-07 10:38:00,81.1,62.4,29.99,NW,315,0.0,0.0,53,0.00,,CLR,0.00,VWS V14.01,2013-07-07 15:38:00,
2013-07-07 10:39:00,81.1,62.4,29.99,SE,135,0.0,0.0,53,0.00,,CLR,0.00,VWS V14.01,2013-07-07 15:39:00,
2013-07-07 10:40:00,81.3,62.5,29.99,SSE,158,0.0,0.0,53,0.00,,CLR,0.00,VWS V14.01,2013-07-07 15:40:00,
2013-07-07 10:42:00,81.3,62.5,29.99,South,180,0.0,0.0,53,0.00,,CLR,0.00,VWS V14.01,2013-07-07 15:42:00,
2013-07-07 10:43:00,81.3,62.5,29.99,South,180,0.0,0.0,53,0.00,,CLR,0.00,VWS V14.01,2013-07-07 15:43:00,
2013-07-07 10:44:00,81.3,62.0,29.99,SSE,158,0.0,0.0,52,0.00,,CLR,0.00,VWS V14.01,2013-07-07 15:44:00,
2013-07-07 10:46:00,81.5,62.7,29.98,South,180,0.0,0.0,53,0.00,,CLR,0.00,VWS V14.01,2013-07-07 15:46:00,
2013-07-07 10:48:00,81.6,62.3,29.98,SSE,158,0.0,0.0,52,0.00,,CLR,0.00,VWS V14.01,2013-07-07 15:48:00,
2013-07-07 10:50:00,81.6,62.8,29.98,SSE,158,0.0,0.0,53,0.00,,CLR,0.00,VWS V14.01,2013-07-07 15:50:00,
2013-07-07 10:51:00,81.8,63.0,29.98,SSW,202,0.0,0.0,53,0.00,,CLR,0.00,VWS V14.01,2013-07-07 15:51:00,
2013-07-07 10:52:00,81.8,62.5,29.98,SSE,158,0.0,0.0,52,0.00,,CLR,0.00,VWS V14.01,2013-07-07 15:52:00,
2013-07-07 10:53:00,81.8,62.5,29.98,SSE,158,0.0,0.0,52,0.00,,CLR,0.00,VWS V14.01,2013-07-07 15:53:00,
2013-07-07 10:54:00,82.0,62.7,29.98,SSE,158,0.0,0.0,52,0.00,,CLR,0.00,VWS V14.01,2013-07-07 15:54:00,
2013-07-07 10:55:00,82.0,62.7,29.98,SSE,158,0.0,0.0,52,0.00,,CLR,0.00,VWS V14.01,2013-07-07 15:55:00,
2013-07-07 10:56:00,82.0,62.1,29.98,South,180,0.0,0.0,51,0.00,,CLR,0.00,VWS V14.01,2013-07-07 15:56:00,
2013-07-07 10:57:00,82.0,62.1,29.98,South,180,0.0,0.0,51,0.00,,CLR,0.00,VWS V14.01,2013-07-07 15:57:00,
2013-07-07 10:58:00,82.0,62.1,29.98,South,180,0.0,0.0,51,0.00,,CLR,0.00,VWS V14.01,2013-07-07 15:58:00,
2013-07-07 10:59:00,82.2,62.3,29.98,South,180,0.0,0.0,51,0.00,,CLR,0.00,VWS V14.01,2013-07-07 15:59:00,
2013-07-07 11:00:00,82.2,62.3,29.98,West,270,0.0,0.0,51,0.00,,CLR,0.00,VWS V14.01,2013-07-07 16:00:00,
2013-07-07 11:01:00,82.2,62.3,29.98,West,270,0.0,0.0,51,0.00,,CLR,0.00,VWS V14.01,2013-07-07 16:01:00,
2013-07-07 11:02:00,82.0,61.5,29.98,North,0,0.0,0.0,50,0.00,,CLR,0.00,VWS V14.01,2013-07-07 16:02:00,
2013-07-07 11:04:00,82.0,61.5,29.98,SSW,202,0.0,0.0,50,0.00,,CLR,0.00,VWS V14.01,2013-07-07 16:04:00,
2013-07-07 11:05:00,82.0,61.5,29.98,West,270,0.0,0.0,50,0.00,,CLR,0.00,VWS V14.01,2013-07-07 16:05:00,
2013-07-07 11:06:00,82.0,61.5,29.98,WSW,248,0.0,0.0,50,0.00,,CLR,0.00,VWS V14.01,2013-07-07 16:06:00,
2013-07-07 11:07:00,82.0,61.5,29.98,WSW,248,0.0,0.0,50,0.00,,CLR,0.00,VWS V14.01,2013-07-07 16:07:00,
2013-07-07 11:08:00,82.0,61.5,29.98,South,180,0.0,0.0,50,0.00,,CLR,0.00,VWS V14.01,2013-07-07 16:08:00,
2013-07-07 11:10:00,82.2,62.3,29.98,SSE,158,0.0,0.0,51,0.00,,CLR,0.00,VWS V14.01,2013-07-07 16:10:00,
2013-07-07 11:11:00,82.2,62.3,29.98,SSE,158,0.0,0.0,51,0.00,,CLR,0.00,VWS V14.01,2013-07-07 16:11:00,
2013-07-07 11:12:00,82.2,62.3,29.98,SSE,158,2.2,2.2,51,0.00,,CLR,0.00,VWS V14.01,2013-07-07 16:12:00,
2013-07-07 11:13:00,82.2,62.3,29.98,SW,225,0.0,0.0,51,0.00,,CLR,0.00,VWS V14.01,2013-07-07 16:13:00,
2013-07-07 11:14:00,82.5,62.0,29.98,West,270,0.0,0.0,50,0.00,,CLR,0.00,VWS V14.01,2013-07-07 16:14:00,
2013-07-07 11:15:00,82.5,62.0,29.98,West,270,0.0,0.0,50,0.00,,CLR,0.00,VWS V14.01,2013-07-07 16:15:00,
2013-07-07 11:16:00,82.5,62.0,29.98,ESE,112,0.0,0.0,50,0.00,,CLR,0.00,VWS V14.01,2013-07-07 16:16:00,
2013-07-07 11:17:00,82.5,62.0,29.98,ESE,112,0.0,0.0,50,0.00,,CLR,0.00,VWS V14.01,2013-07-07 16:17:00,
2013-07-07 11:18:00,82.7,62.8,29.98,WNW,292,0.0,0.0,51,0.00,,CLR,0.00,VWS V14.01,2013-07-07 16:18:00,
2013-07-07 11:20:00,82.7,62.8,29.98,West,270,0.0,0.0,51,0.00,,CLR,0.00,VWS V14.01,2013-07-07 16:20:00,
2013-07-07 11:21:00,82.7,62.2,29.98,West,270,0.0,0.0,50,0.00,,CLR,0.00,VWS V14.01,2013-07-07 16:21:00,
2013-07-07 11:22:00,82.7,62.2,29.98,West,270,0.0,0.0,50,0.00,,CLR,0.00,VWS V14.01,2013-07-07 16:22:00,
2013-07-07 11:23:00,82.7,61.6,29.98,SSW,202,0.0,0.0,49,0.00,,CLR,0.00,VWS V14.01,2013-07-07 16:23:00,
2013-07-07 11:24:00,82.7,61.6,29.98,South,180,0.0,0.0,49,0.00,,CLR,0.00,VWS V14.01,2013-07-07 16:24:00,
2013-07-07 11:25:00,82.7,61.6,29.98,South,180,0.0,0.0,49,0.00,,CLR,0.00,VWS V14.01,2013-07-07 16:25:00,
2013-07-07 11:26:00,82.9,61.8,29.98,SSE,158,0.0,0.0,49,0.00,,CLR,0.00,VWS V14.01,2013-07-07 16:26:00,
2013-07-07 11:28:00,82.9,61.8,29.98,South,180,3.4,3.4,49,0.00,,CLR,0.00,VWS V14.01,2013-07-07 16:28:00,
2013-07-07 11:29:00,82.9,61.8,29.98,South,180,0.0,3.4,49,0.00,,CLR,0.00,VWS V14.01,2013-07-07 16:29:00,
2013-07-07 11:30:00,83.1,62.0,29.98,SSW,202,0.0,0.0,49,0.00,,CLR,0.00,VWS V14.01,2013-07-07 16:30:00,
2013-07-07 11:31:00,83.1,62.0,29.98,SSW,202,0.0,0.0,49,0.00,,CLR,0.00,VWS V14.01,2013-07-07 16:31:00,
2013-07-07 11:32:00,83.3,62.2,29.98,SSW,202,0.0,0.0,49,0.00,,CLR,0.00,VWS V14.01,2013-07-07 16:32:00,
2013-07-07 11:33:00,83.3,62.2,29.98,SSW,202,0.0,0.0,49,0.00,,CLR,0.00,VWS V14.01,2013-07-07 16:33:00,
2013-07-07 11:34:00,83.6,63.0,29.98,SE,135,0.0,4.4,50,0.00,,CLR,0.00,VWS V14.01,2013-07-07 16:34:00,
2013-07-07 11:35:00,83.6,63.0,29.98,SE,135,0.0,0.0,50,0.00,,CLR,0.00,VWS V14.01,2013-07-07 16:35:00,
2013-07-07 11:36:00,83.6,62.4,29.98,ESE,112,0.0,0.0,49,0.00,,CLR,0.00,VWS V14.01,2013-07-07 16:36:00,
2013-07-07 11:37:00,83.6,62.4,29.98,SE,135,0.0,0.0,49,0.00,,CLR,0.00,VWS V14.01,2013-07-07 16:37:00,
2013-07-07 11:38:00,83.8,62.6,29.98,SSW,202,0.0,0.0,49,0.00,,CLR,0.00,VWS V14.01,2013-07-07 16:38:00,
2013-07-07 11:39:00,83.8,62.6,29.98,SSW,202,0.0,0.0,49,0.00,,CLR,0.00,VWS V14.01,2013-07-07 16:39:00,
2013-07-07 11:40:00,83.8,62.0,29.98,NW,315,0.0,0.0,48,0.00,,CLR,0.00,VWS V14.01,2013-07-07 16:40:00,
2013-07-07 11:41:00,83.8,62.0,29.98,NW,315,0.0,0.0,48,0.00,,CLR,0.00,VWS V14.01,2013-07-07 16:41:00,
2013-07-07 11:42:00,83.8,62.0,29.98,West,270,0.0,0.0,48,0.00,,CLR,0.00,VWS V14.01,2013-07-07 16:42:00,
2013-07-07 11:43:00,83.8,61.4,29.98,WNW,292,0.0,0.0,47,0.00,,CLR,0.00,VWS V14.01,2013-07-07 16:43:00,
2013-07-07 11:44:00,83.6,61.3,29.98,SSE,158,0.0,0.0,47,0.00,,CLR,0.00,VWS V14.01,2013-07-07 16:44:00,
2013-07-07 11:46:00,83.8,62.0,29.98,WSW,248,0.0,0.0,48,0.00,,CLR,0.00,VWS V14.01,2013-07-07 16:46:00,
2013-07-07 11:47:00,83.8,62.0,29.98,WSW,248,0.0,0.0,48,0.00,,CLR,0.00,VWS V14.01,2013-07-07 16:47:00,
2013-07-07 11:48:00,83.8,61.4,29.98,SSW,202,0.0,0.0,47,0.00,,CLR,0.00,VWS V14.01,2013-07-07 16:48:00,
2013-07-07 11:50:00,83.8,62.0,29.98,SW,225,0.0,0.0,48,0.00,,CLR,0.00,VWS V14.01,2013-07-07 16:50:00,
2013-07-07 11:51:00,83.8,62.0,29.98,West,270,0.0,0.0,48,0.00,,CLR,0.00,VWS V14.01,2013-07-07 16:51:00,
2013-07-07 11:52:00,84.0,61.6,29.98,SSE,158,0.0,0.0,47,0.00,,CLR,0.00,VWS V14.01,2013-07-07 16:52:00,
2013-07-07 11:54:00,84.2,61.8,29.98,SSE,158,0.0,0.0,47,0.00,,CLR,0.00,VWS V14.01,2013-07-07 16:54:00,
2013-07-07 11:56:00,84.3,61.9,29.98,ESE,112,0.0,0.0,47,0.00,,CLR,0.00,VWS V14.01,2013-07-07 16:56:00,
2013-07-07 11:57:00,84.3,61.9,29.98,ESE,112,0.0,6.6,47,0.00,,CLR,0.00,VWS V14.01,2013-07-07 16:57:00,
2013-07-07 11:58:00,84.5,62.7,29.98,SSE,158,1.6,1.6,48,0.00,,CLR,0.00,VWS V14.01,2013-07-07 16:58:00,
2013-07-07 11:59:00,84.5,62.7,29.98,SSE,158,1.6,1.6,48,0.00,,CLR,0.00,VWS V14.01,2013-07-07 16:59:00,
2013-07-07 12:00:00,84.7,61.7,29.98,South,180,0.0,1.6,46,0.00,,CLR,0.00,VWS V14.01,2013-07-07 17:00:00,
2013-07-07 12:01:00,84.7,61.7,29.98,South,180,0.0,0.0,46,0.00,,CLR,0.00,VWS V14.01,2013-07-07 17:01:00,
2013-07-07 12:02:00,84.7,61.7,29.98,South,180,0.0,0.0,46,0.00,,CLR,0.00,VWS V14.01,2013-07-07 17:02:00,
2013-07-07 12:04:00,84.9,62.4,29.98,SE,135,0.0,0.0,47,0.00,,CLR,0.00,VWS V14.01,2013-07-07 17:04:00,
2013-07-07 12:06:00,84.9,62.4,29.98,SE,135,0.0,0.0,47,0.00,,CLR,0.00,VWS V14.01,2013-07-07 17:06:00,
2013-07-07 12:07:00,84.9,62.4,29.98,SE,135,0.0,0.0,47,0.00,,CLR,0.00,VWS V14.01,2013-07-07 17:07:00,
2013-07-07 12:08:00,84.9,62.4,29.98,SE,135,0.0,0.0,47,0.00,,CLR,0.00,VWS V14.01,2013-07-07 17:08:00,
2013-07-07 12:10:00,85.1,61.4,29.98,SSE,158,4.0,4.0,45,0.00,,CLR,0.00,VWS V14.01,2013-07-07 17:10:00,
2013-07-07 12:12:00,85.2,61.5,29.98,SSE,158,0.0,4.0,45,0.00,,CLR,0.00,VWS V14.01,2013-07-07 17:12:00,
2013-07-07 12:13:00,85.4,61.7,29.98,SSE,158,0.0,4.0,45,0.00,,CLR,0.00,VWS V14.01,2013-07-07 17:13:00,
2013-07-07 12:14:00,85.4,61.0,29.98,South,180,0.0,2.6,44,0.00,,CLR,0.00,VWS V14.01,2013-07-07 17:14:00,
2013-07-07 12:15:00,85.4,61.0,29.98,South,180,0.0,2.6,44,0.00,,CLR,0.00,VWS V14.01,2013-07-07 17:15:00,
2013-07-07 12:16:00,85.4,61.7,29.98,SSE,158,0.0,0.0,45,0.00,,CLR,0.00,VWS V14.01,2013-07-07 17:16:00,
2013-07-07 12:17:00,85.4,61.7,29.98,SSE,158,0.0,0.0,45,0.00,,CLR,0.00,VWS V14.01,2013-07-07 17:17:00,
2013-07-07 12:18:00,85.4,61.7,29.98,SSE,158,0.0,0.0,45,0.00,,CLR,0.00,VWS V14.01,2013-07-07 17:18:00,
2013-07-07 12:20:00,85.6,61.8,29.98,SSE,158,0.0,0.0,45,0.00,,CLR,0.00,VWS V14.01,2013-07-07 17:20:00,
2013-07-07 12:21:00,85.6,61.8,29.98,South,180,0.0,0.0,45,0.00,,CLR,0.00,VWS V14.01,2013-07-07 17:21:00,
2013-07-07 12:22:00,85.8,62.0,29.98,South,180,4.0,4.0,45,0.00,,CLR,0.00,VWS V14.01,2013-07-07 17:22:00,
2013-07-07 12:23:00,85.8,62.0,29.98,South,180,4.0,4.0,45,0.00,,CLR,0.00,VWS V14.01,2013-07-07 17:23:00,
2013-07-07 12:24:00,85.6,61.2,29.98,SW,225,5.2,5.2,44,0.00,,CLR,0.00,VWS V14.01,2013-07-07 17:24:00,
2013-07-07 12:26:00,85.6,61.2,29.98,SSW,202,0.0,5.2,44,0.00,,CLR,0.00,VWS V14.01,2013-07-07 17:26:00,
2013-07-07 12:27:00,85.6,60.6,29.98,SSW,202,7.0,7.0,43,0.00,,CLR,0.00,VWS V14.01,2013-07-07 17:27:00,
2013-07-07 12:28:00,85.8,60.7,29.98,SW,225,0.0,7.0,43,0.00,,CLR,0.00,VWS V14.01,2013-07-07 17:28:00,
2013-07-07 12:29:00,85.8,60.7,29.98,SW,225,0.0,7.0,43,0.00,,CLR,0.00,VWS V14.01,2013-07-07 17:29:00,
2013-07-07 12:30:00,85.8,60.7,29.98,SW,225,0.0,0.0,43,0.00,,CLR,0.00,VWS V14.01,2013-07-07 17:30:00,
2013-07-07 12:32:00,86.1,61.0,29.98,South,180,0.0,0.0,43,0.00,,CLR,0.00,VWS V14.01,2013-07-07 17:32:00,
2013-07-07 12:33:00,86.1,61.0,29.98,South,180,0.0,0.0,43,0.00,,CLR,0.00,VWS V14.01,2013-07-07 17:33:00,
2013-07-07 12:34:00,86.1,61.0,29.98,WSW,248,0.0,0.0,43,0.00,,CLR,0.00,VWS V14.01,2013-07-07 17:34:00,
2013-07-07 12:35:00,86.0,60.9,29.97,South,180,0.0,0.0,43,0.00,,CLR,0.00,VWS V14.01,2013-07-07 17:35:00,
2013-07-07 12:36:00,86.1,61.7,29.98,SSE,158,0.0,0.0,44,0.00,,CLR,0.00,VWS V14.01,2013-07-07 17:36:00,
2013-07-07 12:37:00,86.1,61.7,29.98,SSE,158,0.0,0.0,44,0.00,,CLR,0.00,VWS V14.01,2013-07-07 17:37:00,
2013-07-07 12:38:00,86.1,61.0,29.98,South,180,0.0,0.0,43,0.00,,CLR,0.00,VWS V14.01,2013-07-07 17:38:00,
2013-07-07 12:39:00,86.1,61.0,29.98,South,180,0.0,0.0,43,0.00,,CLR,0.00,VWS V14.01,2013-07-07 17:39:00,
2013-07-07 12:40:00,86.1,61.0,29.97,SSW,202,3.0,3.0,43,0.00,,CLR,0.00,VWS V14.01,2013-07-07 17:40:00,
2013-07-07 12:41:00,86.1,61.0,29.97,South,180,8.8,8.8,43,0.00,,CLR,0.00,VWS V14.01,2013-07-07 17:41:00,
2013-07-07 12:42:00,86.1,61.0,29.97,SSE,158,0.0,8.8,43,0.00,,CLR,0.00,VWS V14.01,2013-07-07 17:42:00,
2013-07-07 12:44:00,86.3,60.5,29.97,South,180,0.0,0.0,42,0.00,,CLR,0.00,VWS V14.01,2013-07-07 17:44:00,
2013-07-07 12:45:00,86.3,61.2,29.97,South,180,0.0,0.0,43,0.00,,CLR,0.00,VWS V14.01,2013-07-07 17:45:00,
2013-07-07 12:46:00,86.3,61.2,29.97,SE,135,0.0,0.0,43,0.00,,CLR,0.00,VWS V14.01,2013-07-07 17:46:00,
2013-07-07 12:47:00,86.5,61.4,29.97,SSE,158,0.0,0.0,43,0.00,,CLR,0.00,VWS V14.01,2013-07-07 17:47:00,
2013-07-07 12:48:00,86.7,61.5,29.98,SSE,158,8.0,8.0,43,0.00,,CLR,0.00,VWS V14.01,2013-07-07 17:48:00,
2013-07-07 12:50:00,86.7,60.9,29.97,SE,135,4.8,8.0,42,0.00,,CLR,0.00,VWS V14.01,2013-07-07 17:50:00,
2013-07-07 12:51:00,86.7,60.9,29.97,SE,135,4.8,4.8,42,0.00,,CLR,0.00,VWS V14.01,2013-07-07 17:51:00,
2013-07-07 12:52:00,86.9,61.1,29.98,South,180,2.6,4.8,42,0.00,,CLR,0.00,VWS V14.01,2013-07-07 17:52:00,
2013-07-07 12:53:00,86.9,60.4,29.97,South,180,0.0,0.0,41,0.00,,CLR,0.00,VWS V14.01,2013-07-07 17:53:00,
2013-07-07 12:54:00,86.9,60.4,29.97,SSW,202,0.0,7.0,41,0.00,,CLR,0.00,VWS V14.01,2013-07-07 17:54:00,
2013-07-07 12:56:00,86.9,60.4,29.97,South,180,0.0,0.0,41,0.00,,CLR,0.00,VWS V14.01,2013-07-07 17:56:00,
2013-07-07 12:57:00,86.9,60.4,29.98,South,180,0.0,0.0,41,0.00,,CLR,0.00,VWS V14.01,2013-07-07 17:57:00,
2013-07-07 12:58:00,86.9,59.7,29.98,SSW,202,5.8,5.8,40,0.00,,CLR,0.00,VWS V14.01,2013-07-07 17:58:00,
2013-07-07 12:59:00,86.9,59.7,29.98,SSW,202,5.8,5.8,40,0.00,,CLR,0.00,VWS V14.01,2013-07-07 17:59:00,
2013-07-07 13:00:00,86.7,60.2,29.98,SSW,202,0.0,5.8,41,0.00,,CLR,0.00,VWS V14.01,2013-07-07 18:00:00,
2013-07-07 13:02:00,86.7,60.2,29.98,SSW,202,0.0,0.0,41,0.00,,CLR,0.00,VWS V14.01,2013-07-07 18:02:00,
2013-07-07 13:04:00,86.7,60.2,29.97,SE,135,0.0,0.0,41,0.00,,CLR,0.00,VWS V14.01,2013-07-07 18:04:00,
2013-07-07 13:05:00,86.9,59.7,29.97,South,180,0.0,0.0,40,0.00,,CLR,0.00,VWS V14.01,2013-07-07 18:05:00,
2013-07-07 13:06:00,86.9,59.7,29.97,South,180,10.2,10.2,40,0.00,,CLR,0.00,VWS V14.01,2013-07-07 18:06:00,
2013-07-07 13:07:00,86.9,59.7,29.97,South,180,10.2,10.2,40,0.00,,CLR,0.00,VWS V14.01,2013-07-07 18:07:00,
2013-07-07 13:08:00,86.9,59.7,29.97,West,270,0.0,10.2,40,0.00,,CLR,0.00,VWS V14.01,2013-07-07 18:08:00,
2013-07-07 13:10:00,86.9,59.7,29.97,WNW,292,0.0,0.0,40,0.00,,CLR,0.00,VWS V14.01,2013-07-07 18:10:00,
2013-07-07 13:12:00,87.0,59.8,29.97,SW,225,0.0,12.0,40,0.00,,CLR,0.00,VWS V14.01,2013-07-07 18:12:00,
2013-07-07 13:14:00,86.9,60.4,29.97,WSW,248,0.0,0.0,41,0.00,,CLR,0.00,VWS V14.01,2013-07-07 18:14:00,
2013-07-07 13:16:00,86.9,60.4,29.97,SW,225,0.0,0.0,41,0.00,,CLR,0.00,VWS V14.01,2013-07-07 18:16:00,
2013-07-07 13:17:00,86.9,60.4,29.98,WNW,292,0.0,0.0,41,0.00,,CLR,0.00,VWS V14.01,2013-07-07 18:17:00,
2013-07-07 13:18:00,86.9,59.7,29.98,South,180,4.0,4.0,40,0.00,,CLR,0.00,VWS V14.01,2013-07-07 18:18:00,
2013-07-07 13:19:00,86.9,59.7,29.98,South,180,0.0,0.0,40,0.00,,CLR,0.00,VWS V14.01,2013-07-07 18:19:00,
2013-07-07 13:20:00,87.0,59.8,29.98,WSW,248,0.0,3.0,40,0.00,,CLR,0.00,VWS V14.01,2013-07-07 18:20:00,
2013-07-07 13:21:00,87.0,59.8,29.98,WSW,248,0.0,0.0,40,0.00,,CLR,0.00,VWS V14.01,2013-07-07 18:21:00,
2013-07-07 13:22:00,87.2,60.0,29.98,SE,135,0.0,0.0,40,0.00,,CLR,0.00,VWS V14.01,2013-07-07 18:22:00,
2013-07-07 13:23:00,87.2,60.0,29.98,SE,135,0.0,0.0,40,0.00,,CLR,0.00,VWS V14.01,2013-07-07 18:23:00,
2013-07-07 13:24:00,87.2,60.0,29.97,SSE,158,0.0,0.0,40,0.00,,CLR,0.00,VWS V14.01,2013-07-07 18:24:00,
2013-07-07 13:25:00,87.2,60.0,29.97,SSE,158,0.0,0.0,40,0.00,,CLR,0.00,VWS V14.01,2013-07-07 18:25:00,
2013-07-07 13:26:00,87.2,60.0,29.98,SSE,158,0.0,0.0,40,0.00,,CLR,0.00,VWS V14.01,2013-07-07 18:26:00,
2013-07-07 13:27:00,87.2,60.0,29.98,SSE,158,0.0,0.0,40,0.00,,CLR,0.00,VWS V14.01,2013-07-07 18:27:00,
2013-07-07 13:28:00,87.2,60.0,29.98,SSE,158,4.8,4.8,40,0.00,,CLR,0.00,VWS V14.01,2013-07-07 18:28:00,
2013-07-07 13:29:00,87.2,60.0,29.98,SW,225,0.0,0.0,40,0.00,,CLR,0.00,VWS V14.01,2013-07-07 18:29:00,
2013-07-07 13:30:00,87.4,60.1,29.98,WSW,248,0.0,1.2,40,0.00,,CLR,0.00,VWS V14.01,2013-07-07 18:30:00,
2013-07-07 13:31:00,87.4,60.1,29.98,WSW,248,0.0,1.2,40,0.00,,CLR,0.00,VWS V14.01,2013-07-07 18:31:00,
2013-07-07 13:32:00,87.4,59.4,29.97,South,180,5.2,5.2,39,0.00,,CLR,0.00,VWS V14.01,2013-07-07 18:32:00,
2013-07-07 13:33:00,87.2,59.2,29.98,South,180,8.4,8.4,39,0.00,,CLR,0.00,VWS V14.01,2013-07-07 18:33:00,
2013-07-07 13:34:00,87.2,59.2,29.98,South,180,0.0,8.4,39,0.00,,CLR,0.00,VWS V14.01,2013-07-07 18:34:00,
2013-07-07 13:36:00,87.2,59.2,29.97,SW,225,0.0,2.6,39,0.00,,CLR,0.00,VWS V14.01,2013-07-07 18:36:00,
2013-07-07 13:37:00,87.4,59.4,29.97,SE,135,5.2,5.2,39,0.00,,CLR,0.00,VWS V14.01,2013-07-07 18:37:00,
2013-07-07 13:38:00,87.4,59.4,29.97,South,180,8.8,8.8,39,0.00,,CLR,0.00,VWS V14.01,2013-07-07 18:38:00,
2013-07-07 13:39:00,87.4,59.4,29.97,South,180,8.8,8.8,39,0.00,,CLR,0.00,VWS V14.01,2013-07-07 18:39:00,
2013-07-07 13:40:00,87.4,59.4,29.97,South,180,0.0,8.8,39,0.00,,CLR,0.00,VWS V14.01,2013-07-07 18:40:00,
2013-07-07 13:41:00,87.4,59.4,29.97,South,180,0.0,8.8,39,0.00,,CLR,0.00,VWS V14.01,2013-07-07 18:41:00,
2013-07-07 13:42:00,87.4,59.4,29.97,SSW,202,0.0,0.0,39,0.00,,CLR,0.00,VWS V14.01,2013-07-07 18:42:00,
2013-07-07 13:44:00,87.4,60.1,29.97,South,180,3.0,3.0,40,0.00,,CLR,0.00,VWS V14.01,2013-07-07 18:44:00,
2013-07-07 13:46:00,87.4,59.4,29.97,SSW,202,0.0,3.0,39,0.00,,CLR,0.00,VWS V14.01,2013-07-07 18:46:00,
2013-07-07 13:47:00,87.4,59.4,29.97,SSE,158,4.4,4.4,39,0.00,,CLR,0.00,VWS V14.01,2013-07-07 18:47:00,
2013-07-07 13:48:00,87.4,59.4,29.97,South,180,5.2,5.2,39,0.00,,CLR,0.00,VWS V14.01,2013-07-07 18:48:00,
2013-07-07 13:50:00,87.2,59.2,29.97,SSE,158,0.0,0.0,39,0.00,,CLR,0.00,VWS V14.01,2013-07-07 18:50:00,
2013-07-07 13:51:00,87.2,59.2,29.97,SSE,158,0.0,0.0,39,0.00,,CLR,0.00,VWS V14.01,2013-07-07 18:51:00,
2013-07-07 13:52:00,87.2,59.2,29.97,South,180,4.8,4.8,39,0.00,,CLR,0.00,VWS V14.01,2013-07-07 18:52:00,
2013-07-07 13:53:00,87.2,59.2,29.97,SE,135,0.0,0.0,39,0.00,,CLR,0.00,VWS V14.01,2013-07-07 18:53:00,
2013-07-07 13:54:00,87.2,59.2,29.97,South,180,0.0,0.0,39,0.00,,CLR,0.00,VWS V14.01,2013-07-07 18:54:00,
2013-07-07 13:56:00,87.0,59.1,29.97,SW,225,0.0,3.4,39,0.00,,CLR,0.00,VWS V14.01,2013-07-07 18:56:00,
2013-07-07 13:57:00,87.0,59.1,29.97,SW,225,0.0,3.4,39,0.00,,CLR,0.00,VWS V14.01,2013-07-07 18:57:00,
2013-07-07 13:58:00,87.0,59.1,29.97,South,180,0.0,0.0,39,0.00,,CLR,0.00,VWS V14.01,2013-07-07 18:58:00,
2013-07-07 13:59:00,87.0,59.1,29.97,SSW,202,0.0,0.0,39,0.00,,CLR,0.00,VWS V14.01,2013-07-07 18:59:00,
2013-07-07 14:00:00,87.0,59.1,29.97,South,180,8.4,8.4,39,0.00,,CLR,0.00,VWS V14.01,2013-07-07 19:00:00,
2013-07-07 14:02:00,86.9,59.0,29.97,SSW,202,0.0,0.0,39,0.00,,CLR,0.00,VWS V14.01,2013-07-07 19:02:00,
2013-07-07 14:04:00,86.9,59.0,29.97,SSW,202,0.0,0.0,39,0.00,,CLR,0.00,VWS V14.01,2013-07-07 19:04:00,
2013-07-07 14:05:00,87.0,59.1,29.97,SSW,202,0.0,0.0,39,0.00,,CLR,0.00,VWS V14.01,2013-07-07 19:05:00,
2013-07-07 14:06:00,87.0,59.1,29.96,South,180,3.4,3.4,39,0.00,,CLR,0.00,VWS V14.01,2013-07-07 19:06:00,
2013-07-07 14:07:00,87.0,59.1,29.96,South,180,3.4,3.4,39,0.00,,CLR,0.00,VWS V14.01,2013-07-07 19:07:00,
2013-07-07 14:08:00,87.2,59.2,29.97,WSW,248,0.0,3.4,39,0.00,,CLR,0.00,VWS V14.01,2013-07-07 19:08:00,
2013-07-07 14:10:00,87.2,59.2,29.97,South,180,2.2,2.2,39,0.00,,CLR,0.00,VWS V14.01,2013-07-07 19:10:00,
2013-07-07 14:12:00,87.4,59.4,29.96,SE,135,0.0,0.0,39,0.00,,CLR,0.00,VWS V14.01,2013-07-07 19:12:00,
2013-07-07 14:13:00,87.4,59.4,29.97,South,180,0.0,0.0,39,0.00,,CLR,0.00,VWS V14.01,2013-07-07 19:13:00,
2013-07-07 14:14:00,87.4,60.1,29.96,SSW,202,0.0,0.0,40,0.00,,CLR,0.00,VWS V14.01,2013-07-07 19:14:00,
2013-07-07 14:16:00,87.4,59.4,29.96,WSW,248,6.6,6.6,39,0.00,,CLR,0.00,VWS V14.01,2013-07-07 19:16:00,
2013-07-07 14:18:00,87.4,59.4,29.96,West,270,0.0,3.0,39,0.00,,CLR,0.00,VWS V14.01,2013-07-07 19:18:00,
2013-07-07 14:19:00,87.4,59.4,29.97,SSW,202,12.4,12.4,39,0.00,,CLR,0.00,VWS V14.01,2013-07-07 19:19:00,
2013-07-07 14:20:00,87.4,59.4,29.97,SSE,158,6.6,12.4,39,0.00,,CLR,0.00,VWS V14.01,2013-07-07 19:20:00,
2013-07-07 14:22:00,87.6,58.9,29.97,SSE,158,8.0,8.0,38,0.00,,CLR,0.00,VWS V14.01,2013-07-07 19:22:00,
2013-07-07 14:23:00,87.6,58.9,29.97,SSE,158,8.0,8.0,38,0.00,,CLR,0.00,VWS V14.01,2013-07-07 19:23:00,
2013-07-07 14:24:00,87.6,58.9,29.97,South,180,0.0,8.0,38,0.00,,CLR,0.00,VWS V14.01,2013-07-07 19:24:00,
2013-07-07 14:25:00,87.6,58.9,29.97,SE,135,0.0,0.0,38,0.00,,CLR,0.00,VWS V14.01,2013-07-07 19:25:00,
2013-07-07 14:26:00,87.6,58.9,29.97,South,180,0.0,0.0,38,0.00,,CLR,0.00,VWS V14.01,2013-07-07 19:26:00,
2013-07-07 14:27:00,87.6,58.9,29.97,SW,225,0.0,0.0,38,0.00,,CLR,0.00,VWS V14.01,2013-07-07 19:27:00,
2013-07-07 14:28:00,87.6,58.9,29.96,WSW,248,0.0,0.0,38,0.00,,CLR,0.00,VWS V14.01,2013-07-07 19:28:00,
2013-07-07 14:30:00,87.6,58.9,29.97,SSE,158,2.2,4.8,38,0.00,,CLR,0.00,VWS V14.01,2013-07-07 19:30:00,
2013-07-07 14:31:00,87.6,58.9,29.97,SSE,158,2.2,4.8,38,0.00,,CLR,0.00,VWS V14.01,2013-07-07 19:31:00,
2013-07-07 14:32:00,87.6,58.9,29.96,SSE,158,0.0,2.2,38,0.00,,CLR,0.00,VWS V14.01,2013-07-07 19:32:00,
2013-07-07 14:33:00,87.8,59.1,29.96,ESE,112,0.0,2.2,38,0.00,,CLR,0.00,VWS V14.01,2013-07-07 19:33:00,
2013-07-07 14:34:00,87.8,59.1,29.96,South,180,0.0,0.0,38,0.00,,CLR,0.00,VWS V14.01,2013-07-07 19:34:00,
2013-07-07 14:35:00,87.9,59.2,29.96,SSE,158,0.0,0.0,38,0.00,,CLR,0.00,VWS V14.01,2013-07-07 19:35:00,
2013-07-07 14:36:00,87.9,59.2,29.96,WNW,292,0.0,0.0,38,0.00,,CLR,0.00,VWS V14.01,2013-07-07 19:36:00,
2013-07-07 14:38:00,87.9,59.2,29.96,South,180,0.4,0.4,38,0.00,,CLR,0.00,VWS V14.01,2013-07-07 19:38:00,
2013-07-07 14:39:00,87.9,59.2,29.96,South,180,0.4,0.4,38,0.00,,CLR,0.00,VWS V14.01,2013-07-07 19:39:00,
2013-07-07 14:40:00,87.9,59.2,29.96,SE,135,0.0,0.4,38,0.00,,CLR,0.00,VWS V14.01,2013-07-07 19:40:00,
2013-07-07 14:41:00,87.9,59.2,29.96,SE,135,0.0,0.4,38,0.00,,CLR,0.00,VWS V14.01,2013-07-07 19:41:00,
2013-07-07 14:42:00,88.1,59.3,29.96,SSE,158,3.4,3.4,38,0.00,,CLR,0.00,VWS V14.01,2013-07-07 19:42:00,
2013-07-07 14:44:00,88.1,59.3,29.96,South,180,0.0,0.0,38,0.00,,CLR,0.00,VWS V14.01,2013-07-07 19:44:00,
2013-07-07 14:45:00,88.1,59.3,29.96,South,180,0.0,0.0,38,0.00,,CLR,0.00,VWS V14.01,2013-07-07 19:45:00,
2013-07-07 14:46:00,88.1,59.3,29.96,SSE,158,0.0,0.0,38,0.00,,CLR,0.00,VWS V14.01,2013-07-07 19:46:00,
2013-07-07 14:47:00,88.1,59.3,29.96,SW,225,0.0,0.0,38,0.00,,CLR,0.00,VWS V14.01,2013-07-07 19:47:00,
2013-07-07 14:48:00,88.1,58.6,29.96,SSE,158,0.0,0.0,37,0.00,,CLR,0.00,VWS V14.01,2013-07-07 19:48:00,
2013-07-07 14:49:00,88.1,58.6,29.96,SSE,158,0.0,0.0,37,0.00,,CLR,0.00,VWS V14.01,2013-07-07 19:49:00,
2013-07-07 14:50:00,88.1,58.6,29.96,SSE,158,0.0,0.0,37,0.00,,CLR,0.00,VWS V14.01,2013-07-07 19:50:00,
2013-07-07 14:52:00,88.1,58.6,29.95,WSW,248,0.0,5.8,37,0.00,,CLR,0.00,VWS V14.01,2013-07-07 19:52:00,
2013-07-07 14:53:00,88.1,58.6,29.96,SSW,202,0.0,0.0,37,0.00,,CLR,0.00,VWS V14.01,2013-07-07 19:53:00,
2013-07-07 14:54:00,88.3,58.8,29.96,SSE,158,0.0,0.0,37,0.00,,CLR,0.00,VWS V14.01,2013-07-07 19:54:00,
2013-07-07 14:56:00,88.1,58.6,29.96,SW,225,0.0,8.4,37,0.00,,CLR,0.00,VWS V14.01,2013-07-07 19:56:00,
2013-07-07 14:58:00,88.5,58.9,29.96,SW,225,0.0,0.0,37,0.00,,CLR,0.00,VWS V14.01,2013-07-07 19:58:00,
2013-07-07 14:59:00,88.5,58.9,29.96,South,180,7.0,7.0,37,0.00,,CLR,0.00,VWS V14.01,2013-07-07 19:59:00,
2013-07-07 15:00:00,88.5,58.2,29.95,SW,225,0.0,7.0,36,0.00,,CLR,0.00,VWS V14.01,2013-07-07 20:00:00,
2013-07-07 15:01:00,88.5,58.2,29.95,South,180,0.0,7.0,36,0.00,,CLR,0.00,VWS V14.01,2013-07-07 20:01:00,
2013-07-07 15:02:00,88.5,58.9,29.96,SSE,158,0.0,0.0,37,0.00,,CLR,0.00,VWS V14.01,2013-07-07 20:02:00,
2013-07-07 15:04:00,88.5,58.9,29.95,South,180,10.6,10.6,37,0.00,,CLR,0.00,VWS V14.01,2013-07-07 20:04:00,
2013-07-07 15:05:00,88.5,58.2,29.95,SSE,158,0.0,10.6,36,0.00,,CLR,0.00,VWS V14.01,2013-07-07 20:05:00,
2013-07-07 15:06:00,88.7,59.1,29.95,SSE,158,0.0,0.0,37,0.00,,CLR,0.00,VWS V14.01,2013-07-07 20:06:00,
2013-07-07 15:07:00,88.5,58.2,29.95,SE,135,0.0,0.0,36,0.00,,CLR,0.00,VWS V14.01,2013-07-07 20:07:00,
2013-07-07 15:08:00,88.7,58.3,29.95,SSE,158,0.0,0.0,36,0.00,,CLR,0.00,VWS V14.01,2013-07-07 20:08:00,
2013-07-07 15:10:00,88.7,59.1,29.95,West,270,0.0,0.0,37,0.00,,CLR,0.00,VWS V14.01,2013-07-07 20:10:00,
2013-07-07 15:11:00,88.7,59.1,29.95,West,270,0.0,0.0,37,0.00,,CLR,0.00,VWS V14.01,2013-07-07 20:11:00,
2013-07-07 15:12:00,88.5,58.9,29.95,SSW,202,0.0,0.0,37,0.00,,CLR,0.00,VWS V14.01,2013-07-07 20:12:00,
2013-07-07 15:13:00,88.5,58.9,29.95,SSW,202,0.0,0.0,37,0.00,,CLR,0.00,VWS V14.01,2013-07-07 20:13:00,
2013-07-07 15:14:00,88.5,58.9,29.96,SE,135,0.0,0.0,37,0.00,,CLR,0.00,VWS V14.01,2013-07-07 20:14:00,
2013-07-07 15:15:00,88.5,58.9,29.96,SE,135,0.0,0.0,37,0.00,,CLR,0.00,VWS V14.01,2013-07-07 20:15:00,
2013-07-07 15:16:00,88.5,59.7,29.95,South,180,0.0,0.0,38,0.00,,CLR,0.00,VWS V14.01,2013-07-07 20:16:00,
2013-07-07 15:18:00,88.5,58.9,29.95,South,180,9.8,9.8,37,0.00,,CLR,0.00,VWS V14.01,2013-07-07 20:18:00,
2013-07-07 15:19:00,88.3,58.8,29.95,SSE,158,0.0,9.8,37,0.00,,CLR,0.00,VWS V14.01,2013-07-07 20:19:00,
2013-07-07 15:20:00,88.5,59.7,29.95,WNW,292,0.0,0.0,38,0.00,,CLR,0.00,VWS V14.01,2013-07-07 20:20:00,
2013-07-07 15:21:00,88.5,59.7,29.95,WNW,292,0.0,0.0,38,0.00,,CLR,0.00,VWS V14.01,2013-07-07 20:21:00,
2013-07-07 15:22:00,88.5,59.7,29.95,SSW,202,0.0,0.0,38,0.00,,CLR,0.00,VWS V14.01,2013-07-07 20:22:00,
2013-07-07 15:23:00,88.5,59.7,29.95,SSW,202,0.0,0.0,38,0.00,,CLR,0.00,VWS V14.01,2013-07-07 20:23:00,
2013-07-07 15:24:00,88.5,59.7,29.95,South,180,4.0,7.0,38,0.00,,CLR,0.00,VWS V14.01,2013-07-07 20:24:00,
2013-07-07 15:25:00,88.5,59.7,29.95,South,180,4.0,7.0,38,0.00,,CLR,0.00,VWS V14.01,2013-07-07 20:25:00,
2013-07-07 15:26:00,88.7,59.8,29.95,SW,225,0.0,4.0,38,0.00,,CLR,0.00,VWS V14.01,2013-07-07 20:26:00,
2013-07-07 15:28:00,88.7,59.9,29.95,SSW,202,0.0,0.0,38,0.00,,CLR,0.00,VWS V14.01,2013-07-07 20:28:00,
2013-07-07 15:29:00,88.7,59.9,29.95,SSW,202,0.0,0.0,38,0.00,,CLR,0.00,VWS V14.01,2013-07-07 20:29:00,
2013-07-07 15:30:00,88.8,59.9,29.95,WSW,248,0.0,0.0,38,0.00,,CLR,0.00,VWS V14.01,2013-07-07 20:30:00,
2013-07-07 15:32:00,88.8,59.9,29.95,SSE,158,3.4,5.8,38,0.00,,CLR,0.00,VWS V14.01,2013-07-07 20:32:00,
2013-07-07 15:33:00,88.8,59.9,29.95,SSE,158,3.4,5.8,38,0.00,,CLR,0.00,VWS V14.01,2013-07-07 20:33:00,
2013-07-07 15:34:00,88.8,59.2,29.95,SSE,158,0.0,3.4,37,0.00,,CLR,0.00,VWS V14.01,2013-07-07 20:34:00,
2013-07-07 15:36:00,88.7,59.1,29.95,West,270,0.0,0.0,37,0.00,,CLR,0.00,VWS V14.01,2013-07-07 20:36:00,
2013-07-07 15:38:00,88.7,59.9,29.95,South,180,8.4,8.4,38,0.00,,CLR,0.00,VWS V14.01,2013-07-07 20:38:00,
2013-07-07 15:39:00,88.8,59.2,29.95,SSW,202,3.0,8.4,37,0.00,,CLR,0.00,VWS V14.01,2013-07-07 20:39:00,
2013-07-07 15:40:00,88.7,59.1,29.95,SSW,202,0.0,3.0,37,0.00,,CLR,0.00,VWS V14.01,2013-07-07 20:40:00,
2013-07-07 15:42:00,88.8,59.2,29.95,NW,315,0.0,6.2,37,0.00,,CLR,0.00,VWS V14.01,2013-07-07 20:42:00,
2013-07-07 15:43:00,88.7,59.1,29.95,WNW,292,0.0,0.0,37,0.00,,CLR,0.00,VWS V14.01,2013-07-07 20:43:00,
2013-07-07 15:44:00,88.7,59.1,29.95,South,180,4.0,4.0,37,0.00,,CLR,0.00,VWS V14.01,2013-07-07 20:44:00,
2013-07-07 15:45:00,88.7,59.1,29.95,South,180,4.0,4.0,37,0.00,,CLR,0.00,VWS V14.01,2013-07-07 20:45:00,
2013-07-07 15:46:00,88.7,59.1,29.95,South,180,0.0,5.2,37,0.00,,CLR,0.00,VWS V14.01,2013-07-07 20:46:00,
2013-07-07 15:47:00,88.7,59.1,29.95,South,180,0.0,0.0,37,0.00,,CLR,0.00,VWS V14.01,2013-07-07 20:47:00,
2013-07-07 15:48:00,88.7,59.1,29.95,South,180,0.0,0.0,37,0.00,,CLR,0.00,VWS V14.01,2013-07-07 20:48:00,
2013-07-07 15:50:00,88.7,59.9,29.95,SSE,158,4.8,4.8,38,0.00,,CLR,0.00,VWS V14.01,2013-07-07 20:50:00,
2013-07-07 15:51:00,88.7,59.1,29.95,South,180,7.0,7.0,37,0.00,,CLR,0.00,VWS V14.01,2013-07-07 20:51:00,
2013-07-07 15:52:00,88.7,59.1,29.95,South,180,8.0,8.0,37,0.00,,CLR,0.00,VWS V14.01,2013-07-07 20:52:00,
2013-07-07 15:53:00,88.7,59.1,29.95,SSE,158,0.0,8.0,37,0.00,,CLR,0.00,VWS V14.01,2013-07-07 20:53:00,
2013-07-07 15:54:00,88.7,59.1,29.95,South,180,0.0,0.0,37,0.00,,CLR,0.00,VWS V14.01,2013-07-07 20:54:00,
2013-07-07 15:56:00,88.8,59.2,29.95,South,180,4.8,4.8,37,0.00,,CLR,0.00,VWS V14.01,2013-07-07 20:56:00,
2013-07-07 15:58:00,88.7,59.1,29.95,SSE,158,0.0,0.0,37,0.00,,CLR,0.00,VWS V14.01,2013-07-07 20:58:00,
2013-07-07 16:00:00,88.7,59.1,29.95,South,180,0.0,17.8,37,0.00,,CLR,0.00,VWS V14.01,2013-07-07 21:00:00,
2013-07-07 16:01:00,88.7,59.1,29.95,South,180,0.0,17.8,37,0.00,,CLR,0.00,VWS V14.01,2013-07-07 21:01:00,
2013-07-07 16:02:00,88.7,58.3,29.95,SSW,202,0.0,0.0,36,0.00,,CLR,0.00,VWS V14.01,2013-07-07 21:02:00,
2013-07-07 16:03:00,88.7,58.3,29.95,SSW,202,4.8,4.8,36,0.00,,CLR,0.00,VWS V14.01,2013-07-07 21:03:00,
2013-07-07 16:04:00,88.7,59.1,29.95,East,90,0.0,4.8,37,0.00,,CLR,0.00,VWS V14.01,2013-07-07 21:04:00,
2013-07-07 16:06:00,88.7,59.1,29.95,SSE,158,0.0,0.0,37,0.00,,CLR,0.00,VWS V14.01,2013-07-07 21:06:00,
2013-07-07 16:07:00,88.5,58.9,29.95,SSW,202,8.8,8.8,37,0.00,,CLR,0.00,VWS V14.01,2013-07-07 21:07:00,
2013-07-07 16:08:00,88.5,58.9,29.95,SSW,202,9.2,9.2,37,0.00,,CLR,0.00,VWS V14.01,2013-07-07 21:08:00,
2013-07-07 16:10:00,88.5,58.9,29.95,SSW,202,0.0,0.0,37,0.00,,CLR,0.00,VWS V14.01,2013-07-07 21:10:00,
2013-07-07 16:11:00,88.5,58.9,29.95,South,180,0.0,0.0,37,0.00,,CLR,0.00,VWS V14.01,2013-07-07 21:11:00,
2013-07-07 16:12:00,88.5,59.7,29.95,South,180,0.0,0.0,38,0.00,,CLR,0.00,VWS V14.01,2013-07-07 21:12:00,
2013-07-07 16:13:00,88.5,59.7,29.95,South,180,0.0,0.0,38,0.00,,CLR,0.00,VWS V14.01,2013-07-07 21:13:00,
2013-07-07 16:14:00,88.7,59.8,29.95,South,180,0.0,0.0,38,0.00,,CLR,0.00,VWS V14.01,2013-07-07 21:14:00,
2013-07-07 16:15:00,88.7,59.9,29.95,South,180,0.0,0.0,38,0.00,,CLR,0.00,VWS V14.01,2013-07-07 21:15:00,
2013-07-07 16:16:00,88.5,60.4,29.94,WNW,292,0.0,3.4,39,0.00,,CLR,0.00,VWS V14.01,2013-07-07 21:16:00,
2013-07-07 16:18:00,88.7,59.9,29.95,West,270,0.0,0.0,38,0.00,,CLR,0.00,VWS V14.01,2013-07-07 21:18:00,
2013-07-07 16:20:00,88.5,59.7,29.94,SW,225,0.0,0.0,38,0.00,,CLR,0.00,VWS V14.01,2013-07-07 21:20:00,
2013-07-07 16:21:00,88.7,59.9,29.94,WNW,292,0.0,0.0,38,0.00,,CLR,0.00,VWS V14.01,2013-07-07 21:21:00,
2013-07-07 16:22:00,88.7,59.8,29.94,SSW,202,0.0,0.0,38,0.00,,CLR,0.00,VWS V14.01,2013-07-07 21:22:00,
2013-07-07 16:24:00,88.7,59.9,29.95,SSE,158,0.0,0.0,38,0.00,,CLR,0.00,VWS V14.01,2013-07-07 21:24:00,
2013-07-07 16:25:00,88.5,59.7,29.95,West,270,0.0,0.0,38,0.00,,CLR,0.00,VWS V14.01,2013-07-07 21:25:00,
2013-07-07 16:26:00,88.5,60.4,29.95,WNW,292,0.0,0.0,39,0.00,,CLR,0.00,VWS V14.01,2013-07-07 21:26:00,
2013-07-07 16:27:00,88.5,60.4,29.95,WNW,292,0.0,0.0,39,0.00,,CLR,0.00,VWS V14.01,2013-07-07 21:27:00,
2013-07-07 16:28:00,88.3,60.2,29.95,WNW,292,0.0,0.0,39,0.00,,CLR,0.00,VWS V14.01,2013-07-07 21:28:00,
2013-07-07 16:30:00,88.3,60.2,29.95,WNW,292,0.0,0.0,39,0.00,,CLR,0.00,VWS V14.01,2013-07-07 21:30:00,
2013-07-07 16:31:00,88.3,60.9,29.94,WNW,292,0.0,0.0,40,0.00,,CLR,0.00,VWS V14.01,2013-07-07 21:31:00,
2013-07-07 16:32:00,88.1,60.8,29.94,South,180,0.0,0.0,40,0.00,,CLR,0.00,VWS V14.01,2013-07-07 21:32:00,
2013-07-07 16:33:00,88.1,60.8,29.94,South,180,0.0,0.0,40,0.00,,CLR,0.00,VWS V14.01,2013-07-07 21:33:00,
2013-07-07 16:34:00,88.1,60.8,29.95,West,270,0.0,0.0,40,0.00,,CLR,0.00,VWS V14.01,2013-07-07 21:34:00,
2013-07-07 16:36:00,88.1,60.8,29.95,South,180,0.0,0.0,40,0.00,,CLR,0.00,VWS V14.01,2013-07-07 21:36:00,
2013-07-07 16:37:00,88.1,60.8,29.95,WSW,248,0.0,0.0,40,0.00,,CLR,0.00,VWS V14.01,2013-07-07 21:37:00,
2013-07-07 16:38:00,88.1,60.8,29.95,SSW,202,2.2,2.2,40,0.00,,CLR,0.00,VWS V14.01,2013-07-07 21:38:00,
2013-07-07 16:39:00,88.1,60.8,29.95,SSE,158,0.4,2.2,40,0.00,,CLR,0.00,VWS V14.01,2013-07-07 21:39:00,
2013-07-07 16:40:00,87.9,60.6,29.95,SSW,202,0.0,0.4,40,0.00,,CLR,0.00,VWS V14.01,2013-07-07 21:40:00,
2013-07-07 16:42:00,87.9,60.6,29.95,South,180,4.8,5.2,40,0.00,,CLR,0.00,VWS V14.01,2013-07-07 21:42:00,
2013-07-07 16:43:00,87.9,60.6,29.95,South,180,4.8,5.2,40,0.00,,CLR,0.00,VWS V14.01,2013-07-07 21:43:00,
2013-07-07 16:44:00,87.9,60.6,29.95,SSW,202,2.6,11.0,40,0.00,,CLR,0.00,VWS V14.01,2013-07-07 21:44:00,
2013-07-07 16:45:00,87.9,60.6,29.95,SSW,202,2.6,11.0,40,0.00,,CLR,0.00,VWS V14.01,2013-07-07 21:45:00,
2013-07-07 16:46:00,87.9,60.6,29.95,SSW,202,0.0,2.6,40,0.00,,CLR,0.00,VWS V14.01,2013-07-07 21:46:00,
2013-07-07 16:47:00,87.9,60.6,29.95,SSW,202,0.0,2.6,40,0.00,,CLR,0.00,VWS V14.01,2013-07-07 21:47:00,
2013-07-07 16:48:00,87.8,60.5,29.95,South,180,0.0,0.0,40,0.00,,CLR,0.00,VWS V14.01,2013-07-07 21:48:00,
2013-07-07 16:49:00,87.8,60.5,29.95,South,180,0.0,0.0,40,0.00,,CLR,0.00,VWS V14.01,2013-07-07 21:49:00,
2013-07-07 16:50:00,87.8,60.5,29.95,SSW,202,0.0,0.0,40,0.00,,CLR,0.00,VWS V14.01,2013-07-07 21:50:00,
2013-07-07 16:52:00,87.8,60.5,29.95,South,180,5.2,5.2,40,0.00,,CLR,0.00,VWS V14.01,2013-07-07 21:52:00,
2013-07-07 16:54:00,87.9,61.3,29.95,South,180,0.0,0.0,41,0.00,,CLR,0.00,VWS V14.01,2013-07-07 21:54:00,
2013-07-07 16:55:00,87.8,61.2,29.95,SSE,158,0.0,0.0,41,0.00,,CLR,0.00,VWS V14.01,2013-07-07 21:55:00,
2013-07-07 16:56:00,87.9,61.3,29.95,WSW,248,0.0,0.0,41,0.00,,CLR,0.00,VWS V14.01,2013-07-07 21:56:00,
2013-07-07 16:57:00,87.9,62.0,29.95,South,180,8.0,8.0,42,0.00,,CLR,0.00,VWS V14.01,2013-07-07 21:57:00,
2013-07-07 16:58:00,87.9,62.0,29.95,SSE,158,0.0,8.0,42,0.00,,CLR,0.00,VWS V14.01,2013-07-07 21:58:00,
2013-07-07 17:00:00,87.9,62.0,29.95,South,180,5.8,5.8,42,0.00,,CLR,0.00,VWS V14.01,2013-07-07 22:00:00,
2013-07-07 17:01:00,87.9,62.0,29.95,South,180,0.0,5.8,42,0.00,,CLR,0.00,VWS V14.01,2013-07-07 22:01:00,
2013-07-07 17:02:00,87.9,61.3,29.95,South,180,0.0,0.0,41,0.00,,CLR,0.00,VWS V14.01,2013-07-07 22:02:00,
2013-07-07 17:03:00,87.9,62.0,29.95,WSW,248,0.0,0.0,42,0.00,,CLR,0.00,VWS V14.01,2013-07-07 22:03:00,
2013-07-07 17:04:00,87.9,61.3,29.95,SE,135,0.8,0.8,41,0.00,,CLR,0.00,VWS V14.01,2013-07-07 22:04:00,
2013-07-07 17:05:00,87.9,61.3,29.95,SE,135,0.8,0.8,41,0.00,,CLR,0.00,VWS V14.01,2013-07-07 22:05:00,
2013-07-07 17:06:00,87.8,61.2,29.95,South,180,0.0,0.8,41,0.00,,CLR,0.00,VWS V14.01,2013-07-07 22:06:00,
2013-07-07 17:08:00,87.9,61.3,29.95,WSW,248,0.0,0.0,41,0.00,,CLR,0.00,VWS V14.01,2013-07-07 22:08:00,
2013-07-07 17:09:00,87.9,61.3,29.95,SSW,202,0.0,0.0,41,0.00,,CLR,0.00,VWS V14.01,2013-07-07 22:09:00,
2013-07-07 17:10:00,87.9,61.3,29.95,SSW,202,0.0,0.0,41,0.00,,CLR,0.00,VWS V14.01,2013-07-07 22:10:00,
2013-07-07 17:12:00,87.8,61.2,29.95,West,270,0.0,3.4,41,0.00,,CLR,0.00,VWS V14.01,2013-07-07 22:12:00,
2013-07-07 17:14:00,87.8,61.2,29.95,SSE,158,0.0,0.0,41,0.00,,CLR,0.00,VWS V14.01,2013-07-07 22:14:00,
2013-07-07 17:15:00,87.9,61.3,29.95,SSE,158,2.6,2.6,41,0.00,,CLR,0.00,VWS V14.01,2013-07-07 22:15:00,
2013-07-07 17:16:00,87.8,61.2,29.95,South,180,0.0,2.6,41,0.00,,CLR,0.00,VWS V14.01,2013-07-07 22:16:00,
2013-07-07 17:18:00,87.8,61.2,29.95,WSW,248,0.0,0.0,41,0.00,,CLR,0.00,VWS V14.01,2013-07-07 22:18:00,
2013-07-07 17:19:00,87.9,61.3,29.95,West,270,2.2,2.2,41,0.00,,CLR,0.00,VWS V14.01,2013-07-07 22:19:00,
2013-07-07 17:20:00,87.9,60.6,29.95,SW,225,0.0,2.2,40,0.00,,CLR,0.00,VWS V14.01,2013-07-07 22:20:00,
2013-07-07 17:21:00,87.9,60.6,29.95,SW,225,0.0,2.2,40,0.00,,CLR,0.00,VWS V14.01,2013-07-07 22:21:00,
2013-07-07 17:22:00,87.6,59.6,29.95,South,180,7.0,7.0,39,0.00,,CLR,0.00,VWS V14.01,2013-07-07 22:22:00,
2013-07-07 17:23:00,87.6,59.6,29.95,South,180,7.0,7.0,39,0.00,,CLR,0.00,VWS V14.01,2013-07-07 22:23:00,
2013-07-07 17:24:00,87.4,59.4,29.95,SSW,202,0.0,7.0,39,0.00,,CLR,0.00,VWS V14.01,2013-07-07 22:24:00,
2013-07-07 17:25:00,87.4,59.4,29.95,SSW,202,0.0,7.0,39,0.00,,CLR,0.00,VWS V14.01,2013-07-07 22:25:00,
2013-07-07 17:26:00,87.4,59.4,29.95,South,180,0.0,0.0,39,0.00,,CLR,0.00,VWS V14.01,2013-07-07 22:26:00,
2013-07-07 17:27:00,87.4,59.4,29.95,South,180,0.0,0.0,39,0.00,,CLR,0.00,VWS V14.01,2013-07-07 22:27:00,
2013-07-07 17:28:00,87.4,59.4,29.95,SSE,158,0.0,0.0,39,0.00,,CLR,0.00,VWS V14.01,2013-07-07 22:28:00,
2013-07-07 17:29:00,87.4,59.4,29.95,SSW,202,0.0,0.0,39,0.00,,CLR,0.00,VWS V14.01,2013-07-07 22:29:00,
2013-07-07 17:30:00,87.4,59.4,29.95,SSE,158,7.0,7.0,39,0.00,,CLR,0.00,VWS V14.01,2013-07-07 22:30:00,
2013-07-07 17:31:00,87.4,59.4,29.95,SSE,158,7.0,7.0,39,0.00,,CLR,0.00,VWS V14.01,2013-07-07 22:31:00,
2013-07-07 17:32:00,87.4,59.4,29.95,SSW,202,0.0,7.0,39,0.00,,CLR,0.00,VWS V14.01,2013-07-07 22:32:00,
2013-07-07 17:33:00,87.4,59.4,29.95,SSW,202,0.0,0.0,39,0.00,,CLR,0.00,VWS V14.01,2013-07-07 22:33:00,
2013-07-07 17:34:00,87.4,59.4,29.95,SSW,202,0.0,6.6,39,0.00,,CLR,0.00,VWS V14.01,2013-07-07 22:34:00,
2013-07-07 17:36:00,87.4,58.7,29.95,SSW,202,2.2,2.2,38,0.00,,CLR,0.00,VWS V14.01,2013-07-07 22:36:00,
2013-07-07 17:37:00,87.4,58.7,29.95,South,180,0.0,0.0,38,0.00,,CLR,0.00,VWS V14.01,2013-07-07 22:37:00,
2013-07-07 17:38:00,87.4,58.7,29.95,SW,225,0.0,0.0,38,0.00,,CLR,0.00,VWS V14.01,2013-07-07 22:38:00,
2013-07-07 17:39:00,87.4,58.7,29.95,South,180,1.2,1.2,38,0.00,,CLR,0.00,VWS V14.01,2013-07-07 22:39:00,
2013-07-07 17:40:00,87.4,58.7,29.95,South,180,0.0,1.2,38,0.00,,CLR,0.00,VWS V14.01,2013-07-07 22:40:00,
2013-07-07 17:42:00,87.4,58.7,29.95,SSE,158,0.0,0.0,38,0.00,,CLR,0.00,VWS V14.01,2013-07-07 22:42:00,
2013-07-07 17:43:00,87.4,58.7,29.95,SSE,158,0.0,0.0,38,0.00,,CLR,0.00,VWS V14.01,2013-07-07 22:43:00,
2013-07-07 17:44:00,87.4,59.4,29.94,South,180,0.0,0.0,39,0.00,,CLR,0.00,VWS V14.01,2013-07-07 22:44:00,
2013-07-07 17:45:00,87.2,59.2,29.94,SW,225,0.0,0.0,39,0.00,,CLR,0.00,VWS V14.01,2013-07-07 22:45:00,
2013-07-07 17:46:00,87.2,59.2,29.94,South,180,0.0,0.0,39,0.00,,CLR,0.00,VWS V14.01,2013-07-07 22:46:00,
2013-07-07 17:47:00,87.2,59.2,29.94,SSW,202,0.0,0.0,39,0.00,,CLR,0.00,VWS V14.01,2013-07-07 22:47:00,
2013-07-07 17:48:00,87.2,59.2,29.94,South,180,0.0,4.0,39,0.00,,CLR,0.00,VWS V14.01,2013-07-07 22:48:00,
2013-07-07 17:50:00,87.2,59.2,29.95,SSW,202,0.0,0.0,39,0.00,,CLR,0.00,VWS V14.01,2013-07-07 22:50:00,
2013-07-07 17:51:00,87.2,59.2,29.95,SSW,202,0.0,0.0,39,0.00,,CLR,0.00,VWS V14.01,2013-07-07 22:51:00,
2013-07-07 17:52:00,87.2,60.0,29.94,SSW,202,0.0,0.0,40,0.00,,CLR,0.00,VWS V14.01,2013-07-07 22:52:00,
2013-07-07 17:54:00,87.2,60.0,29.94,WSW,248,0.0,0.0,40,0.00,,CLR,0.00,VWS V14.01,2013-07-07 22:54:00,
2013-07-07 17:56:00,87.2,60.0,29.94,SW,225,0.0,0.0,40,0.00,,CLR,0.00,VWS V14.01,2013-07-07 22:56:00,
2013-07-07 17:57:00,87.2,60.0,29.94,South,180,0.0,0.0,40,0.00,,CLR,0.00,VWS V14.01,2013-07-07 22:57:00,
2013-07-07 17:58:00,87.4,60.1,29.94,South,180,1.6,7.6,40,0.00,,CLR,2.47,VWS V14.01,2013-07-07 22:58:00,
2013-07-07 17:59:00,87.4,60.1,29.94,South,180,1.6,7.6,40,0.00,,CLR,0.00,VWS V14.01,2013-07-07 22:59:00,
2013-07-07 18:00:00,87.4,60.1,29.94,WSW,248,0.0,1.6,40,0.00,,CLR,0.00,VWS V14.01,2013-07-07 23:00:00,
2013-07-07 18:02:00,87.4,60.8,29.94,West,270,0.0,0.0,41,0.00,,CLR,0.00,VWS V14.01,2013-07-07 23:02:00,
2013-07-07 18:03:00,87.6,61.0,29.94,South,180,0.0,0.0,41,0.00,,CLR,0.00,VWS V14.01,2013-07-07 23:03:00,
2013-07-07 18:04:00,87.6,61.0,29.94,South,180,0.0,0.0,41,0.00,,CLR,0.00,VWS V14.01,2013-07-07 23:04:00,
2013-07-07 18:05:00,87.6,61.0,29.94,South,180,0.0,0.0,41,0.00,,CLR,0.00,VWS V14.01,2013-07-07 23:05:00,
2013-07-07 18:06:00,87.9,61.3,29.93,SSW,202,0.0,0.0,41,0.00,,CLR,0.00,VWS V14.01,2013-07-07 23:06:00,
2013-07-07 18:07:00,87.9,61.3,29.93,SSW,202,0.0,0.0,41,0.00,,CLR,0.00,VWS V14.01,2013-07-07 23:07:00,
2013-07-07 18:08:00,87.9,60.6,29.93,South,180,0.0,0.0,40,0.00,,CLR,0.00,VWS V14.01,2013-07-07 23:08:00,
2013-07-07 18:09:00,87.9,60.6,29.93,South,180,0.0,0.0,40,0.00,,CLR,0.00,VWS V14.01,2013-07-07 23:09:00,
2013-07-07 18:10:00,87.9,60.6,29.94,South,180,0.0,2.2,40,0.00,,CLR,0.00,VWS V14.01,2013-07-07 23:10:00,
2013-07-07 18:11:00,87.9,60.6,29.94,South,180,0.0,2.2,40,0.00,,CLR,0.00,VWS V14.01,2013-07-07 23:11:00,
2013-07-07 18:12:00,87.9,60.6,29.93,South,180,5.8,5.8,40,0.00,,CLR,0.00,VWS V14.01,2013-07-07 23:12:00,
2013-07-07 18:14:00,87.4,60.1,29.93,South,180,0.0,0.0,40,0.00,,CLR,0.00,VWS V14.01,2013-07-07 23:14:00,
2013-07-07 18:16:00,87.4,60.1,29.93,South,180,5.2,5.2,40,0.00,,CLR,0.00,VWS V14.01,2013-07-07 23:16:00,
2013-07-07 18:17:00,87.2,60.0,29.93,SSE,158,3.4,5.2,40,0.00,,CLR,0.00,VWS V14.01,2013-07-07 23:17:00,
2013-07-07 18:18:00,87.2,60.0,29.93,SSE,158,1.2,3.4,40,0.00,,CLR,0.00,VWS V14.01,2013-07-07 23:18:00,
2013-07-07 18:20:00,87.2,60.0,29.93,South,180,0.0,1.2,40,0.00,,CLR,0.00,VWS V14.01,2013-07-07 23:20:00,
2013-07-07 18:22:00,87.0,59.8,29.93,South,180,4.0,4.0,40,0.00,,CLR,0.00,VWS V14.01,2013-07-07 23:22:00,
2013-07-07 18:23:00,87.0,59.8,29.93,South,180,4.0,4.0,40,0.00,,CLR,0.00,VWS V14.01,2013-07-07 23:23:00,
2013-07-07 18:24:00,87.0,59.8,29.93,SSW,202,5.2,5.2,40,0.00,,CLR,0.00,VWS V14.01,2013-07-07 23:24:00,
2013-07-07 18:26:00,86.9,59.7,29.93,SSE,158,0.0,6.6,40,0.00,,CLR,0.00,VWS V14.01,2013-07-07 23:26:00,
2013-07-07 18:27:00,86.9,59.7,29.93,SSE,158,0.0,0.0,40,0.00,,CLR,0.00,VWS V14.01,2013-07-07 23:27:00,
2013-07-07 18:28:00,86.9,59.7,29.94,SW,225,0.0,0.0,40,0.00,,CLR,0.00,VWS V14.01,2013-07-07 23:28:00,
2013-07-07 18:29:00,86.9,59.7,29.94,SW,225,0.0,0.0,40,0.00,,CLR,0.00,VWS V14.01,2013-07-07 23:29:00,
2013-07-07 18:30:00,86.9,60.4,29.94,SSW,202,0.0,0.0,41,0.00,,CLR,0.00,VWS V14.01,2013-07-07 23:30:00,
2013-07-07 18:31:00,86.9,60.4,29.94,WSW,248,0.0,0.0,41,0.00,,CLR,0.00,VWS V14.01,2013-07-07 23:31:00,
2013-07-07 18:32:00,86.9,60.4,29.94,South,180,0.0,0.0,41,0.00,,CLR,0.00,VWS V14.01,2013-07-07 23:32:00,
2013-07-07 18:33:00,86.9,60.4,29.94,South,180,0.0,0.0,41,0.00,,CLR,0.00,VWS V14.01,2013-07-07 23:33:00,
2013-07-07 18:34:00,86.7,60.9,29.94,SSW,202,0.0,0.0,42,0.00,,CLR,0.00,VWS V14.01,2013-07-07 23:34:00,
2013-07-07 18:36:00,86.7,60.9,29.94,SSE,158,0.0,0.0,42,0.00,,CLR,0.00,VWS V14.01,2013-07-07 23:36:00,
2013-07-07 18:37:00,86.7,60.9,29.94,SSE,158,0.0,0.0,42,0.00,,CLR,0.00,VWS V14.01,2013-07-07 23:37:00,
2013-07-07 18:38:00,86.5,60.7,29.94,SSE,158,0.0,0.0,42,0.00,,CLR,0.00,VWS V14.01,2013-07-07 23:38:00,
2013-07-07 18:39:00,86.5,60.7,29.94,SSE,158,0.0,0.0,42,0.00,,CLR,0.00,VWS V14.01,2013-07-07 23:39:00,
2013-07-07 18:40:00,86.3,60.5,29.94,South,180,4.0,4.0,42,0.00,,CLR,0.00,VWS V14.01,2013-07-07 23:40:00,
2013-07-07 18:41:00,86.3,60.5,29.94,South,180,4.0,4.0,42,0.00,,CLR,0.00,VWS V14.01,2013-07-07 23:41:00,
2013-07-07 18:42:00,86.3,60.5,29.94,SW,225,0.0,4.0,42,0.00,,CLR,0.00,VWS V14.01,2013-07-07 23:42:00,
2013-07-07 18:43:00,86.3,60.5,29.94,West,270,0.0,0.0,42,0.00,,CLR,0.00,VWS V14.01,2013-07-07 23:43:00,
2013-07-07 18:44:00,86.3,60.5,29.94,West,270,0.0,0.0,42,0.00,,CLR,0.00,VWS V14.01,2013-07-07 23:44:00,
2013-07-07 18:45:00,86.3,60.5,29.94,West,270,0.0,0.0,42,0.00,,CLR,0.00,VWS V14.01,2013-07-07 23:45:00,
2013-07-07 18:46:00,86.3,60.5,29.94,SW,225,0.0,0.0,42,0.00,,CLR,0.00,VWS V14.01,2013-07-07 23:46:00,
2013-07-07 18:47:00,86.1,60.3,29.94,South,180,0.0,0.0,42,0.00,,CLR,0.00,VWS V14.01,2013-07-07 23:47:00,
2013-07-07 18:48:00,86.1,60.3,29.94,West,270,0.0,0.0,42,0.00,,CLR,0.00,VWS V14.01,2013-07-07 23:48:00,
2013-07-07 18:50:00,86.1,60.3,29.94,WSW,248,0.0,0.0,42,0.00,,CLR,0.00,VWS V14.01,2013-07-07 23:50:00,
2013-07-07 18:51:00,86.3,60.5,29.94,South,180,0.0,0.0,42,0.00,,CLR,0.00,VWS V14.01,2013-07-07 23:51:00,
2013-07-07 18:52:00,86.1,60.3,29.94,South,180,0.0,0.0,42,0.00,,CLR,0.00,VWS V14.01,2013-07-07 23:52:00,
2013-07-07 18:53:00,86.1,60.3,29.94,South,180,0.0,0.0,42,0.00,,CLR,0.00,VWS V14.01,2013-07-07 23:53:00,
2013-07-07 18:54:00,86.1,60.3,29.94,WNW,292,0.0,0.0,42,0.00,,CLR,0.00,VWS V14.01,2013-07-07 23:54:00,
2013-07-07 18:56:00,86.1,61.0,29.94,SSE,158,0.0,0.0,43,0.00,,CLR,0.00,VWS V14.01,2013-07-07 23:56:00,
2013-07-07 18:58:00,86.3,61.2,29.94,SSE,158,0.0,0.0,43,0.00,,CLR,0.00,VWS V14.01,2013-07-07 23:58:00,
2013-07-07 18:59:00,86.1,61.0,29.94,South,180,0.0,0.0,43,0.00,,CLR,0.00,VWS V14.01,2013-07-07 23:59:00,
2013-07-07 19:00:00,86.3,61.2,29.93,South,180,0.0,0.0,43,0.00,,CLR,0.00,VWS V14.01,2013-07-08 00:00:00,
2013-07-07 19:01:00,86.3,61.2,29.93,South,180,0.0,0.0,43,0.00,,CLR,0.00,VWS V14.01,2013-07-08 00:01:00,
2013-07-07 19:02:00,86.3,61.2,29.94,South,180,0.0,0.0,43,0.00,,CLR,0.00,VWS V14.01,2013-07-08 00:02:00,
2013-07-07 19:04:00,86.3,61.2,29.94,SSW,202,0.0,0.0,43,0.00,,CLR,0.00,VWS V14.01,2013-07-08 00:04:00,
2013-07-07 19:05:00,86.3,61.2,29.94,South,180,0.0,0.0,43,0.00,,CLR,0.00,VWS V14.01,2013-07-08 00:05:00,
2013-07-07 19:06:00,86.3,61.2,29.94,South,180,0.0,0.0,43,0.00,,CLR,0.00,VWS V14.01,2013-07-08 00:06:00,
2013-07-07 19:07:00,86.3,61.2,29.93,South,180,0.0,0.0,43,0.00,,CLR,0.00,VWS V14.01,2013-07-08 00:07:00,
2013-07-07 19:08:00,86.3,61.8,29.94,South,180,0.0,0.0,44,0.00,,CLR,0.00,VWS V14.01,2013-07-08 00:08:00,
2013-07-07 19:09:00,86.3,61.8,29.94,South,180,0.0,0.0,44,0.00,,CLR,0.00,VWS V14.01,2013-07-08 00:09:00,
2013-07-07 19:10:00,86.3,61.8,29.94,South,180,0.0,0.0,44,0.00,,CLR,0.00,VWS V14.01,2013-07-08 00:10:00,
2013-07-07 19:12:00,86.3,61.8,29.94,SSE,158,0.0,0.0,44,0.00,,CLR,0.00,VWS V14.01,2013-07-08 00:12:00,
2013-07-07 19:13:00,86.3,61.8,29.94,SSE,158,0.0,0.0,44,0.00,,CLR,0.00,VWS V14.01,2013-07-08 00:13:00,
2013-07-07 19:14:00,86.3,61.8,29.94,South,180,0.0,0.0,44,0.00,,CLR,0.00,VWS V14.01,2013-07-08 00:14:00,
2013-07-07 19:15:00,86.3,61.8,29.93,South,180,0.0,0.0,44,0.00,,CLR,0.00,VWS V14.01,2013-07-08 00:15:00,
2013-07-07 19:16:00,86.3,62.5,29.94,SSE,158,0.0,0.0,45,0.00,,CLR,0.00,VWS V14.01,2013-07-08 00:16:00,
2013-07-07 19:18:00,86.3,62.5,29.93,South,180,0.0,0.0,45,0.00,,CLR,0.00,VWS V14.01,2013-07-08 00:18:00,
2013-07-07 19:19:00,86.3,62.5,29.93,South,180,0.0,0.0,45,0.00,,CLR,0.00,VWS V14.01,2013-07-08 00:19:00,
2013-07-07 19:20:00,86.3,62.5,29.93,South,180,0.0,0.0,45,0.00,,CLR,0.00,VWS V14.01,2013-07-08 00:20:00,
2013-07-07 19:21:00,86.3,62.5,29.93,South,180,0.0,0.0,45,0.00,,CLR,0.00,VWS V14.01,2013-07-08 00:21:00,
2013-07-07 19:22:00,86.3,62.5,29.93,South,180,0.0,0.0,45,0.00,,CLR,0.00,VWS V14.01,2013-07-08 00:22:00,
2013-07-07 19:23:00,86.3,62.5,29.93,SSW,202,8.8,8.8,45,0.00,,CLR,0.00,VWS V14.01,2013-07-08 00:23:00,
2013-07-07 19:24:00,86.3,62.5,29.93,SSE,158,0.0,8.8,45,0.00,,CLR,0.00,VWS V14.01,2013-07-08 00:24:00,
2013-07-07 19:26:00,86.3,62.5,29.93,SSE,158,0.0,0.0,45,0.00,,CLR,0.00,VWS V14.01,2013-07-08 00:26:00,
2013-07-07 19:27:00,86.3,62.5,29.93,SE,135,0.0,0.0,45,0.00,,CLR,0.00,VWS V14.01,2013-07-08 00:27:00,
2013-07-07 19:28:00,86.3,62.5,29.93,SSE,158,4.0,4.0,45,0.00,,CLR,0.00,VWS V14.01,2013-07-08 00:28:00,
2013-07-07 19:30:00,86.1,62.3,29.93,SSE,158,0.0,0.0,45,0.00,,CLR,0.00,VWS V14.01,2013-07-08 00:30:00,
2013-07-07 19:31:00,86.1,62.3,29.93,SSE,158,0.0,0.0,45,0.00,,CLR,0.00,VWS V14.01,2013-07-08 00:31:00,
2013-07-07 19:32:00,86.1,62.3,29.93,South,180,10.6,10.6,45,0.00,,CLR,0.00,VWS V14.01,2013-07-08 00:32:00,
2013-07-07 19:34:00,86.1,62.3,29.94,South,180,0.0,10.6,45,0.00,,CLR,0.00,VWS V14.01,2013-07-08 00:34:00,
2013-07-07 19:36:00,86.1,62.3,29.93,SSE,158,0.0,1.6,45,0.00,,CLR,0.00,VWS V14.01,2013-07-08 00:36:00,
2013-07-07 19:37:00,86.1,62.3,29.94,South,180,0.0,0.0,45,0.00,,CLR,0.00,VWS V14.01,2013-07-08 00:37:00,
2013-07-07 19:38:00,86.1,62.9,29.93,South,180,0.0,0.0,46,0.00,,CLR,0.00,VWS V14.01,2013-07-08 00:38:00,
2013-07-07 19:39:00,86.1,62.9,29.93,South,180,0.0,0.0,46,0.00,,CLR,0.00,VWS V14.01,2013-07-08 00:39:00,
2013-07-07 19:40:00,86.1,62.9,29.93,South,180,0.0,0.0,46,0.00,,CLR,0.00,VWS V14.01,2013-07-08 00:40:00,
2013-07-07 19:42:00,86.1,62.9,29.93,SSE,158,0.0,0.0,46,0.00,,CLR,0.00,VWS V14.01,2013-07-08 00:42:00,
2013-07-07 19:44:00,86.1,62.9,29.93,South,180,0.0,0.0,46,0.00,,CLR,0.00,VWS V14.01,2013-07-08 00:44:00,
2013-07-07 19:45:00,86.0,62.8,29.93,SW,225,0.0,0.0,46,0.00,,CLR,0.00,VWS V14.01,2013-07-08 00:45:00,
2013-07-07 19:46:00,86.0,62.8,29.94,SSW,202,0.0,0.0,46,0.00,,CLR,0.00,VWS V14.01,2013-07-08 00:46:00,
2013-07-07 19:47:00,86.0,62.8,29.94,SSW,202,0.0,0.0,46,0.00,,CLR,0.00,VWS V14.01,2013-07-08 00:47:00,
2013-07-07 19:48:00,85.8,62.7,29.94,SSE,158,0.0,0.0,46,0.00,,CLR,0.00,VWS V14.01,2013-07-08 00:48:00,
2013-07-07 19:49:00,85.8,62.7,29.94,SSE,158,0.0,0.0,46,0.00,,CLR,0.00,VWS V14.01,2013-07-08 00:49:00,
2013-07-07 19:50:00,85.6,62.5,29.93,South,180,0.0,0.0,46,0.00,,CLR,0.00,VWS V14.01,2013-07-08 00:50:00,
2013-07-07 19:52:00,85.8,62.7,29.93,South,180,5.8,5.8,46,0.00,,CLR,0.00,VWS V14.01,2013-07-08 00:52:00,
2013-07-07 19:53:00,85.6,62.5,29.93,SSW,202,0.0,0.0,46,0.00,,CLR,0.00,VWS V14.01,2013-07-08 00:53:00,
2013-07-07 19:54:00,85.6,62.5,29.93,SSE,158,0.0,0.0,46,0.00,,CLR,0.00,VWS V14.01,2013-07-08 00:54:00,
2013-07-07 19:56:00,85.4,62.3,29.93,SE,135,0.0,0.0,46,0.00,,CLR,0.00,VWS V14.01,2013-07-08 00:56:00,
2013-07-07 19:58:00,85.4,62.3,29.93,South,180,0.0,0.0,46,0.00,,CLR,0.00,VWS V14.01,2013-07-08 00:58:00,
2013-07-07 19:59:00,85.4,62.3,29.93,South,180,0.0,0.0,46,0.00,,CLR,0.00,VWS V14.01,2013-07-08 00:59:00,
2013-07-07 20:00:00,85.4,62.3,29.93,South,180,0.0,0.0,46,0.00,,CLR,0.00,VWS V14.01,2013-07-08 01:00:00,
2013-07-07 20:02:00,85.4,62.3,29.93,SSE,158,0.0,5.2,46,0.00,,CLR,0.00,VWS V14.01,2013-07-08 01:02:00,
2013-07-07 20:03:00,85.4,62.3,29.93,SSE,158,0.0,5.2,46,0.00,,CLR,0.00,VWS V14.01,2013-07-08 01:03:00,
2013-07-07 20:04:00,85.4,62.3,29.93,South,180,0.0,0.0,46,0.00,,CLR,0.00,VWS V14.01,2013-07-08 01:04:00,
2013-07-07 20:06:00,85.4,62.3,29.93,South,180,0.0,0.0,46,0.00,,CLR,0.00,VWS V14.01,2013-07-08 01:06:00,
2013-07-07 20:08:00,85.2,62.1,29.93,SSW,202,2.2,2.2,46,0.00,,CLR,0.00,VWS V14.01,2013-07-08 01:08:00,
2013-07-07 20:09:00,85.1,62.0,29.93,SSW,202,0.0,0.0,46,0.00,,CLR,0.00,VWS V14.01,2013-07-08 01:09:00,
2013-07-07 20:10:00,85.1,62.0,29.93,SSW,202,0.0,0.0,46,0.00,,CLR,0.00,VWS V14.01,2013-07-08 01:10:00,
2013-07-07 20:12:00,85.1,62.0,29.93,South,180,0.0,0.0,46,0.00,,CLR,0.00,VWS V14.01,2013-07-08 01:12:00,
2013-07-07 20:13:00,85.1,62.0,29.93,South,180,0.0,0.0,46,0.00,,CLR,0.00,VWS V14.01,2013-07-08 01:13:00,
2013-07-07 20:14:00,85.1,62.0,29.93,South,180,2.6,2.6,46,0.00,,CLR,0.00,VWS V14.01,2013-07-08 01:14:00,
2013-07-07 20:16:00,85.1,62.6,29.93,South,180,0.0,0.0,47,0.00,,CLR,0.00,VWS V14.01,2013-07-08 01:16:00,
2013-07-07 20:18:00,84.9,62.4,29.93,SSE,158,0.0,4.0,47,0.00,,CLR,0.00,VWS V14.01,2013-07-08 01:18:00,
2013-07-07 20:19:00,84.9,62.4,29.93,SSE,158,0.0,0.0,47,0.00,,CLR,0.00,VWS V14.01,2013-07-08 01:19:00,
2013-07-07 20:20:00,84.9,62.4,29.93,SSW,202,5.2,5.2,47,0.00,,CLR,0.00,VWS V14.01,2013-07-08 01:20:00,
2013-07-07 20:21:00,84.9,62.4,29.93,SSW,202,5.2,5.2,47,0.00,,CLR,0.00,VWS V14.01,2013-07-08 01:21:00,
2013-07-07 20:22:00,84.9,62.4,29.93,SSW,202,0.0,5.2,47,0.00,,CLR,0.00,VWS V14.01,2013-07-08 01:22:00,
2013-07-07 20:24:00,84.7,62.3,29.93,SSE,158,0.0,0.0,47,0.00,,CLR,0.00,VWS V14.01,2013-07-08 01:24:00,
2013-07-07 20:26:00,84.9,62.4,29.93,South,180,0.0,0.0,47,0.00,,CLR,0.00,VWS V14.01,2013-07-08 01:26:00,
2013-07-07 20:27:00,84.9,62.4,29.93,South,180,4.8,4.8,47,0.00,,CLR,0.00,VWS V14.01,2013-07-08 01:27:00,
2013-07-07 20:28:00,84.5,62.1,29.93,SSW,202,3.0,4.8,47,0.00,,CLR,0.00,VWS V14.01,2013-07-08 01:28:00,
2013-07-07 20:30:00,84.5,62.7,29.93,SW,225,0.0,3.0,48,0.00,,CLR,0.00,VWS V14.01,2013-07-08 01:30:00,
2013-07-07 20:32:00,84.5,62.7,29.93,SW,225,0.0,0.0,48,0.00,,CLR,0.00,VWS V14.01,2013-07-08 01:32:00,
2013-07-07 20:33:00,84.5,62.7,29.93,North,0,0.0,0.0,48,0.00,,CLR,0.00,VWS V14.01,2013-07-08 01:33:00,
2013-07-07 20:34:00,84.5,62.7,29.93,SSW,202,0.0,0.0,48,0.00,,CLR,0.00,VWS V14.01,2013-07-08 01:34:00,
2013-07-07 20:35:00,84.5,62.7,29.93,SSW,202,0.0,0.0,48,0.00,,CLR,0.00,VWS V14.01,2013-07-08 01:35:00,
2013-07-07 20:36:00,84.5,62.7,29.93,South,180,0.0,0.0,48,0.00,,CLR,0.00,VWS V14.01,2013-07-08 01:36:00,
2013-07-07 20:38:00,84.3,62.5,29.93,South,180,0.0,0.0,48,0.00,,CLR,0.00,VWS V14.01,2013-07-08 01:38:00,
2013-07-07 20:40:00,84.3,62.5,29.93,South,180,0.0,0.0,48,0.00,,CLR,0.00,VWS V14.01,2013-07-08 01:40:00,
2013-07-07 20:42:00,84.2,62.4,29.93,South,180,0.0,9.2,48,0.00,,CLR,0.00,VWS V14.01,2013-07-08 01:42:00,
2013-07-07 20:44:00,84.2,62.4,29.93,SSW,202,0.0,0.0,48,0.00,,CLR,0.00,VWS V14.01,2013-07-08 01:44:00,
2013-07-07 20:45:00,84.2,62.4,29.93,North,0,0.0,0.0,48,0.00,,CLR,0.00,VWS V14.01,2013-07-08 01:45:00,
2013-07-07 20:46:00,84.0,62.8,29.93,South,180,0.0,0.0,49,0.00,,CLR,0.00,VWS V14.01,2013-07-08 01:46:00,
2013-07-07 20:47:00,84.0,62.8,29.93,South,180,0.0,0.0,49,0.00,,CLR,0.00,VWS V14.01,2013-07-08 01:47:00,
2013-07-07 20:48:00,83.8,62.6,29.93,South,180,0.0,0.0,49,0.00,,CLR,0.00,VWS V14.01,2013-07-08 01:48:00,
2013-07-07 20:50:00,83.8,62.6,29.93,South,180,0.0,0.0,49,0.00,,CLR,0.00,VWS V14.01,2013-07-08 01:50:00,
2013-07-07 20:51:00,83.8,62.6,29.93,SSE,158,0.0,0.0,49,0.00,,CLR,0.00,VWS V14.01,2013-07-08 01:51:00,
2013-07-07 20:52:00,83.8,62.6,29.93,SSW,202,0.0,0.0,49,0.00,,CLR,0.00,VWS V14.01,2013-07-08 01:52:00,
2013-07-07 20:54:00,83.6,62.4,29.93,SSW,202,0.0,0.0,49,0.00,,CLR,0.00,VWS V14.01,2013-07-08 01:54:00,
2013-07-07 20:55:00,83.6,62.4,29.93,SSW,202,0.0,0.0,49,0.00,,CLR,0.00,VWS V14.01,2013-07-08 01:55:00,
2013-07-07 20:56:00,83.6,62.4,29.93,South,180,0.0,0.0,49,0.00,,CLR,0.00,VWS V14.01,2013-07-08 01:56:00,
2013-07-07 20:57:00,83.6,62.4,29.93,South,180,0.0,0.0,49,0.00,,CLR,0.00,VWS V14.01,2013-07-08 01:57:00,
2013-07-07 20:58:00,83.6,62.4,29.93,South,180,6.6,6.6,49,0.00,,CLR,0.00,VWS V14.01,2013-07-08 01:58:00,
2013-07-07 21:00:00,83.6,62.4,29.93,South,180,0.0,0.0,49,0.00,,CLR,0.00,VWS V14.01,2013-07-08 02:00:00,
2013-07-07 21:02:00,83.6,62.4,29.93,SSE,158,0.0,0.0,49,0.00,,CLR,0.00,VWS V14.01,2013-07-08 02:02:00,
2013-07-07 21:03:00,83.4,62.3,29.93,SE,135,0.0,0.0,49,0.00,,CLR,0.00,VWS V14.01,2013-07-08 02:03:00,
2013-07-07 21:04:00,83.3,62.7,29.94,South,180,0.0,0.0,50,0.00,,CLR,0.00,VWS V14.01,2013-07-08 02:04:00,
2013-07-07 21:06:00,83.1,62.5,29.94,South,180,0.0,0.0,50,0.00,,CLR,0.00,VWS V14.01,2013-07-08 02:06:00,
2013-07-07 21:08:00,83.1,62.5,29.94,South,180,0.0,0.0,50,0.00,,CLR,0.00,VWS V14.01,2013-07-08 02:08:00,
2013-07-07 21:09:00,83.1,63.1,29.94,SSE,158,0.0,0.0,51,0.00,,CLR,0.00,VWS V14.01,2013-07-08 02:09:00,
2013-07-07 21:10:00,83.1,63.1,29.94,SSW,202,0.0,0.0,51,0.00,,CLR,0.00,VWS V14.01,2013-07-08 02:10:00,
2013-07-07 21:11:00,83.1,63.1,29.94,SSW,202,0.0,0.0,51,0.00,,CLR,0.00,VWS V14.01,2013-07-08 02:11:00,
2013-07-07 21:12:00,83.1,63.1,29.94,South,180,0.0,0.0,51,0.00,,CLR,0.00,VWS V14.01,2013-07-08 02:12:00,
2013-07-07 21:14:00,83.1,63.1,29.94,SSE,158,0.0,0.0,51,0.00,,CLR,0.00,VWS V14.01,2013-07-08 02:14:00,
2013-07-07 21:15:00,83.1,63.1,29.94,SSE,158,0.0,0.0,51,0.00,,CLR,0.00,VWS V14.01,2013-07-08 02:15:00,
2013-07-07 21:16:00,83.1,63.1,29.94,South,180,0.0,0.0,51,0.00,,CLR,0.00,VWS V14.01,2013-07-08 02:16:00,
2013-07-07 21:18:00,82.9,62.9,29.94,SSE,158,0.0,3.4,51,0.00,,CLR,0.00,VWS V14.01,2013-07-08 02:18:00,
2013-07-07 21:20:00,82.9,62.9,29.94,SE,135,0.0,0.0,51,0.00,,CLR,0.00,VWS V14.01,2013-07-08 02:20:00,
2013-07-07 21:21:00,82.9,62.9,29.94,South,180,0.0,0.0,51,0.00,,CLR,0.00,VWS V14.01,2013-07-08 02:21:00,
2013-07-07 21:22:00,82.9,62.9,29.94,South,180,0.0,0.0,51,0.00,,CLR,0.00,VWS V14.01,2013-07-08 02:22:00,
2013-07-07 21:24:00,82.7,62.8,29.94,SE,135,0.0,0.0,51,0.00,,CLR,0.00,VWS V14.01,2013-07-08 02:24:00,
2013-07-07 21:26:00,82.7,62.8,29.94,SSE,158,0.0,0.0,51,0.00,,CLR,0.00,VWS V14.01,2013-07-08 02:26:00,
2013-07-07 21:27:00,82.7,62.8,29.94,SSW,202,0.0,0.0,51,0.00,,CLR,0.00,VWS V14.01,2013-07-08 02:27:00,
2013-07-07 21:28:00,82.7,62.8,29.94,SSE,158,0.0,0.0,51,0.00,,CLR,0.00,VWS V14.01,2013-07-08 02:28:00,
2013-07-07 21:30:00,82.7,62.8,29.94,SSE,158,0.0,0.0,51,0.00,,CLR,0.00,VWS V14.01,2013-07-08 02:30:00,
2013-07-07 21:32:00,82.5,62.6,29.95,South,180,0.0,0.0,51,0.00,,CLR,0.00,VWS V14.01,2013-07-08 02:32:00,
2013-07-07 21:34:00,82.5,62.6,29.94,SSE,158,3.4,3.4,51,0.00,,CLR,0.00,VWS V14.01,2013-07-08 02:34:00,
2013-07-07 21:36:00,82.7,62.8,29.94,South,180,4.0,4.0,51,0.00,,CLR,0.00,VWS V14.01,2013-07-08 02:36:00,
2013-07-07 21:37:00,82.7,62.8,29.94,South,180,0.0,0.0,51,0.00,,CLR,0.00,VWS V14.01,2013-07-08 02:37:00,
2013-07-07 21:38:00,82.5,62.6,29.95,SSE,158,0.0,0.0,51,0.00,,CLR,0.00,VWS V14.01,2013-07-08 02:38:00,
2013-07-07 21:40:00,82.5,62.6,29.94,SSE,158,0.0,0.0,51,0.00,,BKN120,0.00,VWS V14.01,2013-07-08 02:40:00,
2013-07-07 21:42:00,82.5,62.6,29.95,SSE,158,0.0,0.0,51,0.00,,CLR,0.00,VWS V14.01,2013-07-08 02:42:00,
2013-07-07 21:44:00,82.5,62.6,29.95,SSW,202,0.0,0.0,51,0.00,,BKN120,0.00,VWS V14.01,2013-07-08 02:44:00,
2013-07-07 21:46:00,82.4,62.5,29.95,South,180,1.6,1.6,51,0.00,,BKN120,0.00,VWS V14.01,2013-07-08 02:46:00,
2013-07-07 21:47:00,82.4,62.5,29.95,SSE,158,0.0,0.0,51,0.00,,BKN120,0.00,VWS V14.01,2013-07-08 02:47:00,
2013-07-07 21:48:00,82.4,62.5,29.95,SSE,158,0.0,0.0,51,0.00,,CLR,0.00,VWS V14.01,2013-07-08 02:48:00,
2013-07-07 21:49:00,82.4,62.5,29.95,SSE,158,0.0,0.0,51,0.00,,BKN120,0.00,VWS V14.01,2013-07-08 02:49:00,
2013-07-07 21:50:00,82.4,62.5,29.95,SSW,202,4.0,4.0,51,0.00,,CLR,0.00,VWS V14.01,2013-07-08 02:50:00,
2013-07-07 21:51:00,82.4,62.5,29.95,SSW,202,4.0,4.0,51,0.00,,BKN120,0.00,VWS V14.01,2013-07-08 02:51:00,
2013-07-07 21:52:00,82.0,62.1,29.95,South,180,0.0,4.0,51,0.00,,BKN120,0.00,VWS V14.01,2013-07-08 02:52:00,
2013-07-07 21:54:00,82.0,62.1,29.95,SSW,202,5.2,5.2,51,0.00,,CLR,0.00,VWS V14.01,2013-07-08 02:54:00,
2013-07-07 21:56:00,82.0,62.1,29.95,SSW,202,4.8,5.2,51,0.00,,CLR,0.00,VWS V14.01,2013-07-08 02:56:00,
2013-07-07 21:57:00,82.0,62.1,29.95,SSW,202,4.8,4.8,51,0.00,,BKN120,0.00,VWS V14.01,2013-07-08 02:57:00,
2013-07-07 21:58:00,82.0,62.1,29.95,SSW,202,0.0,4.8,51,0.00,,BKN120,0.00,VWS V14.01,2013-07-08 02:58:00,
2013-07-07 21:59:00,82.0,62.1,29.95,South,180,0.0,0.0,51,0.00,,BKN120,0.00,VWS V14.01,2013-07-08 02:59:00,
2013-07-07 22:00:00,82.0,62.1,29.95,SSW,202,7.6,7.6,51,0.00,,BKN120,0.00,VWS V14.01,2013-07-08 03:00:00,
2013-07-07 22:02:00,82.0,62.1,29.95,SSE,158,0.0,7.6,51,0.00,,CLR,0.00,VWS V14.01,2013-07-08 03:02:00,
2013-07-07 22:04:00,82.0,62.1,29.95,West,270,0.0,0.0,51,0.00,,BKN120,0.00,VWS V14.01,2013-07-08 03:04:00,
2013-07-07 22:06:00,82.0,62.1,29.96,SW,225,0.0,4.8,51,0.00,,BKN120,0.00,VWS V14.01,2013-07-08 03:06:00,
2013-07-07 22:08:00,82.0,61.5,29.96,SSW,202,0.0,0.0,50,0.00,,CLR,0.00,VWS V14.01,2013-07-08 03:08:00,
2013-07-07 22:10:00,82.0,61.5,29.96,South,180,0.0,0.0,50,0.00,,BKN120,0.00,VWS V14.01,2013-07-08 03:10:00,
2013-07-07 22:11:00,82.0,62.1,29.96,SSW,202,0.0,0.0,51,0.00,,BKN120,0.00,VWS V14.01,2013-07-08 03:11:00,
2013-07-07 22:12:00,82.0,62.1,29.96,SSW,202,0.0,0.0,51,0.00,,BKN120,0.00,VWS V14.01,2013-07-08 03:12:00,
2013-07-07 22:13:00,82.0,62.1,29.96,South,180,0.0,0.0,51,0.00,,BKN120,0.00,VWS V14.01,2013-07-08 03:13:00,
2013-07-07 22:14:00,82.0,62.1,29.96,South,180,0.0,0.0,51,0.00,,CLR,0.00,VWS V14.01,2013-07-08 03:14:00,
2013-07-07 22:15:00,82.0,62.1,29.96,South,180,0.0,0.0,51,0.00,,BKN120,0.00,VWS V14.01,2013-07-08 03:15:00,
2013-07-07 22:16:00,81.8,61.9,29.96,South,180,0.0,0.0,51,0.00,,BKN120,0.00,VWS V14.01,2013-07-08 03:16:00,
2013-07-07 22:17:00,81.8,61.9,29.96,South,180,0.0,0.0,51,0.00,,BKN120,0.00,VWS V14.01,2013-07-08 03:17:00,
2013-07-07 22:18:00,81.8,61.9,29.96,SSW,202,0.0,0.0,51,0.00,,CLR,0.00,VWS V14.01,2013-07-08 03:18:00,
2013-07-07 22:19:00,81.8,61.9,29.96,SSW,202,0.0,0.0,51,0.00,,BKN120,0.00,VWS V14.01,2013-07-08 03:19:00,
2013-07-07 22:20:00,81.8,61.9,29.96,South,180,0.0,0.0,51,0.00,,BKN120,0.00,VWS V14.01,2013-07-08 03:20:00,
2013-07-07 22:22:00,81.8,61.9,29.96,SSW,202,0.0,0.0,51,0.00,,CLR,0.00,VWS V14.01,2013-07-08 03:22:00,
2013-07-07 22:23:00,81.8,61.9,29.96,SSW,202,0.0,0.0,51,0.00,,BKN120,0.00,VWS V14.01,2013-07-08 03:23:00,
2013-07-07 22:24:00,81.6,61.7,29.96,South,180,0.0,0.0,51,0.00,,CLR,0.00,VWS V14.01,2013-07-08 03:24:00,
2013-07-07 22:26:00,81.6,61.7,29.96,South,180,0.0,0.0,51,0.00,,BKN120,0.00,VWS V14.01,2013-07-08 03:26:00,
2013-07-07 22:27:00,81.6,61.7,29.96,South,180,0.0,0.0,51,0.00,,BKN120,0.00,VWS V14.01,2013-07-08 03:27:00,
2013-07-07 22:28:00,81.6,61.7,29.96,SSE,158,0.0,0.0,51,0.00,,BKN120,0.00,VWS V14.01,2013-07-08 03:28:00,
2013-07-07 22:30:00,81.6,61.7,29.96,South,180,0.0,4.8,51,0.00,,CLR,0.00,VWS V14.01,2013-07-08 03:30:00,
2013-07-07 22:31:00,81.6,61.7,29.96,South,180,0.0,0.0,51,0.00,,BKN120,0.00,VWS V14.01,2013-07-08 03:31:00,
2013-07-07 22:32:00,81.5,61.7,29.96,South,180,1.6,1.6,51,0.00,,BKN120,0.00,VWS V14.01,2013-07-08 03:32:00,
2013-07-07 22:33:00,81.6,61.7,29.96,South,180,0.0,0.0,51,0.00,,BKN120,0.00,VWS V14.01,2013-07-08 03:33:00,
2013-07-07 22:34:00,81.5,61.7,29.96,South,180,6.2,6.2,51,0.00,,CLR,0.00,VWS V14.01,2013-07-08 03:34:00,
2013-07-07 22:36:00,81.5,61.7,29.96,SSE,158,0.0,6.2,51,0.00,,BKN120,0.00,VWS V14.01,2013-07-08 03:36:00,
2013-07-07 22:37:00,81.5,61.7,29.96,SSE,158,0.0,0.0,51,0.00,,BKN120,0.00,VWS V14.01,2013-07-08 03:37:00,
2013-07-07 22:38:00,81.5,61.7,29.96,SSW,202,0.0,0.0,51,0.00,,BKN120,0.00,VWS V14.01,2013-07-08 03:38:00,
2013-07-07 22:40:00,81.5,61.7,29.97,SSE,158,0.0,0.0,51,0.00,,CLR,0.00,VWS V14.01,2013-07-08 03:40:00,
2013-07-07 22:41:00,81.5,61.7,29.97,SSE,158,0.0,0.0,51,0.00,,CLR,0.00,VWS V14.01,2013-07-08 03:41:00,
2013-07-07 22:42:00,81.3,61.5,29.96,SSE,158,1.2,1.2,51,0.00,,CLR,0.00,VWS V14.01,2013-07-08 03:42:00,
2013-07-07 22:43:00,81.5,61.7,29.96,South,180,0.0,0.0,51,0.00,,CLR,0.00,VWS V14.01,2013-07-08 03:43:00,
2013-07-07 22:44:00,81.5,62.2,29.97,South,180,0.0,0.0,52,0.00,,CLR,0.00,VWS V14.01,2013-07-08 03:44:00,
2013-07-07 22:46:00,81.5,61.7,29.96,South,180,0.0,0.0,51,0.00,,CLR,0.00,VWS V14.01,2013-07-08 03:46:00,
2013-07-07 22:48:00,81.5,61.7,29.97,SSW,202,0.0,0.0,51,0.00,,CLR,0.00,VWS V14.01,2013-07-08 03:48:00,
2013-07-07 22:50:00,81.5,61.7,29.97,SE,135,0.0,0.0,51,0.00,,CLR,0.00,VWS V14.01,2013-07-08 03:50:00,
2013-07-07 22:51:00,81.5,61.7,29.97,SE,135,0.0,0.0,51,0.00,,CLR,0.00,VWS V14.01,2013-07-08 03:51:00,
2013-07-07 22:52:00,81.3,62.0,29.97,SSW,202,0.0,2.6,52,0.00,,CLR,0.00,VWS V14.01,2013-07-08 03:52:00,
2013-07-07 22:53:00,81.3,62.0,29.97,SSW,202,0.0,0.0,52,0.00,,CLR,0.00,VWS V14.01,2013-07-08 03:53:00,
2013-07-07 22:54:00,81.5,61.7,29.97,South,180,0.0,0.0,51,0.00,,CLR,0.00,VWS V14.01,2013-07-08 03:54:00,
2013-07-07 22:56:00,81.3,62.0,29.97,SSE,158,0.0,0.0,52,0.00,,CLR,0.00,VWS V14.01,2013-07-08 03:56:00,
2013-07-07 22:58:00,81.3,62.0,29.98,SSW,202,0.0,0.0,52,0.00,,CLR,0.00,VWS V14.01,2013-07-08 03:58:00,
2013-07-07 22:59:00,81.3,62.0,29.98,South,180,0.0,0.0,52,0.00,,CLR,0.00,VWS V14.01,2013-07-08 03:59:00,
2013-07-07 23:00:00,81.3,62.0,29.98,South,180,0.0,0.0,52,0.00,,CLR,0.00,VWS V14.01,2013-07-08 04:00:00,
2013-07-07 23:01:00,81.3,62.0,29.98,South,180,0.0,0.0,52,0.00,,CLR,0.00,VWS V14.01,2013-07-08 04:01:00,
2013-07-07 23:02:00,81.3,62.0,29.98,South,180,0.0,0.0,52,0.00,,CLR,0.00,VWS V14.01,2013-07-08 04:02:00,
2013-07-07 23:04:00,81.1,61.8,29.98,South,180,0.0,0.0,52,0.00,,CLR,0.00,VWS V14.01,2013-07-08 04:04:00,
2013-07-07 23:05:00,81.1,61.8,29.98,South,180,0.0,0.0,52,0.00,,CLR,0.00,VWS V14.01,2013-07-08 04:05:00,
2013-07-07 23:06:00,81.1,61.8,29.98,North,0,0.0,0.0,52,0.00,,CLR,0.00,VWS V14.01,2013-07-08 04:06:00,
2013-07-07 23:08:00,81.1,61.8,29.97,SSE,158,0.0,0.0,52,0.00,,CLR,0.00,VWS V14.01,2013-07-08 04:08:00,
2013-07-07 23:10:00,81.3,62.0,29.97,South,180,0.0,0.0,52,0.00,,CLR,0.00,VWS V14.01,2013-07-08 04:10:00,
2013-07-07 23:12:00,80.9,61.6,29.97,South,180,0.0,0.0,52,0.00,,CLR,0.00,VWS V14.01,2013-07-08 04:12:00,
2013-07-07 23:13:00,80.9,61.6,29.97,South,180,0.0,0.0,52,0.00,,CLR,0.00,VWS V14.01,2013-07-08 04:13:00,
2013-07-07 23:14:00,80.9,61.6,29.97,SSE,158,0.0,0.0,52,0.00,,CLR,0.00,VWS V14.01,2013-07-08 04:14:00,
2013-07-07 23:16:00,81.3,62.0,29.97,South,180,0.0,0.0,52,0.00,,CLR,0.00,VWS V14.01,2013-07-08 04:16:00,
2013-07-07 23:18:00,81.1,61.8,29.97,South,180,0.0,0.4,52,0.00,,CLR,0.00,VWS V14.01,2013-07-08 04:18:00,
2013-07-07 23:20:00,80.9,61.6,29.97,South,180,0.0,4.8,52,0.00,,CLR,0.00,VWS V14.01,2013-07-08 04:20:00,
2013-07-07 23:21:00,80.9,61.6,29.97,South,180,0.0,0.0,52,0.00,,CLR,0.00,VWS V14.01,2013-07-08 04:21:00,
2013-07-07 23:22:00,80.9,61.6,29.97,South,180,0.0,0.0,52,0.00,,CLR,0.00,VWS V14.01,2013-07-08 04:22:00,
2013-07-07 23:23:00,80.9,61.6,29.97,South,180,0.0,0.0,52,0.00,,CLR,0.00,VWS V14.01,2013-07-08 04:23:00,
2013-07-07 23:24:00,80.9,61.6,29.98,South,180,7.0,7.0,52,0.00,,CLR,0.00,VWS V14.01,2013-07-08 04:24:00,
2013-07-07 23:26:00,80.7,61.5,29.98,South,180,1.6,1.6,52,0.00,,CLR,0.00,VWS V14.01,2013-07-08 04:26:00,
2013-07-07 23:27:00,80.7,61.5,29.98,South,180,1.6,1.6,52,0.00,,CLR,0.00,VWS V14.01,2013-07-08 04:27:00,
2013-07-07 23:28:00,80.7,61.5,29.98,South,180,0.0,1.6,52,0.00,,CLR,0.00,VWS V14.01,2013-07-08 04:28:00,
2013-07-07 23:29:00,80.7,61.5,29.98,South,180,4.8,4.8,52,0.00,,CLR,0.00,VWS V14.01,2013-07-08 04:29:00,
2013-07-07 23:30:00,80.7,62.0,29.98,SSE,158,0.0,4.8,53,0.00,,CLR,0.00,VWS V14.01,2013-07-08 04:30:00,
2013-07-07 23:32:00,80.6,61.9,29.98,South,180,0.0,4.4,53,0.00,,CLR,0.00,VWS V14.01,2013-07-08 04:32:00,
2013-07-07 23:33:00,80.6,61.9,29.98,South,180,0.0,0.0,53,0.00,,CLR,0.00,VWS V14.01,2013-07-08 04:33:00,
2013-07-07 23:34:00,80.6,61.9,29.98,SW,225,0.0,0.0,53,0.00,,CLR,0.00,VWS V14.01,2013-07-08 04:34:00,
2013-07-07 23:35:00,80.7,62.0,29.98,South,180,0.0,0.0,53,0.00,,CLR,0.00,VWS V14.01,2013-07-08 04:35:00,
2013-07-07 23:36:00,80.6,61.9,29.98,South,180,0.0,0.0,53,0.00,,CLR,0.00,VWS V14.01,2013-07-08 04:36:00,
2013-07-07 23:38:00,80.4,61.7,29.98,South,180,0.0,0.0,53,0.00,,CLR,0.00,VWS V14.01,2013-07-08 04:38:00,
2013-07-07 23:39:00,80.4,61.7,29.98,South,180,0.0,0.0,53,0.00,,CLR,0.00,VWS V14.01,2013-07-08 04:39:00,
2013-07-07 23:40:00,80.4,61.7,29.98,SSE,158,0.0,0.0,53,0.00,,CLR,0.00,VWS V14.01,2013-07-08 04:40:00,
2013-07-07 23:41:00,80.4,61.7,29.98,SSE,158,0.0,0.0,53,0.00,,CLR,0.00,VWS V14.01,2013-07-08 04:41:00,
2013-07-07 23:42:00,80.4,61.7,29.98,South,180,0.0,0.0,53,0.00,,CLR,0.00,VWS V14.01,2013-07-08 04:42:00,
2013-07-07 23:43:00,80.4,61.7,29.98,South,180,0.0,0.0,53,0.00,,CLR,0.00,VWS V14.01,2013-07-08 04:43:00,
2013-07-07 23:44:00,80.4,61.7,29.98,SSE,158,11.0,11.0,53,0.00,,CLR,0.00,VWS V14.01,2013-07-08 04:44:00,
2013-07-07 23:45:00,80.4,61.7,29.98,SSE,158,0.0,0.0,53,0.00,,CLR,0.00,VWS V14.01,2013-07-08 04:45:00,
2013-07-07 23:46:00,80.4,61.7,29.98,South,180,6.2,6.2,53,0.00,,CLR,0.00,VWS V14.01,2013-07-08 04:46:00,
2013-07-07 23:48:00,80.4,61.7,29.98,South,180,5.2,5.2,53,0.00,,CLR,0.00,VWS V14.01,2013-07-08 04:48:00,
2013-07-07 23:49:00,80.4,61.7,29.98,South,180,5.2,5.2,53,0.00,,CLR,0.00,VWS V14.01,2013-07-08 04:49:00,
2013-07-07 23:50:00,80.2,61.5,29.98,South,180,0.0,5.2,53,0.00,,CLR,0.00,VWS V14.01,2013-07-08 04:50:00,
2013-07-07 23:52:00,80.2,62.1,29.98,South,180,0.0,0.0,54,0.00,,CLR,0.00,VWS V14.01,2013-07-08 04:52:00,
2013-07-07 23:53:00,80.2,62.1,29.98,South,180,0.0,0.0,54,0.00,,CLR,0.00,VWS V14.01,2013-07-08 04:53:00,
2013-07-07 23:54:00,80.2,62.1,29.98,SSE,158,0.0,0.0,54,0.00,,CLR,0.00,VWS V14.01,2013-07-08 04:54:00,
2013-07-07 23:55:00,80.2,62.1,29.98,SSE,158,0.0,0.0,54,0.00,,CLR,0.00,VWS V14.01,2013-07-08 04:55:00,
2013-07-07 23:56:00,80.2,62.1,29.98,South,180,0.0,2.2,54,0.00,,CLR,0.00,VWS V14.01,2013-07-08 04:56:00,
2013-07-07 23:58:00,80.0,61.9,29.98,SSE,158,0.0,0.0,54,0.00,,CLR,0.00,VWS V14.01,2013-07-08 04:58:00,
2013-07-07 23:59:00,80.2,62.1,29.97,SSW,202,0.0,0.0,54,0.00,,CLR,0.00,VWS V14.01,2013-07-08 04:59:00,